<?xml version="1.0" encoding="UTF-8" standalone="no" ?>
<gpx xmlns="http://www.topografix.com/GPX/1/1" xmlns:xsi="http://www.w3.org/2001/XMLSchema-instance" xsi:schemaLocation="http://www.topografix.com/GPX/1/1 http://www.topografix.com/GPX/1/1/gpx.xsd" version="1.1" creator="VisuGPX - https://www.visugpx.com">
  <metadata>
    <name>2022-04-25 Tentative n°1 pour le Pic du Cagire</name>
    <desc><![CDATA[OK c'était pété de nuages et de boue on recommencera quand ce sera clean.]]></desc>
  </metadata>
  <trk>
    <name><![CDATA[2022-04-25 15:42:59]]></name>
    <trkseg>
      <trkpt lat="42.91958" lon="0.76139">
        <ele>1321.47</ele>
        <time>2022-04-25T08:48:33Z</time>
      </trkpt>
      <trkpt lat="42.91966" lon="0.76132">
        <ele>1322.43</ele>
        <time>2022-04-25T08:48:45Z</time>
      </trkpt>
      <trkpt lat="42.91965" lon="0.76122">
        <ele>1322.43</ele>
        <time>2022-04-25T08:48:54Z</time>
      </trkpt>
      <trkpt lat="42.91971" lon="0.76112">
        <ele>1323.87</ele>
        <time>2022-04-25T08:49:06Z</time>
      </trkpt>
      <trkpt lat="42.91972" lon="0.76108">
        <ele>1324.83</ele>
        <time>2022-04-25T08:49:16Z</time>
      </trkpt>
      <trkpt lat="42.91962" lon="0.7606">
        <ele>1325.31</ele>
        <time>2022-04-25T08:49:27Z</time>
      </trkpt>
      <trkpt lat="42.91963" lon="0.76044">
        <ele>1326.28</ele>
        <time>2022-04-25T08:49:38Z</time>
      </trkpt>
      <trkpt lat="42.91972" lon="0.76041">
        <ele>1328.2</ele>
        <time>2022-04-25T08:49:49Z</time>
      </trkpt>
      <trkpt lat="42.91974" lon="0.76055">
        <ele>1329.64</ele>
        <time>2022-04-25T08:50:01Z</time>
      </trkpt>
      <trkpt lat="42.91975" lon="0.76054">
        <ele>1331.08</ele>
        <time>2022-04-25T08:50:05Z</time>
      </trkpt>
      <trkpt lat="42.91978" lon="0.76045">
        <ele>1332.04</ele>
        <time>2022-04-25T08:50:16Z</time>
      </trkpt>
      <trkpt lat="42.91982" lon="0.76041">
        <ele>1332.52</ele>
        <time>2022-04-25T08:50:23Z</time>
      </trkpt>
      <trkpt lat="42.91989" lon="0.76029">
        <ele>1334.45</ele>
        <time>2022-04-25T08:50:36Z</time>
      </trkpt>
      <trkpt lat="42.91993" lon="0.76066">
        <ele>1334.93</ele>
        <time>2022-04-25T08:50:47Z</time>
      </trkpt>
      <trkpt lat="42.91999" lon="0.76091">
        <ele>1334.93</ele>
        <time>2022-04-25T08:50:59Z</time>
      </trkpt>
      <trkpt lat="42.92003" lon="0.76095">
        <ele>1335.89</ele>
        <time>2022-04-25T08:51:10Z</time>
      </trkpt>
      <trkpt lat="42.92007" lon="0.76098">
        <ele>1336.37</ele>
        <time>2022-04-25T08:51:15Z</time>
      </trkpt>
      <trkpt lat="42.92017" lon="0.76101">
        <ele>1337.81</ele>
        <time>2022-04-25T08:51:26Z</time>
      </trkpt>
      <trkpt lat="42.92028" lon="0.76103">
        <ele>1339.73</ele>
        <time>2022-04-25T08:51:40Z</time>
      </trkpt>
      <trkpt lat="42.92034" lon="0.76097">
        <ele>1341.18</ele>
        <time>2022-04-25T08:51:52Z</time>
      </trkpt>
      <trkpt lat="42.92046" lon="0.76093">
        <ele>1342.14</ele>
        <time>2022-04-25T08:52:02Z</time>
      </trkpt>
      <trkpt lat="42.92052" lon="0.76095">
        <ele>1343.58</ele>
        <time>2022-04-25T08:52:07Z</time>
      </trkpt>
      <trkpt lat="42.92058" lon="0.76107">
        <ele>1345.02</ele>
        <time>2022-04-25T08:52:19Z</time>
      </trkpt>
      <trkpt lat="42.92065" lon="0.76118">
        <ele>1346.46</ele>
        <time>2022-04-25T08:52:32Z</time>
      </trkpt>
      <trkpt lat="42.92074" lon="0.7613">
        <ele>1347.91</ele>
        <time>2022-04-25T08:52:46Z</time>
      </trkpt>
      <trkpt lat="42.92084" lon="0.76141">
        <ele>1349.35</ele>
        <time>2022-04-25T08:52:59Z</time>
      </trkpt>
      <trkpt lat="42.92094" lon="0.76151">
        <ele>1350.79</ele>
        <time>2022-04-25T08:53:11Z</time>
      </trkpt>
      <trkpt lat="42.92102" lon="0.76158">
        <ele>1352.23</ele>
        <time>2022-04-25T08:53:21Z</time>
      </trkpt>
      <trkpt lat="42.92112" lon="0.76162">
        <ele>1353.67</ele>
        <time>2022-04-25T08:53:33Z</time>
      </trkpt>
      <trkpt lat="42.92124" lon="0.76168">
        <ele>1354.63</ele>
        <time>2022-04-25T08:53:45Z</time>
      </trkpt>
      <trkpt lat="42.92133" lon="0.76174">
        <ele>1356.08</ele>
        <time>2022-04-25T08:53:56Z</time>
      </trkpt>
      <trkpt lat="42.92142" lon="0.76182">
        <ele>1357.52</ele>
        <time>2022-04-25T08:54:09Z</time>
      </trkpt>
      <trkpt lat="42.92144" lon="0.76183">
        <ele>1358</ele>
        <time>2022-04-25T08:54:11Z</time>
      </trkpt>
      <trkpt lat="42.92155" lon="0.76187">
        <ele>1359.92</ele>
        <time>2022-04-25T08:54:22Z</time>
      </trkpt>
      <trkpt lat="42.92162" lon="0.76194">
        <ele>1360.88</ele>
        <time>2022-04-25T08:54:31Z</time>
      </trkpt>
      <trkpt lat="42.92169" lon="0.76202">
        <ele>1361.84</ele>
        <time>2022-04-25T08:54:41Z</time>
      </trkpt>
      <trkpt lat="42.92174" lon="0.76213">
        <ele>1363.29</ele>
        <time>2022-04-25T08:54:51Z</time>
      </trkpt>
      <trkpt lat="42.92179" lon="0.76227">
        <ele>1364.25</ele>
        <time>2022-04-25T08:55:02Z</time>
      </trkpt>
      <trkpt lat="42.92179" lon="0.76229">
        <ele>1365.21</ele>
        <time>2022-04-25T08:55:04Z</time>
      </trkpt>
      <trkpt lat="42.92185" lon="0.76245">
        <ele>1366.17</ele>
        <time>2022-04-25T08:55:17Z</time>
      </trkpt>
      <trkpt lat="42.92189" lon="0.76258">
        <ele>1367.61</ele>
        <time>2022-04-25T08:55:28Z</time>
      </trkpt>
      <trkpt lat="42.92195" lon="0.76271">
        <ele>1369.05</ele>
        <time>2022-04-25T08:55:41Z</time>
      </trkpt>
      <trkpt lat="42.92202" lon="0.76284">
        <ele>1370.98</ele>
        <time>2022-04-25T08:55:54Z</time>
      </trkpt>
      <trkpt lat="42.92208" lon="0.76297">
        <ele>1372.42</ele>
        <time>2022-04-25T08:56:07Z</time>
      </trkpt>
      <trkpt lat="42.92213" lon="0.76309">
        <ele>1373.86</ele>
        <time>2022-04-25T08:56:18Z</time>
      </trkpt>
      <trkpt lat="42.92218" lon="0.76324">
        <ele>1375.3</ele>
        <time>2022-04-25T08:56:32Z</time>
      </trkpt>
      <trkpt lat="42.92226" lon="0.76338">
        <ele>1376.75</ele>
        <time>2022-04-25T08:56:45Z</time>
      </trkpt>
      <trkpt lat="42.92233" lon="0.7635">
        <ele>1378.19</ele>
        <time>2022-04-25T08:56:57Z</time>
      </trkpt>
      <trkpt lat="42.9224" lon="0.76363">
        <ele>1380.11</ele>
        <time>2022-04-25T08:57:10Z</time>
      </trkpt>
      <trkpt lat="42.92247" lon="0.76378">
        <ele>1381.07</ele>
        <time>2022-04-25T08:57:23Z</time>
      </trkpt>
      <trkpt lat="42.92254" lon="0.7639">
        <ele>1382.99</ele>
        <time>2022-04-25T08:57:35Z</time>
      </trkpt>
      <trkpt lat="42.92262" lon="0.764">
        <ele>1383.96</ele>
        <time>2022-04-25T08:57:46Z</time>
      </trkpt>
      <trkpt lat="42.9227" lon="0.76407">
        <ele>1385.4</ele>
        <time>2022-04-25T08:57:56Z</time>
      </trkpt>
      <trkpt lat="42.92278" lon="0.76414">
        <ele>1386.84</ele>
        <time>2022-04-25T08:58:07Z</time>
      </trkpt>
      <trkpt lat="42.92286" lon="0.76422">
        <ele>1388.28</ele>
        <time>2022-04-25T08:58:18Z</time>
      </trkpt>
      <trkpt lat="42.92295" lon="0.76431">
        <ele>1389.24</ele>
        <time>2022-04-25T08:58:29Z</time>
      </trkpt>
      <trkpt lat="42.92297" lon="0.76436">
        <ele>1389.72</ele>
        <time>2022-04-25T08:58:34Z</time>
      </trkpt>
      <trkpt lat="42.92304" lon="0.76446">
        <ele>1391.17</ele>
        <time>2022-04-25T08:58:45Z</time>
      </trkpt>
      <trkpt lat="42.92311" lon="0.76445">
        <ele>1393.09</ele>
        <time>2022-04-25T08:58:56Z</time>
      </trkpt>
      <trkpt lat="42.92309" lon="0.76439">
        <ele>1394.05</ele>
        <time>2022-04-25T08:59:04Z</time>
      </trkpt>
      <trkpt lat="42.92301" lon="0.76424">
        <ele>1394.05</ele>
        <time>2022-04-25T08:59:17Z</time>
      </trkpt>
      <trkpt lat="42.92295" lon="0.76416">
        <ele>1395.49</ele>
        <time>2022-04-25T08:59:26Z</time>
      </trkpt>
      <trkpt lat="42.92285" lon="0.76401">
        <ele>1396.93</ele>
        <time>2022-04-25T08:59:40Z</time>
      </trkpt>
      <trkpt lat="42.92279" lon="0.7639">
        <ele>1397.89</ele>
        <time>2022-04-25T08:59:51Z</time>
      </trkpt>
      <trkpt lat="42.92277" lon="0.76386">
        <ele>1399.34</ele>
        <time>2022-04-25T08:59:55Z</time>
      </trkpt>
      <trkpt lat="42.92273" lon="0.76364">
        <ele>1400.3</ele>
        <time>2022-04-25T09:00:08Z</time>
      </trkpt>
      <trkpt lat="42.92268" lon="0.76348">
        <ele>1401.74</ele>
        <time>2022-04-25T09:00:22Z</time>
      </trkpt>
      <trkpt lat="42.92264" lon="0.76335">
        <ele>1403.18</ele>
        <time>2022-04-25T09:00:34Z</time>
      </trkpt>
      <trkpt lat="42.92261" lon="0.76316">
        <ele>1404.62</ele>
        <time>2022-04-25T09:00:48Z</time>
      </trkpt>
      <trkpt lat="42.92259" lon="0.76299">
        <ele>1406.07</ele>
        <time>2022-04-25T09:01:01Z</time>
      </trkpt>
      <trkpt lat="42.92259" lon="0.76282">
        <ele>1407.51</ele>
        <time>2022-04-25T09:01:13Z</time>
      </trkpt>
      <trkpt lat="42.92257" lon="0.76267">
        <ele>1408.95</ele>
        <time>2022-04-25T09:01:26Z</time>
      </trkpt>
      <trkpt lat="42.92256" lon="0.7626">
        <ele>1409.43</ele>
        <time>2022-04-25T09:01:31Z</time>
      </trkpt>
      <trkpt lat="42.92256" lon="0.76243">
        <ele>1410.87</ele>
        <time>2022-04-25T09:01:45Z</time>
      </trkpt>
      <trkpt lat="42.92256" lon="0.76229">
        <ele>1412.31</ele>
        <time>2022-04-25T09:01:56Z</time>
      </trkpt>
      <trkpt lat="42.92255" lon="0.76211">
        <ele>1413.28</ele>
        <time>2022-04-25T09:02:10Z</time>
      </trkpt>
      <trkpt lat="42.92255" lon="0.76196">
        <ele>1414.72</ele>
        <time>2022-04-25T09:02:22Z</time>
      </trkpt>
      <trkpt lat="42.92255" lon="0.76178">
        <ele>1416.64</ele>
        <time>2022-04-25T09:02:37Z</time>
      </trkpt>
      <trkpt lat="42.92256" lon="0.76161">
        <ele>1418.08</ele>
        <time>2022-04-25T09:02:50Z</time>
      </trkpt>
      <trkpt lat="42.92257" lon="0.76143">
        <ele>1419.52</ele>
        <time>2022-04-25T09:03:04Z</time>
      </trkpt>
      <trkpt lat="42.92258" lon="0.76126">
        <ele>1420.49</ele>
        <time>2022-04-25T09:03:17Z</time>
      </trkpt>
      <trkpt lat="42.92259" lon="0.76121">
        <ele>1420.97</ele>
        <time>2022-04-25T09:03:21Z</time>
      </trkpt>
      <trkpt lat="42.92261" lon="0.76108">
        <ele>1422.41</ele>
        <time>2022-04-25T09:03:32Z</time>
      </trkpt>
      <trkpt lat="42.92269" lon="0.76093">
        <ele>1423.85</ele>
        <time>2022-04-25T09:03:46Z</time>
      </trkpt>
      <trkpt lat="42.92277" lon="0.7609">
        <ele>1425.29</ele>
        <time>2022-04-25T09:03:58Z</time>
      </trkpt>
      <trkpt lat="42.9228" lon="0.76104">
        <ele>1426.25</ele>
        <time>2022-04-25T09:04:09Z</time>
      </trkpt>
      <trkpt lat="42.92279" lon="0.76118">
        <ele>1428.66</ele>
        <time>2022-04-25T09:04:21Z</time>
      </trkpt>
      <trkpt lat="42.92279" lon="0.76132">
        <ele>1429.14</ele>
        <time>2022-04-25T09:04:33Z</time>
      </trkpt>
      <trkpt lat="42.92279" lon="0.76146">
        <ele>1430.58</ele>
        <time>2022-04-25T09:04:45Z</time>
      </trkpt>
      <trkpt lat="42.92282" lon="0.76163">
        <ele>1432.02</ele>
        <time>2022-04-25T09:04:58Z</time>
      </trkpt>
      <trkpt lat="42.92286" lon="0.76175">
        <ele>1432.98</ele>
        <time>2022-04-25T09:05:10Z</time>
      </trkpt>
      <trkpt lat="42.9229" lon="0.76192">
        <ele>1433.94</ele>
        <time>2022-04-25T09:05:23Z</time>
      </trkpt>
      <trkpt lat="42.92293" lon="0.76206">
        <ele>1435.39</ele>
        <time>2022-04-25T09:05:35Z</time>
      </trkpt>
      <trkpt lat="42.92296" lon="0.76216">
        <ele>1436.83</ele>
        <time>2022-04-25T09:05:45Z</time>
      </trkpt>
      <trkpt lat="42.92298" lon="0.76228">
        <ele>1438.27</ele>
        <time>2022-04-25T09:05:56Z</time>
      </trkpt>
      <trkpt lat="42.92299" lon="0.76243">
        <ele>1439.23</ele>
        <time>2022-04-25T09:06:08Z</time>
      </trkpt>
      <trkpt lat="42.923" lon="0.76257">
        <ele>1441.15</ele>
        <time>2022-04-25T09:06:20Z</time>
      </trkpt>
      <trkpt lat="42.92302" lon="0.76273">
        <ele>1442.6</ele>
        <time>2022-04-25T09:06:34Z</time>
      </trkpt>
      <trkpt lat="42.92306" lon="0.76285">
        <ele>1444.04</ele>
        <time>2022-04-25T09:06:45Z</time>
      </trkpt>
      <trkpt lat="42.92306" lon="0.76286">
        <ele>1444.04</ele>
        <time>2022-04-25T09:06:46Z</time>
      </trkpt>
      <trkpt lat="42.92308" lon="0.76299">
        <ele>1445</ele>
        <time>2022-04-25T09:06:55Z</time>
      </trkpt>
      <trkpt lat="42.92314" lon="0.76313">
        <ele>1445.96</ele>
        <time>2022-04-25T09:07:07Z</time>
      </trkpt>
      <trkpt lat="42.92316" lon="0.76316">
        <ele>1446.44</ele>
        <time>2022-04-25T09:07:10Z</time>
      </trkpt>
      <trkpt lat="42.92324" lon="0.76323">
        <ele>1447.88</ele>
        <time>2022-04-25T09:07:21Z</time>
      </trkpt>
      <trkpt lat="42.92335" lon="0.76326">
        <ele>1448.84</ele>
        <time>2022-04-25T09:07:34Z</time>
      </trkpt>
      <trkpt lat="42.92348" lon="0.7633">
        <ele>1450.77</ele>
        <time>2022-04-25T09:07:47Z</time>
      </trkpt>
      <trkpt lat="42.92358" lon="0.76334">
        <ele>1452.21</ele>
        <time>2022-04-25T09:07:59Z</time>
      </trkpt>
      <trkpt lat="42.92369" lon="0.7634">
        <ele>1453.17</ele>
        <time>2022-04-25T09:08:11Z</time>
      </trkpt>
      <trkpt lat="42.92378" lon="0.76343">
        <ele>1454.61</ele>
        <time>2022-04-25T09:08:22Z</time>
      </trkpt>
      <trkpt lat="42.9239" lon="0.76341">
        <ele>1456.05</ele>
        <time>2022-04-25T09:08:35Z</time>
      </trkpt>
      <trkpt lat="42.92399" lon="0.76338">
        <ele>1457.02</ele>
        <time>2022-04-25T09:08:47Z</time>
      </trkpt>
      <trkpt lat="42.92412" lon="0.76335">
        <ele>1458.46</ele>
        <time>2022-04-25T09:09:00Z</time>
      </trkpt>
      <trkpt lat="42.92425" lon="0.76335">
        <ele>1459.9</ele>
        <time>2022-04-25T09:09:13Z</time>
      </trkpt>
      <trkpt lat="42.92438" lon="0.76342">
        <ele>1461.34</ele>
        <time>2022-04-25T09:09:28Z</time>
      </trkpt>
      <trkpt lat="42.92446" lon="0.76355">
        <ele>1462.78</ele>
        <time>2022-04-25T09:09:42Z</time>
      </trkpt>
      <trkpt lat="42.9245" lon="0.76368">
        <ele>1464.23</ele>
        <time>2022-04-25T09:09:53Z</time>
      </trkpt>
      <trkpt lat="42.92455" lon="0.76376">
        <ele>1465.19</ele>
        <time>2022-04-25T09:10:04Z</time>
      </trkpt>
      <trkpt lat="42.92457" lon="0.76361">
        <ele>1467.11</ele>
        <time>2022-04-25T09:10:17Z</time>
      </trkpt>
      <trkpt lat="42.92452" lon="0.76345">
        <ele>1467.59</ele>
        <time>2022-04-25T09:10:30Z</time>
      </trkpt>
      <trkpt lat="42.92447" lon="0.76334">
        <ele>1469.03</ele>
        <time>2022-04-25T09:10:42Z</time>
      </trkpt>
      <trkpt lat="42.9244" lon="0.76323">
        <ele>1469.99</ele>
        <time>2022-04-25T09:10:54Z</time>
      </trkpt>
      <trkpt lat="42.92432" lon="0.76313">
        <ele>1471.44</ele>
        <time>2022-04-25T09:11:05Z</time>
      </trkpt>
      <trkpt lat="42.92426" lon="0.76299">
        <ele>1472.88</ele>
        <time>2022-04-25T09:11:17Z</time>
      </trkpt>
      <trkpt lat="42.92425" lon="0.76282">
        <ele>1473.84</ele>
        <time>2022-04-25T09:11:29Z</time>
      </trkpt>
      <trkpt lat="42.92422" lon="0.76265">
        <ele>1475.28</ele>
        <time>2022-04-25T09:11:43Z</time>
      </trkpt>
      <trkpt lat="42.92417" lon="0.76251">
        <ele>1477.2</ele>
        <time>2022-04-25T09:11:56Z</time>
      </trkpt>
      <trkpt lat="42.92411" lon="0.76239">
        <ele>1477.68</ele>
        <time>2022-04-25T09:12:07Z</time>
      </trkpt>
      <trkpt lat="42.92405" lon="0.76224">
        <ele>1479.61</ele>
        <time>2022-04-25T09:12:21Z</time>
      </trkpt>
      <trkpt lat="42.92403" lon="0.76206">
        <ele>1481.53</ele>
        <time>2022-04-25T09:12:35Z</time>
      </trkpt>
      <trkpt lat="42.92406" lon="0.76205">
        <ele>1480.57</ele>
        <time>2022-04-25T09:12:48Z</time>
      </trkpt>
      <trkpt lat="42.9241" lon="0.76207">
        <ele>1480.09</ele>
        <time>2022-04-25T09:13:11Z</time>
      </trkpt>
      <trkpt lat="42.92406" lon="0.76206">
        <ele>1480.09</ele>
        <time>2022-04-25T09:13:31Z</time>
      </trkpt>
      <trkpt lat="42.92402" lon="0.76206">
        <ele>1482.01</ele>
        <time>2022-04-25T09:13:49Z</time>
      </trkpt>
      <trkpt lat="42.92403" lon="0.76202">
        <ele>1482.01</ele>
        <time>2022-04-25T09:14:07Z</time>
      </trkpt>
      <trkpt lat="42.92406" lon="0.76204">
        <ele>1482.01</ele>
        <time>2022-04-25T09:14:28Z</time>
      </trkpt>
      <trkpt lat="42.92405" lon="0.76203">
        <ele>1482.01</ele>
        <time>2022-04-25T09:14:43Z</time>
      </trkpt>
      <trkpt lat="42.92403" lon="0.76197">
        <ele>1482.01</ele>
        <time>2022-04-25T09:15:00Z</time>
      </trkpt>
      <trkpt lat="42.92403" lon="0.76184">
        <ele>1483.45</ele>
        <time>2022-04-25T09:15:12Z</time>
      </trkpt>
      <trkpt lat="42.92399" lon="0.7617">
        <ele>1484.89</ele>
        <time>2022-04-25T09:15:24Z</time>
      </trkpt>
      <trkpt lat="42.92399" lon="0.76156">
        <ele>1486.34</ele>
        <time>2022-04-25T09:15:37Z</time>
      </trkpt>
      <trkpt lat="42.92401" lon="0.76137">
        <ele>1487.78</ele>
        <time>2022-04-25T09:15:51Z</time>
      </trkpt>
      <trkpt lat="42.92396" lon="0.76122">
        <ele>1488.74</ele>
        <time>2022-04-25T09:16:04Z</time>
      </trkpt>
      <trkpt lat="42.92388" lon="0.76111">
        <ele>1490.66</ele>
        <time>2022-04-25T09:16:16Z</time>
      </trkpt>
      <trkpt lat="42.92383" lon="0.76098">
        <ele>1491.62</ele>
        <time>2022-04-25T09:16:28Z</time>
      </trkpt>
      <trkpt lat="42.92382" lon="0.7608">
        <ele>1493.06</ele>
        <time>2022-04-25T09:16:42Z</time>
      </trkpt>
      <trkpt lat="42.92383" lon="0.76074">
        <ele>1493.55</ele>
        <time>2022-04-25T09:16:47Z</time>
      </trkpt>
      <trkpt lat="42.92383" lon="0.76055">
        <ele>1494.99</ele>
        <time>2022-04-25T09:17:01Z</time>
      </trkpt>
      <trkpt lat="42.92381" lon="0.7604">
        <ele>1496.43</ele>
        <time>2022-04-25T09:17:13Z</time>
      </trkpt>
      <trkpt lat="42.92376" lon="0.76024">
        <ele>1498.35</ele>
        <time>2022-04-25T09:17:27Z</time>
      </trkpt>
      <trkpt lat="42.92375" lon="0.76021">
        <ele>1498.35</ele>
        <time>2022-04-25T09:17:30Z</time>
      </trkpt>
      <trkpt lat="42.92371" lon="0.76005">
        <ele>1499.79</ele>
        <time>2022-04-25T09:17:42Z</time>
      </trkpt>
      <trkpt lat="42.92372" lon="0.75988">
        <ele>1501.72</ele>
        <time>2022-04-25T09:17:55Z</time>
      </trkpt>
      <trkpt lat="42.92374" lon="0.75974">
        <ele>1503.16</ele>
        <time>2022-04-25T09:18:07Z</time>
      </trkpt>
      <trkpt lat="42.92375" lon="0.75961">
        <ele>1504.12</ele>
        <time>2022-04-25T09:18:18Z</time>
      </trkpt>
      <trkpt lat="42.92375" lon="0.75945">
        <ele>1505.56</ele>
        <time>2022-04-25T09:18:31Z</time>
      </trkpt>
      <trkpt lat="42.92374" lon="0.75927">
        <ele>1507</ele>
        <time>2022-04-25T09:18:44Z</time>
      </trkpt>
      <trkpt lat="42.92372" lon="0.75911">
        <ele>1507.97</ele>
        <time>2022-04-25T09:18:56Z</time>
      </trkpt>
      <trkpt lat="42.92371" lon="0.75897">
        <ele>1509.41</ele>
        <time>2022-04-25T09:19:07Z</time>
      </trkpt>
      <trkpt lat="42.92368" lon="0.75883">
        <ele>1510.37</ele>
        <time>2022-04-25T09:19:18Z</time>
      </trkpt>
      <trkpt lat="42.92367" lon="0.75871">
        <ele>1511.81</ele>
        <time>2022-04-25T09:19:28Z</time>
      </trkpt>
      <trkpt lat="42.92366" lon="0.75853">
        <ele>1513.25</ele>
        <time>2022-04-25T09:19:43Z</time>
      </trkpt>
      <trkpt lat="42.92363" lon="0.7584">
        <ele>1514.69</ele>
        <time>2022-04-25T09:19:54Z</time>
      </trkpt>
      <trkpt lat="42.9236" lon="0.75829">
        <ele>1515.66</ele>
        <time>2022-04-25T09:20:05Z</time>
      </trkpt>
      <trkpt lat="42.92357" lon="0.75823">
        <ele>1516.62</ele>
        <time>2022-04-25T09:20:16Z</time>
      </trkpt>
      <trkpt lat="42.92356" lon="0.75814">
        <ele>1516.62</ele>
        <time>2022-04-25T09:20:25Z</time>
      </trkpt>
      <trkpt lat="42.92355" lon="0.75802">
        <ele>1518.06</ele>
        <time>2022-04-25T09:20:36Z</time>
      </trkpt>
      <trkpt lat="42.92353" lon="0.75789">
        <ele>1519.5</ele>
        <time>2022-04-25T09:20:48Z</time>
      </trkpt>
      <trkpt lat="42.92351" lon="0.75773">
        <ele>1520.94</ele>
        <time>2022-04-25T09:21:01Z</time>
      </trkpt>
      <trkpt lat="42.9235" lon="0.75756">
        <ele>1521.9</ele>
        <time>2022-04-25T09:21:14Z</time>
      </trkpt>
      <trkpt lat="42.92348" lon="0.75739">
        <ele>1523.35</ele>
        <time>2022-04-25T09:21:28Z</time>
      </trkpt>
      <trkpt lat="42.92347" lon="0.75729">
        <ele>1524.31</ele>
        <time>2022-04-25T09:21:36Z</time>
      </trkpt>
      <trkpt lat="42.92345" lon="0.75713">
        <ele>1525.27</ele>
        <time>2022-04-25T09:21:49Z</time>
      </trkpt>
      <trkpt lat="42.92344" lon="0.75705">
        <ele>1525.75</ele>
        <time>2022-04-25T09:21:56Z</time>
      </trkpt>
      <trkpt lat="42.9234" lon="0.75697">
        <ele>1526.71</ele>
        <time>2022-04-25T09:22:05Z</time>
      </trkpt>
      <trkpt lat="42.92338" lon="0.7568">
        <ele>1528.63</ele>
        <time>2022-04-25T09:22:19Z</time>
      </trkpt>
      <trkpt lat="42.92338" lon="0.75666">
        <ele>1529.59</ele>
        <time>2022-04-25T09:22:30Z</time>
      </trkpt>
      <trkpt lat="42.92337" lon="0.75648">
        <ele>1531.52</ele>
        <time>2022-04-25T09:22:45Z</time>
      </trkpt>
      <trkpt lat="42.92335" lon="0.75626">
        <ele>1532.96</ele>
        <time>2022-04-25T09:23:01Z</time>
      </trkpt>
      <trkpt lat="42.92333" lon="0.75613">
        <ele>1534.4</ele>
        <time>2022-04-25T09:23:11Z</time>
      </trkpt>
      <trkpt lat="42.92332" lon="0.75598">
        <ele>1535.84</ele>
        <time>2022-04-25T09:23:23Z</time>
      </trkpt>
      <trkpt lat="42.92332" lon="0.75597">
        <ele>1535.84</ele>
        <time>2022-04-25T09:23:24Z</time>
      </trkpt>
      <trkpt lat="42.92334" lon="0.75578">
        <ele>1537.29</ele>
        <time>2022-04-25T09:23:38Z</time>
      </trkpt>
      <trkpt lat="42.92333" lon="0.75574">
        <ele>1537.77</ele>
        <time>2022-04-25T09:23:41Z</time>
      </trkpt>
      <trkpt lat="42.92328" lon="0.75561">
        <ele>1539.21</ele>
        <time>2022-04-25T09:23:53Z</time>
      </trkpt>
      <trkpt lat="42.92325" lon="0.75554">
        <ele>1539.69</ele>
        <time>2022-04-25T09:23:59Z</time>
      </trkpt>
      <trkpt lat="42.92313" lon="0.7554">
        <ele>1540.65</ele>
        <time>2022-04-25T09:24:14Z</time>
      </trkpt>
      <trkpt lat="42.92306" lon="0.75527">
        <ele>1542.09</ele>
        <time>2022-04-25T09:24:28Z</time>
      </trkpt>
      <trkpt lat="42.92302" lon="0.75513">
        <ele>1543.53</ele>
        <time>2022-04-25T09:24:40Z</time>
      </trkpt>
      <trkpt lat="42.92302" lon="0.75501">
        <ele>1544.98</ele>
        <time>2022-04-25T09:24:51Z</time>
      </trkpt>
      <trkpt lat="42.92299" lon="0.75485">
        <ele>1546.42</ele>
        <time>2022-04-25T09:25:04Z</time>
      </trkpt>
      <trkpt lat="42.92294" lon="0.75474">
        <ele>1546.9</ele>
        <time>2022-04-25T09:25:15Z</time>
      </trkpt>
      <trkpt lat="42.92287" lon="0.75462">
        <ele>1548.34</ele>
        <time>2022-04-25T09:25:26Z</time>
      </trkpt>
      <trkpt lat="42.92278" lon="0.75447">
        <ele>1550.26</ele>
        <time>2022-04-25T09:25:41Z</time>
      </trkpt>
      <trkpt lat="42.92274" lon="0.75433">
        <ele>1550.74</ele>
        <time>2022-04-25T09:25:53Z</time>
      </trkpt>
      <trkpt lat="42.92274" lon="0.7543">
        <ele>1551.71</ele>
        <time>2022-04-25T09:25:55Z</time>
      </trkpt>
      <trkpt lat="42.92273" lon="0.75416">
        <ele>1552.67</ele>
        <time>2022-04-25T09:26:07Z</time>
      </trkpt>
      <trkpt lat="42.92273" lon="0.75415">
        <ele>1552.67</ele>
        <time>2022-04-25T09:26:08Z</time>
      </trkpt>
      <trkpt lat="42.9227" lon="0.75396">
        <ele>1554.59</ele>
        <time>2022-04-25T09:26:23Z</time>
      </trkpt>
      <trkpt lat="42.92266" lon="0.75381">
        <ele>1556.03</ele>
        <time>2022-04-25T09:26:37Z</time>
      </trkpt>
      <trkpt lat="42.92265" lon="0.75366">
        <ele>1556.99</ele>
        <time>2022-04-25T09:26:50Z</time>
      </trkpt>
      <trkpt lat="42.92261" lon="0.75346">
        <ele>1558.92</ele>
        <time>2022-04-25T09:27:05Z</time>
      </trkpt>
      <trkpt lat="42.9226" lon="0.75331">
        <ele>1560.36</ele>
        <time>2022-04-25T09:27:18Z</time>
      </trkpt>
      <trkpt lat="42.92259" lon="0.75318">
        <ele>1561.8</ele>
        <time>2022-04-25T09:27:29Z</time>
      </trkpt>
      <trkpt lat="42.92258" lon="0.75304">
        <ele>1562.76</ele>
        <time>2022-04-25T09:27:40Z</time>
      </trkpt>
      <trkpt lat="42.92259" lon="0.75291">
        <ele>1563.72</ele>
        <time>2022-04-25T09:27:51Z</time>
      </trkpt>
      <trkpt lat="42.92259" lon="0.75276">
        <ele>1565.64</ele>
        <time>2022-04-25T09:28:04Z</time>
      </trkpt>
      <trkpt lat="42.92259" lon="0.7526">
        <ele>1567.57</ele>
        <time>2022-04-25T09:28:18Z</time>
      </trkpt>
      <trkpt lat="42.92258" lon="0.75243">
        <ele>1568.53</ele>
        <time>2022-04-25T09:28:32Z</time>
      </trkpt>
      <trkpt lat="42.92256" lon="0.75229">
        <ele>1569.01</ele>
        <time>2022-04-25T09:28:43Z</time>
      </trkpt>
      <trkpt lat="42.92252" lon="0.75212">
        <ele>1570.45</ele>
        <time>2022-04-25T09:28:56Z</time>
      </trkpt>
      <trkpt lat="42.92251" lon="0.75195">
        <ele>1570.93</ele>
        <time>2022-04-25T09:29:09Z</time>
      </trkpt>
      <trkpt lat="42.92252" lon="0.75178">
        <ele>1572.37</ele>
        <time>2022-04-25T09:29:22Z</time>
      </trkpt>
      <trkpt lat="42.92255" lon="0.75156">
        <ele>1573.33</ele>
        <time>2022-04-25T09:29:38Z</time>
      </trkpt>
      <trkpt lat="42.92255" lon="0.75135">
        <ele>1573.82</ele>
        <time>2022-04-25T09:29:52Z</time>
      </trkpt>
      <trkpt lat="42.92255" lon="0.75115">
        <ele>1573.82</ele>
        <time>2022-04-25T09:30:05Z</time>
      </trkpt>
      <trkpt lat="42.92256" lon="0.75093">
        <ele>1574.78</ele>
        <time>2022-04-25T09:30:20Z</time>
      </trkpt>
      <trkpt lat="42.92256" lon="0.75078">
        <ele>1575.26</ele>
        <time>2022-04-25T09:30:34Z</time>
      </trkpt>
      <trkpt lat="42.92255" lon="0.75078">
        <ele>1575.26</ele>
        <time>2022-04-25T09:30:51Z</time>
      </trkpt>
      <trkpt lat="42.92254" lon="0.75081">
        <ele>1575.26</ele>
        <time>2022-04-25T09:31:09Z</time>
      </trkpt>
      <trkpt lat="42.92253" lon="0.7508">
        <ele>1575.74</ele>
        <time>2022-04-25T09:31:35Z</time>
      </trkpt>
      <trkpt lat="42.92257" lon="0.75077">
        <ele>1575.74</ele>
        <time>2022-04-25T09:31:55Z</time>
      </trkpt>
      <trkpt lat="42.92258" lon="0.75076">
        <ele>1576.22</ele>
        <time>2022-04-25T09:32:10Z</time>
      </trkpt>
      <trkpt lat="42.92258" lon="0.75076">
        <ele>1576.22</ele>
        <time>2022-04-25T09:32:31Z</time>
      </trkpt>
      <trkpt lat="42.92259" lon="0.75076">
        <ele>1576.22</ele>
        <time>2022-04-25T09:32:55Z</time>
      </trkpt>
      <trkpt lat="42.92258" lon="0.75076">
        <ele>1576.22</ele>
        <time>2022-04-25T09:33:16Z</time>
      </trkpt>
      <trkpt lat="42.9226" lon="0.75077">
        <ele>1576.7</ele>
        <time>2022-04-25T09:33:37Z</time>
      </trkpt>
      <trkpt lat="42.92264" lon="0.75076">
        <ele>1576.7</ele>
        <time>2022-04-25T09:33:50Z</time>
      </trkpt>
      <trkpt lat="42.92266" lon="0.75073">
        <ele>1576.7</ele>
        <time>2022-04-25T09:33:54Z</time>
      </trkpt>
      <trkpt lat="42.92274" lon="0.75068">
        <ele>1577.18</ele>
        <time>2022-04-25T09:34:05Z</time>
      </trkpt>
      <trkpt lat="42.92283" lon="0.75062">
        <ele>1577.66</ele>
        <time>2022-04-25T09:34:17Z</time>
      </trkpt>
      <trkpt lat="42.92289" lon="0.75059">
        <ele>1578.62</ele>
        <time>2022-04-25T09:34:29Z</time>
      </trkpt>
      <trkpt lat="42.92292" lon="0.75054">
        <ele>1579.1</ele>
        <time>2022-04-25T09:34:40Z</time>
      </trkpt>
      <trkpt lat="42.92301" lon="0.7505">
        <ele>1580.54</ele>
        <time>2022-04-25T09:34:52Z</time>
      </trkpt>
      <trkpt lat="42.92306" lon="0.75047">
        <ele>1581.51</ele>
        <time>2022-04-25T09:35:04Z</time>
      </trkpt>
      <trkpt lat="42.92312" lon="0.75042">
        <ele>1582.95</ele>
        <time>2022-04-25T09:35:15Z</time>
      </trkpt>
      <trkpt lat="42.92319" lon="0.75036">
        <ele>1584.39</ele>
        <time>2022-04-25T09:35:26Z</time>
      </trkpt>
      <trkpt lat="42.92326" lon="0.75031">
        <ele>1585.35</ele>
        <time>2022-04-25T09:35:36Z</time>
      </trkpt>
      <trkpt lat="42.92332" lon="0.75026">
        <ele>1587.75</ele>
        <time>2022-04-25T09:35:46Z</time>
      </trkpt>
      <trkpt lat="42.92339" lon="0.7502">
        <ele>1588.72</ele>
        <time>2022-04-25T09:35:56Z</time>
      </trkpt>
      <trkpt lat="42.92348" lon="0.75014">
        <ele>1590.16</ele>
        <time>2022-04-25T09:36:09Z</time>
      </trkpt>
      <trkpt lat="42.92354" lon="0.7501">
        <ele>1591.6</ele>
        <time>2022-04-25T09:36:19Z</time>
      </trkpt>
      <trkpt lat="42.92362" lon="0.75005">
        <ele>1593.04</ele>
        <time>2022-04-25T09:36:31Z</time>
      </trkpt>
      <trkpt lat="42.92368" lon="0.74998">
        <ele>1594.96</ele>
        <time>2022-04-25T09:36:42Z</time>
      </trkpt>
      <trkpt lat="42.92376" lon="0.74994">
        <ele>1596.89</ele>
        <time>2022-04-25T09:36:54Z</time>
      </trkpt>
      <trkpt lat="42.92382" lon="0.74989">
        <ele>1597.85</ele>
        <time>2022-04-25T09:37:04Z</time>
      </trkpt>
      <trkpt lat="42.92387" lon="0.74987">
        <ele>1598.81</ele>
        <time>2022-04-25T09:37:18Z</time>
      </trkpt>
      <trkpt lat="42.92393" lon="0.74986">
        <ele>1600.73</ele>
        <time>2022-04-25T09:37:29Z</time>
      </trkpt>
      <trkpt lat="42.92398" lon="0.74984">
        <ele>1601.69</ele>
        <time>2022-04-25T09:37:38Z</time>
      </trkpt>
      <trkpt lat="42.92404" lon="0.74981">
        <ele>1603.14</ele>
        <time>2022-04-25T09:37:48Z</time>
      </trkpt>
      <trkpt lat="42.92409" lon="0.74981">
        <ele>1604.58</ele>
        <time>2022-04-25T09:37:59Z</time>
      </trkpt>
      <trkpt lat="42.92416" lon="0.74984">
        <ele>1607.46</ele>
        <time>2022-04-25T09:38:12Z</time>
      </trkpt>
      <trkpt lat="42.92421" lon="0.74988">
        <ele>1609.38</ele>
        <time>2022-04-25T09:38:25Z</time>
      </trkpt>
      <trkpt lat="42.92426" lon="0.74988">
        <ele>1611.79</ele>
        <time>2022-04-25T09:38:36Z</time>
      </trkpt>
      <trkpt lat="42.92433" lon="0.74986">
        <ele>1613.23</ele>
        <time>2022-04-25T09:38:48Z</time>
      </trkpt>
      <trkpt lat="42.92438" lon="0.74987">
        <ele>1614.67</ele>
        <time>2022-04-25T09:38:58Z</time>
      </trkpt>
      <trkpt lat="42.92444" lon="0.74988">
        <ele>1617.07</ele>
        <time>2022-04-25T09:39:11Z</time>
      </trkpt>
      <trkpt lat="42.9245" lon="0.7499">
        <ele>1619</ele>
        <time>2022-04-25T09:39:24Z</time>
      </trkpt>
      <trkpt lat="42.92451" lon="0.74988">
        <ele>1619.96</ele>
        <time>2022-04-25T09:39:45Z</time>
      </trkpt>
      <trkpt lat="42.92457" lon="0.74988">
        <ele>1622.36</ele>
        <time>2022-04-25T09:39:57Z</time>
      </trkpt>
      <trkpt lat="42.92463" lon="0.74988">
        <ele>1623.8</ele>
        <time>2022-04-25T09:40:07Z</time>
      </trkpt>
      <trkpt lat="42.92471" lon="0.74988">
        <ele>1626.21</ele>
        <time>2022-04-25T09:40:20Z</time>
      </trkpt>
      <trkpt lat="42.92478" lon="0.74991">
        <ele>1628.13</ele>
        <time>2022-04-25T09:40:32Z</time>
      </trkpt>
      <trkpt lat="42.92484" lon="0.74991">
        <ele>1630.05</ele>
        <time>2022-04-25T09:40:42Z</time>
      </trkpt>
      <trkpt lat="42.9249" lon="0.74995">
        <ele>1632.46</ele>
        <time>2022-04-25T09:40:55Z</time>
      </trkpt>
      <trkpt lat="42.92495" lon="0.74996">
        <ele>1633.9</ele>
        <time>2022-04-25T09:41:05Z</time>
      </trkpt>
      <trkpt lat="42.92501" lon="0.74997">
        <ele>1635.82</ele>
        <time>2022-04-25T09:41:16Z</time>
      </trkpt>
      <trkpt lat="42.92502" lon="0.74992">
        <ele>1637.26</ele>
        <time>2022-04-25T09:41:28Z</time>
      </trkpt>
      <trkpt lat="42.92502" lon="0.74993">
        <ele>1637.26</ele>
        <time>2022-04-25T09:41:33Z</time>
      </trkpt>
      <trkpt lat="42.92503" lon="0.7499">
        <ele>1636.78</ele>
        <time>2022-04-25T09:41:40Z</time>
      </trkpt>
      <trkpt lat="42.92505" lon="0.74993">
        <ele>1636.78</ele>
        <time>2022-04-25T09:41:54Z</time>
      </trkpt>
      <trkpt lat="42.92504" lon="0.74995">
        <ele>1636.78</ele>
        <time>2022-04-25T09:42:05Z</time>
      </trkpt>
      <trkpt lat="42.92499" lon="0.7499">
        <ele>1638.22</ele>
        <time>2022-04-25T09:42:25Z</time>
      </trkpt>
      <trkpt lat="42.92501" lon="0.74994">
        <ele>1638.22</ele>
        <time>2022-04-25T09:42:39Z</time>
      </trkpt>
      <trkpt lat="42.92504" lon="0.74998">
        <ele>1638.22</ele>
        <time>2022-04-25T09:42:56Z</time>
      </trkpt>
      <trkpt lat="42.92508" lon="0.75001">
        <ele>1638.22</ele>
        <time>2022-04-25T09:43:14Z</time>
      </trkpt>
      <trkpt lat="42.92513" lon="0.74999">
        <ele>1639.67</ele>
        <time>2022-04-25T09:43:26Z</time>
      </trkpt>
      <trkpt lat="42.9252" lon="0.75">
        <ele>1641.59</ele>
        <time>2022-04-25T09:43:37Z</time>
      </trkpt>
      <trkpt lat="42.92525" lon="0.75001">
        <ele>1643.51</ele>
        <time>2022-04-25T09:43:49Z</time>
      </trkpt>
      <trkpt lat="42.9253" lon="0.75004">
        <ele>1646.4</ele>
        <time>2022-04-25T09:44:01Z</time>
      </trkpt>
      <trkpt lat="42.92534" lon="0.75008">
        <ele>1647.84</ele>
        <time>2022-04-25T09:44:12Z</time>
      </trkpt>
      <trkpt lat="42.92538" lon="0.75006">
        <ele>1649.76</ele>
        <time>2022-04-25T09:44:24Z</time>
      </trkpt>
      <trkpt lat="42.92538" lon="0.75006">
        <ele>1650.24</ele>
        <time>2022-04-25T09:44:36Z</time>
      </trkpt>
      <trkpt lat="42.9254" lon="0.7501">
        <ele>1649.76</ele>
        <time>2022-04-25T09:44:51Z</time>
      </trkpt>
      <trkpt lat="42.92539" lon="0.75008">
        <ele>1649.76</ele>
        <time>2022-04-25T09:45:07Z</time>
      </trkpt>
      <trkpt lat="42.92538" lon="0.75009">
        <ele>1649.76</ele>
        <time>2022-04-25T09:45:20Z</time>
      </trkpt>
      <trkpt lat="42.92538" lon="0.75013">
        <ele>1649.76</ele>
        <time>2022-04-25T09:45:43Z</time>
      </trkpt>
      <trkpt lat="42.92539" lon="0.75012">
        <ele>1649.76</ele>
        <time>2022-04-25T09:45:55Z</time>
      </trkpt>
      <trkpt lat="42.92541" lon="0.75013">
        <ele>1651.2</ele>
        <time>2022-04-25T09:45:59Z</time>
      </trkpt>
      <trkpt lat="42.92545" lon="0.75013">
        <ele>1652.64</ele>
        <time>2022-04-25T09:46:11Z</time>
      </trkpt>
      <trkpt lat="42.9255" lon="0.75012">
        <ele>1653.6</ele>
        <time>2022-04-25T09:46:24Z</time>
      </trkpt>
      <trkpt lat="42.92551" lon="0.75014">
        <ele>1655.53</ele>
        <time>2022-04-25T09:46:34Z</time>
      </trkpt>
      <trkpt lat="42.92554" lon="0.75014">
        <ele>1656.49</ele>
        <time>2022-04-25T09:46:45Z</time>
      </trkpt>
      <trkpt lat="42.92558" lon="0.75014">
        <ele>1658.89</ele>
        <time>2022-04-25T09:46:57Z</time>
      </trkpt>
      <trkpt lat="42.9256" lon="0.75016">
        <ele>1659.85</ele>
        <time>2022-04-25T09:47:08Z</time>
      </trkpt>
      <trkpt lat="42.92564" lon="0.75016">
        <ele>1661.78</ele>
        <time>2022-04-25T09:47:22Z</time>
      </trkpt>
      <trkpt lat="42.92567" lon="0.75016">
        <ele>1662.74</ele>
        <time>2022-04-25T09:47:31Z</time>
      </trkpt>
      <trkpt lat="42.92571" lon="0.75018">
        <ele>1664.66</ele>
        <time>2022-04-25T09:47:43Z</time>
      </trkpt>
      <trkpt lat="42.92573" lon="0.7502">
        <ele>1666.1</ele>
        <time>2022-04-25T09:47:54Z</time>
      </trkpt>
      <trkpt lat="42.92574" lon="0.75018">
        <ele>1667.06</ele>
        <time>2022-04-25T09:48:05Z</time>
      </trkpt>
      <trkpt lat="42.92574" lon="0.75019">
        <ele>1667.54</ele>
        <time>2022-04-25T09:48:18Z</time>
      </trkpt>
      <trkpt lat="42.92574" lon="0.75019">
        <ele>1667.54</ele>
        <time>2022-04-25T09:48:29Z</time>
      </trkpt>
      <trkpt lat="42.92577" lon="0.75021">
        <ele>1668.51</ele>
        <time>2022-04-25T09:48:43Z</time>
      </trkpt>
      <trkpt lat="42.92579" lon="0.75022">
        <ele>1668.99</ele>
        <time>2022-04-25T09:48:52Z</time>
      </trkpt>
      <trkpt lat="42.92581" lon="0.75023">
        <ele>1670.91</ele>
        <time>2022-04-25T09:49:00Z</time>
      </trkpt>
      <trkpt lat="42.92583" lon="0.75024">
        <ele>1671.87</ele>
        <time>2022-04-25T09:49:09Z</time>
      </trkpt>
      <trkpt lat="42.92586" lon="0.75024">
        <ele>1672.83</ele>
        <time>2022-04-25T09:49:20Z</time>
      </trkpt>
      <trkpt lat="42.92589" lon="0.75025">
        <ele>1672.83</ele>
        <time>2022-04-25T09:49:36Z</time>
      </trkpt>
      <trkpt lat="42.92591" lon="0.75027">
        <ele>1673.79</ele>
        <time>2022-04-25T09:49:51Z</time>
      </trkpt>
      <trkpt lat="42.92594" lon="0.75026">
        <ele>1675.23</ele>
        <time>2022-04-25T09:50:04Z</time>
      </trkpt>
      <trkpt lat="42.92598" lon="0.75027">
        <ele>1676.68</ele>
        <time>2022-04-25T09:50:15Z</time>
      </trkpt>
      <trkpt lat="42.92604" lon="0.75026">
        <ele>1677.64</ele>
        <time>2022-04-25T09:50:26Z</time>
      </trkpt>
      <trkpt lat="42.92605" lon="0.75026">
        <ele>1678.6</ele>
        <time>2022-04-25T09:50:38Z</time>
      </trkpt>
      <trkpt lat="42.92605" lon="0.75027">
        <ele>1679.08</ele>
        <time>2022-04-25T09:50:52Z</time>
      </trkpt>
      <trkpt lat="42.92609" lon="0.75029">
        <ele>1680.04</ele>
        <time>2022-04-25T09:51:02Z</time>
      </trkpt>
      <trkpt lat="42.9261" lon="0.7503">
        <ele>1681.48</ele>
        <time>2022-04-25T09:51:12Z</time>
      </trkpt>
      <trkpt lat="42.92612" lon="0.75032">
        <ele>1682.93</ele>
        <time>2022-04-25T09:51:22Z</time>
      </trkpt>
      <trkpt lat="42.92615" lon="0.75033">
        <ele>1684.37</ele>
        <time>2022-04-25T09:51:34Z</time>
      </trkpt>
      <trkpt lat="42.92619" lon="0.75034">
        <ele>1685.33</ele>
        <time>2022-04-25T09:51:45Z</time>
      </trkpt>
      <trkpt lat="42.9262" lon="0.75032">
        <ele>1685.33</ele>
        <time>2022-04-25T09:52:03Z</time>
      </trkpt>
      <trkpt lat="42.9262" lon="0.75035">
        <ele>1685.81</ele>
        <time>2022-04-25T09:52:19Z</time>
      </trkpt>
      <trkpt lat="42.92622" lon="0.75036">
        <ele>1686.29</ele>
        <time>2022-04-25T09:52:30Z</time>
      </trkpt>
      <trkpt lat="42.92626" lon="0.75038">
        <ele>1688.21</ele>
        <time>2022-04-25T09:52:43Z</time>
      </trkpt>
      <trkpt lat="42.92631" lon="0.75037">
        <ele>1689.65</ele>
        <time>2022-04-25T09:52:54Z</time>
      </trkpt>
      <trkpt lat="42.92634" lon="0.75039">
        <ele>1691.58</ele>
        <time>2022-04-25T09:53:03Z</time>
      </trkpt>
      <trkpt lat="42.92636" lon="0.75042">
        <ele>1692.54</ele>
        <time>2022-04-25T09:53:14Z</time>
      </trkpt>
      <trkpt lat="42.92639" lon="0.75043">
        <ele>1693.98</ele>
        <time>2022-04-25T09:53:26Z</time>
      </trkpt>
      <trkpt lat="42.92643" lon="0.75045">
        <ele>1695.9</ele>
        <time>2022-04-25T09:53:39Z</time>
      </trkpt>
      <trkpt lat="42.92648" lon="0.75045">
        <ele>1697.34</ele>
        <time>2022-04-25T09:53:51Z</time>
      </trkpt>
      <trkpt lat="42.9265" lon="0.75045">
        <ele>1698.79</ele>
        <time>2022-04-25T09:54:01Z</time>
      </trkpt>
      <trkpt lat="42.92653" lon="0.75047">
        <ele>1699.75</ele>
        <time>2022-04-25T09:54:12Z</time>
      </trkpt>
      <trkpt lat="42.92654" lon="0.75048">
        <ele>1700.23</ele>
        <time>2022-04-25T09:54:25Z</time>
      </trkpt>
      <trkpt lat="42.92655" lon="0.75048">
        <ele>1700.71</ele>
        <time>2022-04-25T09:54:38Z</time>
      </trkpt>
      <trkpt lat="42.92662" lon="0.75048">
        <ele>1702.15</ele>
        <time>2022-04-25T09:54:51Z</time>
      </trkpt>
      <trkpt lat="42.92666" lon="0.75048">
        <ele>1703.59</ele>
        <time>2022-04-25T09:55:01Z</time>
      </trkpt>
      <trkpt lat="42.92671" lon="0.7505">
        <ele>1704.55</ele>
        <time>2022-04-25T09:55:12Z</time>
      </trkpt>
      <trkpt lat="42.92673" lon="0.75049">
        <ele>1706.48</ele>
        <time>2022-04-25T09:55:24Z</time>
      </trkpt>
      <trkpt lat="42.92676" lon="0.75049">
        <ele>1707.92</ele>
        <time>2022-04-25T09:55:33Z</time>
      </trkpt>
      <trkpt lat="42.92679" lon="0.75048">
        <ele>1708.4</ele>
        <time>2022-04-25T09:55:44Z</time>
      </trkpt>
      <trkpt lat="42.92678" lon="0.75044">
        <ele>1708.4</ele>
        <time>2022-04-25T09:55:57Z</time>
      </trkpt>
      <trkpt lat="42.92678" lon="0.75044">
        <ele>1709.36</ele>
        <time>2022-04-25T09:56:22Z</time>
      </trkpt>
      <trkpt lat="42.92675" lon="0.75045">
        <ele>1709.84</ele>
        <time>2022-04-25T09:56:38Z</time>
      </trkpt>
      <trkpt lat="42.92674" lon="0.75044">
        <ele>1709.84</ele>
        <time>2022-04-25T09:56:54Z</time>
      </trkpt>
      <trkpt lat="42.92674" lon="0.75044">
        <ele>1709.84</ele>
        <time>2022-04-25T09:57:10Z</time>
      </trkpt>
      <trkpt lat="42.92674" lon="0.75043">
        <ele>1710.32</ele>
        <time>2022-04-25T09:57:37Z</time>
      </trkpt>
      <trkpt lat="42.92673" lon="0.75044">
        <ele>1710.32</ele>
        <time>2022-04-25T09:57:57Z</time>
      </trkpt>
      <trkpt lat="42.92674" lon="0.75042">
        <ele>1710.8</ele>
        <time>2022-04-25T09:58:16Z</time>
      </trkpt>
      <trkpt lat="42.92679" lon="0.75044">
        <ele>1711.28</ele>
        <time>2022-04-25T09:58:29Z</time>
      </trkpt>
      <trkpt lat="42.92682" lon="0.75048">
        <ele>1713.69</ele>
        <time>2022-04-25T09:58:39Z</time>
      </trkpt>
      <trkpt lat="42.92686" lon="0.75049">
        <ele>1715.13</ele>
        <time>2022-04-25T09:58:49Z</time>
      </trkpt>
      <trkpt lat="42.92691" lon="0.75048">
        <ele>1717.53</ele>
        <time>2022-04-25T09:59:00Z</time>
      </trkpt>
      <trkpt lat="42.92696" lon="0.75049">
        <ele>1719.94</ele>
        <time>2022-04-25T09:59:13Z</time>
      </trkpt>
      <trkpt lat="42.92702" lon="0.7505">
        <ele>1721.38</ele>
        <time>2022-04-25T09:59:27Z</time>
      </trkpt>
      <trkpt lat="42.92705" lon="0.75051">
        <ele>1723.3</ele>
        <time>2022-04-25T09:59:37Z</time>
      </trkpt>
      <trkpt lat="42.92708" lon="0.75051">
        <ele>1724.74</ele>
        <time>2022-04-25T09:59:48Z</time>
      </trkpt>
      <trkpt lat="42.9271" lon="0.75053">
        <ele>1726.67</ele>
        <time>2022-04-25T09:59:59Z</time>
      </trkpt>
      <trkpt lat="42.92712" lon="0.7505">
        <ele>1727.63</ele>
        <time>2022-04-25T10:00:08Z</time>
      </trkpt>
      <trkpt lat="42.92715" lon="0.75053">
        <ele>1729.07</ele>
        <time>2022-04-25T10:00:21Z</time>
      </trkpt>
      <trkpt lat="42.92719" lon="0.75053">
        <ele>1731.47</ele>
        <time>2022-04-25T10:00:35Z</time>
      </trkpt>
      <trkpt lat="42.92722" lon="0.75053">
        <ele>1732.43</ele>
        <time>2022-04-25T10:00:50Z</time>
      </trkpt>
      <trkpt lat="42.92723" lon="0.75057">
        <ele>1733.88</ele>
        <time>2022-04-25T10:01:03Z</time>
      </trkpt>
      <trkpt lat="42.92726" lon="0.75056">
        <ele>1735.32</ele>
        <time>2022-04-25T10:01:16Z</time>
      </trkpt>
      <trkpt lat="42.9273" lon="0.75056">
        <ele>1736.76</ele>
        <time>2022-04-25T10:01:27Z</time>
      </trkpt>
      <trkpt lat="42.92731" lon="0.75057">
        <ele>1737.24</ele>
        <time>2022-04-25T10:01:45Z</time>
      </trkpt>
      <trkpt lat="42.92732" lon="0.75055">
        <ele>1737.24</ele>
        <time>2022-04-25T10:02:01Z</time>
      </trkpt>
      <trkpt lat="42.92737" lon="0.75054">
        <ele>1738.68</ele>
        <time>2022-04-25T10:02:13Z</time>
      </trkpt>
      <trkpt lat="42.92741" lon="0.75053">
        <ele>1739.64</ele>
        <time>2022-04-25T10:02:25Z</time>
      </trkpt>
      <trkpt lat="42.92743" lon="0.75054">
        <ele>1740.6</ele>
        <time>2022-04-25T10:02:36Z</time>
      </trkpt>
      <trkpt lat="42.92746" lon="0.75055">
        <ele>1742.05</ele>
        <time>2022-04-25T10:02:47Z</time>
      </trkpt>
      <trkpt lat="42.9275" lon="0.75053">
        <ele>1743.49</ele>
        <time>2022-04-25T10:02:59Z</time>
      </trkpt>
      <trkpt lat="42.92756" lon="0.75049">
        <ele>1744.93</ele>
        <time>2022-04-25T10:03:11Z</time>
      </trkpt>
      <trkpt lat="42.92761" lon="0.75048">
        <ele>1745.41</ele>
        <time>2022-04-25T10:03:21Z</time>
      </trkpt>
      <trkpt lat="42.92766" lon="0.75046">
        <ele>1746.37</ele>
        <time>2022-04-25T10:03:31Z</time>
      </trkpt>
      <trkpt lat="42.92767" lon="0.75044">
        <ele>1747.81</ele>
        <time>2022-04-25T10:03:44Z</time>
      </trkpt>
      <trkpt lat="42.92771" lon="0.75042">
        <ele>1748.29</ele>
        <time>2022-04-25T10:03:55Z</time>
      </trkpt>
      <trkpt lat="42.92773" lon="0.75043">
        <ele>1749.74</ele>
        <time>2022-04-25T10:04:08Z</time>
      </trkpt>
      <trkpt lat="42.92775" lon="0.75045">
        <ele>1750.7</ele>
        <time>2022-04-25T10:04:17Z</time>
      </trkpt>
      <trkpt lat="42.92779" lon="0.75042">
        <ele>1750.7</ele>
        <time>2022-04-25T10:04:30Z</time>
      </trkpt>
      <trkpt lat="42.92781" lon="0.75041">
        <ele>1751.66</ele>
        <time>2022-04-25T10:04:41Z</time>
      </trkpt>
      <trkpt lat="42.92784" lon="0.75042">
        <ele>1752.62</ele>
        <time>2022-04-25T10:04:54Z</time>
      </trkpt>
      <trkpt lat="42.92785" lon="0.75041">
        <ele>1753.58</ele>
        <time>2022-04-25T10:05:05Z</time>
      </trkpt>
      <trkpt lat="42.92786" lon="0.7504">
        <ele>1754.06</ele>
        <time>2022-04-25T10:05:17Z</time>
      </trkpt>
      <trkpt lat="42.92788" lon="0.7504">
        <ele>1754.54</ele>
        <time>2022-04-25T10:05:28Z</time>
      </trkpt>
      <trkpt lat="42.92788" lon="0.75042">
        <ele>1755.5</ele>
        <time>2022-04-25T10:05:41Z</time>
      </trkpt>
      <trkpt lat="42.92788" lon="0.75044">
        <ele>1755.99</ele>
        <time>2022-04-25T10:05:55Z</time>
      </trkpt>
      <trkpt lat="42.92791" lon="0.75043">
        <ele>1756.47</ele>
        <time>2022-04-25T10:06:12Z</time>
      </trkpt>
      <trkpt lat="42.92791" lon="0.75042">
        <ele>1757.43</ele>
        <time>2022-04-25T10:06:24Z</time>
      </trkpt>
      <trkpt lat="42.92792" lon="0.7504">
        <ele>1757.43</ele>
        <time>2022-04-25T10:06:36Z</time>
      </trkpt>
      <trkpt lat="42.92794" lon="0.7504">
        <ele>1758.39</ele>
        <time>2022-04-25T10:06:48Z</time>
      </trkpt>
      <trkpt lat="42.928" lon="0.75035">
        <ele>1759.35</ele>
        <time>2022-04-25T10:06:59Z</time>
      </trkpt>
      <trkpt lat="42.92804" lon="0.75035">
        <ele>1760.31</ele>
        <time>2022-04-25T10:07:10Z</time>
      </trkpt>
      <trkpt lat="42.92808" lon="0.75033">
        <ele>1762.23</ele>
        <time>2022-04-25T10:07:21Z</time>
      </trkpt>
      <trkpt lat="42.92812" lon="0.75034">
        <ele>1762.71</ele>
        <time>2022-04-25T10:07:35Z</time>
      </trkpt>
      <trkpt lat="42.92817" lon="0.75031">
        <ele>1764.16</ele>
        <time>2022-04-25T10:07:44Z</time>
      </trkpt>
      <trkpt lat="42.92821" lon="0.75029">
        <ele>1765.12</ele>
        <time>2022-04-25T10:07:55Z</time>
      </trkpt>
      <trkpt lat="42.92824" lon="0.7503">
        <ele>1767.52</ele>
        <time>2022-04-25T10:08:07Z</time>
      </trkpt>
      <trkpt lat="42.92828" lon="0.75027">
        <ele>1768.96</ele>
        <time>2022-04-25T10:08:20Z</time>
      </trkpt>
      <trkpt lat="42.92831" lon="0.75026">
        <ele>1770.41</ele>
        <time>2022-04-25T10:08:29Z</time>
      </trkpt>
      <trkpt lat="42.92832" lon="0.75026">
        <ele>1770.89</ele>
        <time>2022-04-25T10:08:41Z</time>
      </trkpt>
      <trkpt lat="42.92836" lon="0.75028">
        <ele>1771.85</ele>
        <time>2022-04-25T10:08:52Z</time>
      </trkpt>
      <trkpt lat="42.92836" lon="0.75034">
        <ele>1773.77</ele>
        <time>2022-04-25T10:09:03Z</time>
      </trkpt>
      <trkpt lat="42.92839" lon="0.75035">
        <ele>1775.69</ele>
        <time>2022-04-25T10:09:13Z</time>
      </trkpt>
      <trkpt lat="42.9284" lon="0.7504">
        <ele>1777.13</ele>
        <time>2022-04-25T10:09:23Z</time>
      </trkpt>
      <trkpt lat="42.92842" lon="0.75037">
        <ele>1777.13</ele>
        <time>2022-04-25T10:09:36Z</time>
      </trkpt>
      <trkpt lat="42.92844" lon="0.75043">
        <ele>1779.06</ele>
        <time>2022-04-25T10:09:47Z</time>
      </trkpt>
      <trkpt lat="42.92844" lon="0.75048">
        <ele>1780.98</ele>
        <time>2022-04-25T10:09:58Z</time>
      </trkpt>
      <trkpt lat="42.92846" lon="0.75052">
        <ele>1782.9</ele>
        <time>2022-04-25T10:10:08Z</time>
      </trkpt>
      <trkpt lat="42.92848" lon="0.75057">
        <ele>1784.34</ele>
        <time>2022-04-25T10:10:18Z</time>
      </trkpt>
      <trkpt lat="42.92849" lon="0.75061">
        <ele>1785.31</ele>
        <time>2022-04-25T10:10:32Z</time>
      </trkpt>
      <trkpt lat="42.92854" lon="0.75061">
        <ele>1787.71</ele>
        <time>2022-04-25T10:10:43Z</time>
      </trkpt>
      <trkpt lat="42.92855" lon="0.75066">
        <ele>1789.15</ele>
        <time>2022-04-25T10:10:53Z</time>
      </trkpt>
      <trkpt lat="42.92857" lon="0.75071">
        <ele>1791.07</ele>
        <time>2022-04-25T10:11:05Z</time>
      </trkpt>
      <trkpt lat="42.92861" lon="0.75073">
        <ele>1793</ele>
        <time>2022-04-25T10:11:19Z</time>
      </trkpt>
      <trkpt lat="42.92866" lon="0.75073">
        <ele>1793.96</ele>
        <time>2022-04-25T10:11:29Z</time>
      </trkpt>
      <trkpt lat="42.92866" lon="0.75081">
        <ele>1795.4</ele>
        <time>2022-04-25T10:11:39Z</time>
      </trkpt>
      <trkpt lat="42.92866" lon="0.75089">
        <ele>1796.84</ele>
        <time>2022-04-25T10:11:50Z</time>
      </trkpt>
      <trkpt lat="42.92871" lon="0.75093">
        <ele>1798.28</ele>
        <time>2022-04-25T10:12:02Z</time>
      </trkpt>
      <trkpt lat="42.92874" lon="0.75098">
        <ele>1799.73</ele>
        <time>2022-04-25T10:12:13Z</time>
      </trkpt>
      <trkpt lat="42.92877" lon="0.75095">
        <ele>1800.21</ele>
        <time>2022-04-25T10:12:25Z</time>
      </trkpt>
      <trkpt lat="42.92877" lon="0.75095">
        <ele>1800.21</ele>
        <time>2022-04-25T10:12:50Z</time>
      </trkpt>
      <trkpt lat="42.92878" lon="0.75093">
        <ele>1800.21</ele>
        <time>2022-04-25T10:13:13Z</time>
      </trkpt>
      <trkpt lat="42.92878" lon="0.75096">
        <ele>1800.21</ele>
        <time>2022-04-25T10:13:38Z</time>
      </trkpt>
      <trkpt lat="42.92879" lon="0.751">
        <ele>1801.17</ele>
        <time>2022-04-25T10:13:48Z</time>
      </trkpt>
      <trkpt lat="42.92882" lon="0.75104">
        <ele>1801.65</ele>
        <time>2022-04-25T10:13:59Z</time>
      </trkpt>
      <trkpt lat="42.92882" lon="0.75103">
        <ele>1801.65</ele>
        <time>2022-04-25T10:14:20Z</time>
      </trkpt>
      <trkpt lat="42.92882" lon="0.75103">
        <ele>1801.65</ele>
        <time>2022-04-25T10:14:48Z</time>
      </trkpt>
      <trkpt lat="42.92882" lon="0.75103">
        <ele>1801.65</ele>
        <time>2022-04-25T10:15:16Z</time>
      </trkpt>
      <trkpt lat="42.92882" lon="0.75101">
        <ele>1802.13</ele>
        <time>2022-04-25T10:15:36Z</time>
      </trkpt>
      <trkpt lat="42.92882" lon="0.75102">
        <ele>1802.13</ele>
        <time>2022-04-25T10:16:03Z</time>
      </trkpt>
      <trkpt lat="42.92882" lon="0.75102">
        <ele>1802.13</ele>
        <time>2022-04-25T10:16:27Z</time>
      </trkpt>
      <trkpt lat="42.92884" lon="0.75098">
        <ele>1802.13</ele>
        <time>2022-04-25T10:16:42Z</time>
      </trkpt>
      <trkpt lat="42.92885" lon="0.75098">
        <ele>1802.13</ele>
        <time>2022-04-25T10:16:57Z</time>
      </trkpt>
      <trkpt lat="42.92882" lon="0.75101">
        <ele>1802.13</ele>
        <time>2022-04-25T10:17:07Z</time>
      </trkpt>
      <trkpt lat="42.92883" lon="0.75101">
        <ele>1802.13</ele>
        <time>2022-04-25T10:17:20Z</time>
      </trkpt>
      <trkpt lat="42.92884" lon="0.75099">
        <ele>1802.13</ele>
        <time>2022-04-25T10:17:34Z</time>
      </trkpt>
      <trkpt lat="42.92882" lon="0.751">
        <ele>1802.13</ele>
        <time>2022-04-25T10:17:47Z</time>
      </trkpt>
      <trkpt lat="42.9288" lon="0.75103">
        <ele>1802.13</ele>
        <time>2022-04-25T10:18:11Z</time>
      </trkpt>
      <trkpt lat="42.92886" lon="0.75095">
        <ele>1802.13</ele>
        <time>2022-04-25T10:18:23Z</time>
      </trkpt>
      <trkpt lat="42.92893" lon="0.75086">
        <ele>1804.05</ele>
        <time>2022-04-25T10:18:36Z</time>
      </trkpt>
      <trkpt lat="42.92897" lon="0.75081">
        <ele>1805.97</ele>
        <time>2022-04-25T10:18:45Z</time>
      </trkpt>
      <trkpt lat="42.92901" lon="0.75076">
        <ele>1808.38</ele>
        <time>2022-04-25T10:18:56Z</time>
      </trkpt>
      <trkpt lat="42.92902" lon="0.75073">
        <ele>1808.86</ele>
        <time>2022-04-25T10:19:00Z</time>
      </trkpt>
      <trkpt lat="42.92906" lon="0.75064">
        <ele>1810.3</ele>
        <time>2022-04-25T10:19:11Z</time>
      </trkpt>
      <trkpt lat="42.92911" lon="0.75056">
        <ele>1812.22</ele>
        <time>2022-04-25T10:19:21Z</time>
      </trkpt>
      <trkpt lat="42.92916" lon="0.75053">
        <ele>1813.18</ele>
        <time>2022-04-25T10:19:31Z</time>
      </trkpt>
      <trkpt lat="42.92923" lon="0.75047">
        <ele>1814.15</ele>
        <time>2022-04-25T10:19:42Z</time>
      </trkpt>
      <trkpt lat="42.92928" lon="0.7504">
        <ele>1814.63</ele>
        <time>2022-04-25T10:19:54Z</time>
      </trkpt>
      <trkpt lat="42.92931" lon="0.75033">
        <ele>1815.59</ele>
        <time>2022-04-25T10:20:05Z</time>
      </trkpt>
      <trkpt lat="42.92933" lon="0.75025">
        <ele>1816.07</ele>
        <time>2022-04-25T10:20:14Z</time>
      </trkpt>
      <trkpt lat="42.92934" lon="0.75016">
        <ele>1817.03</ele>
        <time>2022-04-25T10:20:25Z</time>
      </trkpt>
      <trkpt lat="42.92935" lon="0.75011">
        <ele>1818.47</ele>
        <time>2022-04-25T10:20:35Z</time>
      </trkpt>
      <trkpt lat="42.92937" lon="0.75006">
        <ele>1819.91</ele>
        <time>2022-04-25T10:20:47Z</time>
      </trkpt>
      <trkpt lat="42.92936" lon="0.75007">
        <ele>1819.43</ele>
        <time>2022-04-25T10:20:56Z</time>
      </trkpt>
      <trkpt lat="42.92937" lon="0.75008">
        <ele>1818.47</ele>
        <time>2022-04-25T10:21:10Z</time>
      </trkpt>
      <trkpt lat="42.92938" lon="0.75008">
        <ele>1821.84</ele>
        <time>2022-04-25T10:21:11Z</time>
      </trkpt>
      <trkpt lat="42.92938" lon="0.75008">
        <ele>1821.84</ele>
        <time>2022-04-25T10:21:12Z</time>
      </trkpt>
      <trkpt lat="42.92938" lon="0.75007">
        <ele>1820.39</ele>
        <time>2022-04-25T10:21:14Z</time>
      </trkpt>
      <trkpt lat="42.92938" lon="0.75004">
        <ele>1820.39</ele>
        <time>2022-04-25T10:21:29Z</time>
      </trkpt>
      <trkpt lat="42.92939" lon="0.75001">
        <ele>1821.84</ele>
        <time>2022-04-25T10:21:43Z</time>
      </trkpt>
      <trkpt lat="42.92942" lon="0.74996">
        <ele>1822.8</ele>
        <time>2022-04-25T10:21:54Z</time>
      </trkpt>
      <trkpt lat="42.92943" lon="0.74993">
        <ele>1823.28</ele>
        <time>2022-04-25T10:22:02Z</time>
      </trkpt>
      <trkpt lat="42.92948" lon="0.74989">
        <ele>1824.72</ele>
        <time>2022-04-25T10:22:13Z</time>
      </trkpt>
      <trkpt lat="42.92948" lon="0.74987">
        <ele>1824.72</ele>
        <time>2022-04-25T10:22:32Z</time>
      </trkpt>
      <trkpt lat="42.92951" lon="0.74982">
        <ele>1823.76</ele>
        <time>2022-04-25T10:22:43Z</time>
      </trkpt>
      <trkpt lat="42.92955" lon="0.74982">
        <ele>1822.32</ele>
        <time>2022-04-25T10:22:53Z</time>
      </trkpt>
      <trkpt lat="42.92957" lon="0.74981">
        <ele>1821.35</ele>
        <time>2022-04-25T10:23:05Z</time>
      </trkpt>
      <trkpt lat="42.92958" lon="0.74977">
        <ele>1820.39</ele>
        <time>2022-04-25T10:23:13Z</time>
      </trkpt>
      <trkpt lat="42.9296" lon="0.74978">
        <ele>1819.43</ele>
        <time>2022-04-25T10:23:24Z</time>
      </trkpt>
      <trkpt lat="42.92962" lon="0.74975">
        <ele>1818.47</ele>
        <time>2022-04-25T10:23:33Z</time>
      </trkpt>
      <trkpt lat="42.92963" lon="0.74972">
        <ele>1817.51</ele>
        <time>2022-04-25T10:23:44Z</time>
      </trkpt>
      <trkpt lat="42.92964" lon="0.7497">
        <ele>1816.07</ele>
        <time>2022-04-25T10:23:54Z</time>
      </trkpt>
      <trkpt lat="42.92966" lon="0.74968">
        <ele>1815.59</ele>
        <time>2022-04-25T10:24:05Z</time>
      </trkpt>
      <trkpt lat="42.92968" lon="0.74965">
        <ele>1814.15</ele>
        <time>2022-04-25T10:24:16Z</time>
      </trkpt>
      <trkpt lat="42.92967" lon="0.74962">
        <ele>1813.66</ele>
        <time>2022-04-25T10:24:25Z</time>
      </trkpt>
      <trkpt lat="42.92968" lon="0.74959">
        <ele>1812.22</ele>
        <time>2022-04-25T10:24:33Z</time>
      </trkpt>
      <trkpt lat="42.92969" lon="0.74952">
        <ele>1811.26</ele>
        <time>2022-04-25T10:24:44Z</time>
      </trkpt>
      <trkpt lat="42.92974" lon="0.74949">
        <ele>1809.82</ele>
        <time>2022-04-25T10:24:56Z</time>
      </trkpt>
      <trkpt lat="42.92979" lon="0.74943">
        <ele>1808.38</ele>
        <time>2022-04-25T10:25:05Z</time>
      </trkpt>
      <trkpt lat="42.9298" lon="0.74942">
        <ele>1808.38</ele>
        <time>2022-04-25T10:25:06Z</time>
      </trkpt>
      <trkpt lat="42.92992" lon="0.74933">
        <ele>1806.45</ele>
        <time>2022-04-25T10:25:20Z</time>
      </trkpt>
      <trkpt lat="42.92993" lon="0.74933">
        <ele>1806.45</ele>
        <time>2022-04-25T10:25:21Z</time>
      </trkpt>
      <trkpt lat="42.92995" lon="0.7493">
        <ele>1805.97</ele>
        <time>2022-04-25T10:25:24Z</time>
      </trkpt>
      <trkpt lat="42.92996" lon="0.74929">
        <ele>1805.97</ele>
        <time>2022-04-25T10:25:25Z</time>
      </trkpt>
      <trkpt lat="42.93006" lon="0.74921">
        <ele>1805.49</ele>
        <time>2022-04-25T10:25:37Z</time>
      </trkpt>
      <trkpt lat="42.93017" lon="0.74919">
        <ele>1807.42</ele>
        <time>2022-04-25T10:25:50Z</time>
      </trkpt>
      <trkpt lat="42.93025" lon="0.74916">
        <ele>1808.38</ele>
        <time>2022-04-25T10:26:02Z</time>
      </trkpt>
      <trkpt lat="42.93032" lon="0.74915">
        <ele>1808.86</ele>
        <time>2022-04-25T10:26:12Z</time>
      </trkpt>
      <trkpt lat="42.93035" lon="0.74911">
        <ele>1808.86</ele>
        <time>2022-04-25T10:26:23Z</time>
      </trkpt>
      <trkpt lat="42.93044" lon="0.74906">
        <ele>1809.34</ele>
        <time>2022-04-25T10:26:36Z</time>
      </trkpt>
      <trkpt lat="42.9305" lon="0.74899">
        <ele>1811.74</ele>
        <time>2022-04-25T10:26:49Z</time>
      </trkpt>
      <trkpt lat="42.93054" lon="0.74891">
        <ele>1814.15</ele>
        <time>2022-04-25T10:27:00Z</time>
      </trkpt>
      <trkpt lat="42.93059" lon="0.74889">
        <ele>1814.63</ele>
        <time>2022-04-25T10:27:14Z</time>
      </trkpt>
      <trkpt lat="42.93063" lon="0.74886">
        <ele>1816.07</ele>
        <time>2022-04-25T10:27:24Z</time>
      </trkpt>
      <trkpt lat="42.93067" lon="0.74884">
        <ele>1816.55</ele>
        <time>2022-04-25T10:27:34Z</time>
      </trkpt>
      <trkpt lat="42.9307" lon="0.74884">
        <ele>1817.03</ele>
        <time>2022-04-25T10:27:45Z</time>
      </trkpt>
      <trkpt lat="42.93072" lon="0.74881">
        <ele>1817.03</ele>
        <time>2022-04-25T10:27:59Z</time>
      </trkpt>
      <trkpt lat="42.93076" lon="0.74879">
        <ele>1818.47</ele>
        <time>2022-04-25T10:28:11Z</time>
      </trkpt>
      <trkpt lat="42.9308" lon="0.74875">
        <ele>1820.39</ele>
        <time>2022-04-25T10:28:25Z</time>
      </trkpt>
      <trkpt lat="42.93083" lon="0.74871">
        <ele>1820.87</ele>
        <time>2022-04-25T10:28:36Z</time>
      </trkpt>
      <trkpt lat="42.93086" lon="0.74868">
        <ele>1822.32</ele>
        <time>2022-04-25T10:28:47Z</time>
      </trkpt>
      <trkpt lat="42.93091" lon="0.74867">
        <ele>1823.76</ele>
        <time>2022-04-25T10:28:58Z</time>
      </trkpt>
      <trkpt lat="42.93094" lon="0.74866">
        <ele>1824.24</ele>
        <time>2022-04-25T10:29:11Z</time>
      </trkpt>
      <trkpt lat="42.93099" lon="0.74865">
        <ele>1825.2</ele>
        <time>2022-04-25T10:29:21Z</time>
      </trkpt>
      <trkpt lat="42.93105" lon="0.74864">
        <ele>1827.12</ele>
        <time>2022-04-25T10:29:33Z</time>
      </trkpt>
      <trkpt lat="42.93113" lon="0.74868">
        <ele>1828.08</ele>
        <time>2022-04-25T10:29:45Z</time>
      </trkpt>
      <trkpt lat="42.93118" lon="0.7487">
        <ele>1829.53</ele>
        <time>2022-04-25T10:29:58Z</time>
      </trkpt>
      <trkpt lat="42.93122" lon="0.74875">
        <ele>1830.97</ele>
        <time>2022-04-25T10:30:09Z</time>
      </trkpt>
      <trkpt lat="42.93124" lon="0.74876">
        <ele>1831.45</ele>
        <time>2022-04-25T10:30:22Z</time>
      </trkpt>
      <trkpt lat="42.93126" lon="0.74872">
        <ele>1831.93</ele>
        <time>2022-04-25T10:30:32Z</time>
      </trkpt>
      <trkpt lat="42.93126" lon="0.74874">
        <ele>1831.93</ele>
        <time>2022-04-25T10:30:58Z</time>
      </trkpt>
      <trkpt lat="42.9313" lon="0.74872">
        <ele>1832.41</ele>
        <time>2022-04-25T10:31:14Z</time>
      </trkpt>
      <trkpt lat="42.93131" lon="0.74869">
        <ele>1832.89</ele>
        <time>2022-04-25T10:31:30Z</time>
      </trkpt>
      <trkpt lat="42.93129" lon="0.74875">
        <ele>1832.89</ele>
        <time>2022-04-25T10:31:42Z</time>
      </trkpt>
      <trkpt lat="42.93134" lon="0.74882">
        <ele>1834.33</ele>
        <time>2022-04-25T10:31:52Z</time>
      </trkpt>
      <trkpt lat="42.93144" lon="0.74879">
        <ele>1835.29</ele>
        <time>2022-04-25T10:32:04Z</time>
      </trkpt>
      <trkpt lat="42.93149" lon="0.7488">
        <ele>1835.77</ele>
        <time>2022-04-25T10:32:14Z</time>
      </trkpt>
      <trkpt lat="42.93156" lon="0.74882">
        <ele>1834.33</ele>
        <time>2022-04-25T10:32:29Z</time>
      </trkpt>
      <trkpt lat="42.9316" lon="0.74885">
        <ele>1834.33</ele>
        <time>2022-04-25T10:32:38Z</time>
      </trkpt>
      <trkpt lat="42.93159" lon="0.74885">
        <ele>1834.33</ele>
        <time>2022-04-25T10:32:55Z</time>
      </trkpt>
      <trkpt lat="42.9316" lon="0.74885">
        <ele>1834.33</ele>
        <time>2022-04-25T10:33:10Z</time>
      </trkpt>
      <trkpt lat="42.93161" lon="0.74887">
        <ele>1834.33</ele>
        <time>2022-04-25T10:33:41Z</time>
      </trkpt>
      <trkpt lat="42.93162" lon="0.74887">
        <ele>1834.33</ele>
        <time>2022-04-25T10:34:05Z</time>
      </trkpt>
      <trkpt lat="42.9316" lon="0.74887">
        <ele>1834.33</ele>
        <time>2022-04-25T10:34:30Z</time>
      </trkpt>
      <trkpt lat="42.93162" lon="0.74889">
        <ele>1834.33</ele>
        <time>2022-04-25T10:34:51Z</time>
      </trkpt>
      <trkpt lat="42.93164" lon="0.74895">
        <ele>1833.85</ele>
        <time>2022-04-25T10:34:57Z</time>
      </trkpt>
      <trkpt lat="42.9317" lon="0.74905">
        <ele>1833.85</ele>
        <time>2022-04-25T10:35:07Z</time>
      </trkpt>
      <trkpt lat="42.93174" lon="0.74912">
        <ele>1833.85</ele>
        <time>2022-04-25T10:35:17Z</time>
      </trkpt>
      <trkpt lat="42.93181" lon="0.74916">
        <ele>1835.29</ele>
        <time>2022-04-25T10:35:27Z</time>
      </trkpt>
      <trkpt lat="42.93186" lon="0.7492">
        <ele>1837.7</ele>
        <time>2022-04-25T10:35:37Z</time>
      </trkpt>
      <trkpt lat="42.93185" lon="0.74923">
        <ele>1838.18</ele>
        <time>2022-04-25T10:35:54Z</time>
      </trkpt>
      <trkpt lat="42.93189" lon="0.74929">
        <ele>1838.18</ele>
        <time>2022-04-25T10:36:07Z</time>
      </trkpt>
      <trkpt lat="42.93194" lon="0.74929">
        <ele>1839.14</ele>
        <time>2022-04-25T10:36:18Z</time>
      </trkpt>
      <trkpt lat="42.932" lon="0.74932">
        <ele>1839.14</ele>
        <time>2022-04-25T10:36:28Z</time>
      </trkpt>
      <trkpt lat="42.93206" lon="0.74934">
        <ele>1837.7</ele>
        <time>2022-04-25T10:36:40Z</time>
      </trkpt>
      <trkpt lat="42.93212" lon="0.74938">
        <ele>1836.74</ele>
        <time>2022-04-25T10:36:51Z</time>
      </trkpt>
      <trkpt lat="42.93216" lon="0.74945">
        <ele>1835.77</ele>
        <time>2022-04-25T10:37:04Z</time>
      </trkpt>
      <trkpt lat="42.93218" lon="0.74949">
        <ele>1835.77</ele>
        <time>2022-04-25T10:37:14Z</time>
      </trkpt>
      <trkpt lat="42.93221" lon="0.74951">
        <ele>1834.81</ele>
        <time>2022-04-25T10:37:29Z</time>
      </trkpt>
      <trkpt lat="42.93222" lon="0.74951">
        <ele>1834.81</ele>
        <time>2022-04-25T10:37:30Z</time>
      </trkpt>
      <trkpt lat="42.93229" lon="0.74953">
        <ele>1834.81</ele>
        <time>2022-04-25T10:37:41Z</time>
      </trkpt>
      <trkpt lat="42.93228" lon="0.74959">
        <ele>1836.26</ele>
        <time>2022-04-25T10:37:50Z</time>
      </trkpt>
      <trkpt lat="42.93231" lon="0.74962">
        <ele>1837.7</ele>
        <time>2022-04-25T10:38:01Z</time>
      </trkpt>
      <trkpt lat="42.93231" lon="0.74964">
        <ele>1837.7</ele>
        <time>2022-04-25T10:38:15Z</time>
      </trkpt>
      <trkpt lat="42.93234" lon="0.74969">
        <ele>1838.18</ele>
        <time>2022-04-25T10:38:28Z</time>
      </trkpt>
      <trkpt lat="42.93239" lon="0.74977">
        <ele>1839.14</ele>
        <time>2022-04-25T10:38:40Z</time>
      </trkpt>
      <trkpt lat="42.93241" lon="0.74984">
        <ele>1839.14</ele>
        <time>2022-04-25T10:38:53Z</time>
      </trkpt>
      <trkpt lat="42.93246" lon="0.74992">
        <ele>1839.62</ele>
        <time>2022-04-25T10:39:06Z</time>
      </trkpt>
      <trkpt lat="42.93251" lon="0.74999">
        <ele>1839.62</ele>
        <time>2022-04-25T10:39:17Z</time>
      </trkpt>
      <trkpt lat="42.93253" lon="0.7501">
        <ele>1839.62</ele>
        <time>2022-04-25T10:39:29Z</time>
      </trkpt>
      <trkpt lat="42.93254" lon="0.75018">
        <ele>1840.1</ele>
        <time>2022-04-25T10:39:39Z</time>
      </trkpt>
      <trkpt lat="42.93257" lon="0.75024">
        <ele>1840.1</ele>
        <time>2022-04-25T10:39:49Z</time>
      </trkpt>
      <trkpt lat="42.93259" lon="0.75026">
        <ele>1838.66</ele>
        <time>2022-04-25T10:39:52Z</time>
      </trkpt>
      <trkpt lat="42.93263" lon="0.75032">
        <ele>1838.66</ele>
        <time>2022-04-25T10:40:03Z</time>
      </trkpt>
      <trkpt lat="42.93265" lon="0.75037">
        <ele>1838.18</ele>
        <time>2022-04-25T10:40:14Z</time>
      </trkpt>
      <trkpt lat="42.93269" lon="0.75045">
        <ele>1838.18</ele>
        <time>2022-04-25T10:40:26Z</time>
      </trkpt>
      <trkpt lat="42.9327" lon="0.75052">
        <ele>1839.14</ele>
        <time>2022-04-25T10:40:39Z</time>
      </trkpt>
      <trkpt lat="42.9327" lon="0.75056">
        <ele>1839.14</ele>
        <time>2022-04-25T10:40:50Z</time>
      </trkpt>
      <trkpt lat="42.93271" lon="0.75059">
        <ele>1840.1</ele>
        <time>2022-04-25T10:41:03Z</time>
      </trkpt>
      <trkpt lat="42.93272" lon="0.75065">
        <ele>1841.06</ele>
        <time>2022-04-25T10:41:14Z</time>
      </trkpt>
      <trkpt lat="42.93274" lon="0.75067">
        <ele>1841.54</ele>
        <time>2022-04-25T10:41:26Z</time>
      </trkpt>
      <trkpt lat="42.93276" lon="0.75069">
        <ele>1841.54</ele>
        <time>2022-04-25T10:41:39Z</time>
      </trkpt>
      <trkpt lat="42.93277" lon="0.75071">
        <ele>1840.58</ele>
        <time>2022-04-25T10:41:43Z</time>
      </trkpt>
      <trkpt lat="42.93279" lon="0.75074">
        <ele>1838.66</ele>
        <time>2022-04-25T10:41:56Z</time>
      </trkpt>
      <trkpt lat="42.93281" lon="0.75074">
        <ele>1837.22</ele>
        <time>2022-04-25T10:42:09Z</time>
      </trkpt>
      <trkpt lat="42.93284" lon="0.75078">
        <ele>1835.77</ele>
        <time>2022-04-25T10:42:19Z</time>
      </trkpt>
      <trkpt lat="42.93283" lon="0.75079">
        <ele>1835.77</ele>
        <time>2022-04-25T10:42:33Z</time>
      </trkpt>
      <trkpt lat="42.93283" lon="0.75079">
        <ele>1835.77</ele>
        <time>2022-04-25T10:42:57Z</time>
      </trkpt>
      <trkpt lat="42.93283" lon="0.7508">
        <ele>1835.77</ele>
        <time>2022-04-25T10:43:18Z</time>
      </trkpt>
      <trkpt lat="42.93284" lon="0.75079">
        <ele>1835.77</ele>
        <time>2022-04-25T10:43:39Z</time>
      </trkpt>
      <trkpt lat="42.93286" lon="0.75085">
        <ele>1835.77</ele>
        <time>2022-04-25T10:43:53Z</time>
      </trkpt>
      <trkpt lat="42.93286" lon="0.7509">
        <ele>1836.26</ele>
        <time>2022-04-25T10:44:05Z</time>
      </trkpt>
      <trkpt lat="42.93289" lon="0.75092">
        <ele>1836.26</ele>
        <time>2022-04-25T10:44:15Z</time>
      </trkpt>
      <trkpt lat="42.9329" lon="0.75096">
        <ele>1835.77</ele>
        <time>2022-04-25T10:44:21Z</time>
      </trkpt>
      <trkpt lat="42.93291" lon="0.75103">
        <ele>1835.77</ele>
        <time>2022-04-25T10:44:30Z</time>
      </trkpt>
      <trkpt lat="42.93291" lon="0.75108">
        <ele>1835.77</ele>
        <time>2022-04-25T10:44:48Z</time>
      </trkpt>
      <trkpt lat="42.93291" lon="0.7511">
        <ele>1837.22</ele>
        <time>2022-04-25T10:44:50Z</time>
      </trkpt>
      <trkpt lat="42.93293" lon="0.75113">
        <ele>1837.22</ele>
        <time>2022-04-25T10:45:00Z</time>
      </trkpt>
      <trkpt lat="42.93292" lon="0.75113">
        <ele>1837.22</ele>
        <time>2022-04-25T10:45:21Z</time>
      </trkpt>
      <trkpt lat="42.93292" lon="0.75113">
        <ele>1837.7</ele>
        <time>2022-04-25T10:45:39Z</time>
      </trkpt>
      <trkpt lat="42.93294" lon="0.75119">
        <ele>1837.7</ele>
        <time>2022-04-25T10:45:53Z</time>
      </trkpt>
      <trkpt lat="42.93295" lon="0.75123">
        <ele>1836.74</ele>
        <time>2022-04-25T10:46:03Z</time>
      </trkpt>
      <trkpt lat="42.93298" lon="0.75129">
        <ele>1835.77</ele>
        <time>2022-04-25T10:46:14Z</time>
      </trkpt>
      <trkpt lat="42.93298" lon="0.75132">
        <ele>1834.33</ele>
        <time>2022-04-25T10:46:22Z</time>
      </trkpt>
      <trkpt lat="42.93297" lon="0.75135">
        <ele>1833.85</ele>
        <time>2022-04-25T10:46:31Z</time>
      </trkpt>
      <trkpt lat="42.93298" lon="0.75137">
        <ele>1833.37</ele>
        <time>2022-04-25T10:46:36Z</time>
      </trkpt>
      <trkpt lat="42.93297" lon="0.7514">
        <ele>1831.45</ele>
        <time>2022-04-25T10:46:50Z</time>
      </trkpt>
      <trkpt lat="42.93297" lon="0.75142">
        <ele>1829.53</ele>
        <time>2022-04-25T10:47:02Z</time>
      </trkpt>
      <trkpt lat="42.93297" lon="0.75144">
        <ele>1829.05</ele>
        <time>2022-04-25T10:47:11Z</time>
      </trkpt>
      <trkpt lat="42.933" lon="0.75143">
        <ele>1828.56</ele>
        <time>2022-04-25T10:47:22Z</time>
      </trkpt>
      <trkpt lat="42.93302" lon="0.75142">
        <ele>1827.6</ele>
        <time>2022-04-25T10:47:37Z</time>
      </trkpt>
      <trkpt lat="42.93302" lon="0.75145">
        <ele>1826.64</ele>
        <time>2022-04-25T10:47:49Z</time>
      </trkpt>
      <trkpt lat="42.93304" lon="0.75145">
        <ele>1825.68</ele>
        <time>2022-04-25T10:47:58Z</time>
      </trkpt>
      <trkpt lat="42.93306" lon="0.75144">
        <ele>1824.72</ele>
        <time>2022-04-25T10:48:11Z</time>
      </trkpt>
      <trkpt lat="42.93309" lon="0.75143">
        <ele>1824.24</ele>
        <time>2022-04-25T10:48:32Z</time>
      </trkpt>
      <trkpt lat="42.93312" lon="0.75143">
        <ele>1823.76</ele>
        <time>2022-04-25T10:48:45Z</time>
      </trkpt>
      <trkpt lat="42.93311" lon="0.75148">
        <ele>1823.28</ele>
        <time>2022-04-25T10:49:00Z</time>
      </trkpt>
      <trkpt lat="42.93311" lon="0.75152">
        <ele>1822.32</ele>
        <time>2022-04-25T10:49:09Z</time>
      </trkpt>
      <trkpt lat="42.93313" lon="0.75155">
        <ele>1821.84</ele>
        <time>2022-04-25T10:49:17Z</time>
      </trkpt>
      <trkpt lat="42.93315" lon="0.75157">
        <ele>1821.84</ele>
        <time>2022-04-25T10:49:25Z</time>
      </trkpt>
      <trkpt lat="42.93319" lon="0.75161">
        <ele>1820.39</ele>
        <time>2022-04-25T10:49:37Z</time>
      </trkpt>
      <trkpt lat="42.9332" lon="0.75164">
        <ele>1818.95</ele>
        <time>2022-04-25T10:49:46Z</time>
      </trkpt>
      <trkpt lat="42.93323" lon="0.75167">
        <ele>1817.99</ele>
        <time>2022-04-25T10:49:55Z</time>
      </trkpt>
      <trkpt lat="42.93328" lon="0.75166">
        <ele>1817.03</ele>
        <time>2022-04-25T10:50:07Z</time>
      </trkpt>
      <trkpt lat="42.93328" lon="0.75167">
        <ele>1816.55</ele>
        <time>2022-04-25T10:50:15Z</time>
      </trkpt>
      <trkpt lat="42.9333" lon="0.7517">
        <ele>1816.07</ele>
        <time>2022-04-25T10:50:26Z</time>
      </trkpt>
      <trkpt lat="42.93333" lon="0.75171">
        <ele>1817.51</ele>
        <time>2022-04-25T10:50:38Z</time>
      </trkpt>
      <trkpt lat="42.93337" lon="0.7517">
        <ele>1817.51</ele>
        <time>2022-04-25T10:50:52Z</time>
      </trkpt>
      <trkpt lat="42.9334" lon="0.75172">
        <ele>1816.07</ele>
        <time>2022-04-25T10:50:57Z</time>
      </trkpt>
      <trkpt lat="42.93342" lon="0.75176">
        <ele>1814.63</ele>
        <time>2022-04-25T10:51:08Z</time>
      </trkpt>
      <trkpt lat="42.93344" lon="0.75173">
        <ele>1814.15</ele>
        <time>2022-04-25T10:51:19Z</time>
      </trkpt>
      <trkpt lat="42.93345" lon="0.75173">
        <ele>1813.18</ele>
        <time>2022-04-25T10:51:28Z</time>
      </trkpt>
      <trkpt lat="42.93348" lon="0.75171">
        <ele>1811.74</ele>
        <time>2022-04-25T10:51:39Z</time>
      </trkpt>
      <trkpt lat="42.93348" lon="0.75169">
        <ele>1810.78</ele>
        <time>2022-04-25T10:51:50Z</time>
      </trkpt>
      <trkpt lat="42.93349" lon="0.75169">
        <ele>1810.3</ele>
        <time>2022-04-25T10:52:04Z</time>
      </trkpt>
      <trkpt lat="42.9335" lon="0.7517">
        <ele>1809.34</ele>
        <time>2022-04-25T10:52:17Z</time>
      </trkpt>
      <trkpt lat="42.93354" lon="0.75173">
        <ele>1808.38</ele>
        <time>2022-04-25T10:52:26Z</time>
      </trkpt>
      <trkpt lat="42.93354" lon="0.75174">
        <ele>1808.38</ele>
        <time>2022-04-25T10:52:37Z</time>
      </trkpt>
      <trkpt lat="42.93354" lon="0.75176">
        <ele>1807.42</ele>
        <time>2022-04-25T10:52:51Z</time>
      </trkpt>
      <trkpt lat="42.93356" lon="0.75178">
        <ele>1806.94</ele>
        <time>2022-04-25T10:53:06Z</time>
      </trkpt>
      <trkpt lat="42.93356" lon="0.75176">
        <ele>1806.94</ele>
        <time>2022-04-25T10:53:18Z</time>
      </trkpt>
      <trkpt lat="42.93357" lon="0.75172">
        <ele>1806.45</ele>
        <time>2022-04-25T10:53:31Z</time>
      </trkpt>
      <trkpt lat="42.93358" lon="0.75171">
        <ele>1805.97</ele>
        <time>2022-04-25T10:53:44Z</time>
      </trkpt>
      <trkpt lat="42.93358" lon="0.75176">
        <ele>1805.01</ele>
        <time>2022-04-25T10:53:56Z</time>
      </trkpt>
      <trkpt lat="42.93359" lon="0.75176">
        <ele>1804.05</ele>
        <time>2022-04-25T10:54:07Z</time>
      </trkpt>
      <trkpt lat="42.93359" lon="0.75182">
        <ele>1803.09</ele>
        <time>2022-04-25T10:54:19Z</time>
      </trkpt>
      <trkpt lat="42.93361" lon="0.75185">
        <ele>1802.61</ele>
        <time>2022-04-25T10:54:30Z</time>
      </trkpt>
      <trkpt lat="42.93363" lon="0.75188">
        <ele>1802.13</ele>
        <time>2022-04-25T10:54:38Z</time>
      </trkpt>
      <trkpt lat="42.93364" lon="0.7519">
        <ele>1801.65</ele>
        <time>2022-04-25T10:54:49Z</time>
      </trkpt>
      <trkpt lat="42.93365" lon="0.75189">
        <ele>1800.21</ele>
        <time>2022-04-25T10:55:03Z</time>
      </trkpt>
      <trkpt lat="42.93366" lon="0.75189">
        <ele>1799.73</ele>
        <time>2022-04-25T10:55:14Z</time>
      </trkpt>
      <trkpt lat="42.93368" lon="0.7519">
        <ele>1798.28</ele>
        <time>2022-04-25T10:55:25Z</time>
      </trkpt>
      <trkpt lat="42.93367" lon="0.75191">
        <ele>1797.8</ele>
        <time>2022-04-25T10:55:38Z</time>
      </trkpt>
      <trkpt lat="42.9337" lon="0.75192">
        <ele>1797.8</ele>
        <time>2022-04-25T10:55:53Z</time>
      </trkpt>
      <trkpt lat="42.9337" lon="0.75193">
        <ele>1797.32</ele>
        <time>2022-04-25T10:56:04Z</time>
      </trkpt>
      <trkpt lat="42.93371" lon="0.75191">
        <ele>1795.88</ele>
        <time>2022-04-25T10:56:16Z</time>
      </trkpt>
      <trkpt lat="42.93374" lon="0.75194">
        <ele>1794.44</ele>
        <time>2022-04-25T10:56:29Z</time>
      </trkpt>
      <trkpt lat="42.93376" lon="0.75196">
        <ele>1793.96</ele>
        <time>2022-04-25T10:56:40Z</time>
      </trkpt>
      <trkpt lat="42.93377" lon="0.75197">
        <ele>1793</ele>
        <time>2022-04-25T10:56:52Z</time>
      </trkpt>
      <trkpt lat="42.93378" lon="0.75197">
        <ele>1793.48</ele>
        <time>2022-04-25T10:57:06Z</time>
      </trkpt>
      <trkpt lat="42.93378" lon="0.75199">
        <ele>1793.96</ele>
        <time>2022-04-25T10:57:23Z</time>
      </trkpt>
      <trkpt lat="42.93378" lon="0.75199">
        <ele>1793</ele>
        <time>2022-04-25T10:57:29Z</time>
      </trkpt>
      <trkpt lat="42.93382" lon="0.75201">
        <ele>1791.55</ele>
        <time>2022-04-25T10:57:40Z</time>
      </trkpt>
      <trkpt lat="42.93389" lon="0.75209">
        <ele>1789.15</ele>
        <time>2022-04-25T10:57:54Z</time>
      </trkpt>
      <trkpt lat="42.93393" lon="0.75212">
        <ele>1787.71</ele>
        <time>2022-04-25T10:58:05Z</time>
      </trkpt>
      <trkpt lat="42.93399" lon="0.75217">
        <ele>1786.75</ele>
        <time>2022-04-25T10:58:17Z</time>
      </trkpt>
      <trkpt lat="42.93404" lon="0.7522">
        <ele>1784.82</ele>
        <time>2022-04-25T10:58:31Z</time>
      </trkpt>
      <trkpt lat="42.93407" lon="0.75225">
        <ele>1782.9</ele>
        <time>2022-04-25T10:58:43Z</time>
      </trkpt>
      <trkpt lat="42.93409" lon="0.75228">
        <ele>1781.94</ele>
        <time>2022-04-25T10:58:53Z</time>
      </trkpt>
      <trkpt lat="42.93412" lon="0.75229">
        <ele>1780.02</ele>
        <time>2022-04-25T10:59:05Z</time>
      </trkpt>
      <trkpt lat="42.93413" lon="0.75231">
        <ele>1778.58</ele>
        <time>2022-04-25T10:59:19Z</time>
      </trkpt>
      <trkpt lat="42.93413" lon="0.75234">
        <ele>1777.13</ele>
        <time>2022-04-25T10:59:30Z</time>
      </trkpt>
      <trkpt lat="42.93413" lon="0.75236">
        <ele>1776.17</ele>
        <time>2022-04-25T10:59:41Z</time>
      </trkpt>
      <trkpt lat="42.93416" lon="0.75233">
        <ele>1774.73</ele>
        <time>2022-04-25T10:59:53Z</time>
      </trkpt>
      <trkpt lat="42.9342" lon="0.75231">
        <ele>1773.29</ele>
        <time>2022-04-25T11:00:07Z</time>
      </trkpt>
      <trkpt lat="42.93421" lon="0.75231">
        <ele>1772.33</ele>
        <time>2022-04-25T11:00:18Z</time>
      </trkpt>
      <trkpt lat="42.93422" lon="0.7523">
        <ele>1771.37</ele>
        <time>2022-04-25T11:00:29Z</time>
      </trkpt>
      <trkpt lat="42.93424" lon="0.7523">
        <ele>1770.41</ele>
        <time>2022-04-25T11:00:40Z</time>
      </trkpt>
      <trkpt lat="42.93425" lon="0.75229">
        <ele>1769.44</ele>
        <time>2022-04-25T11:00:52Z</time>
      </trkpt>
      <trkpt lat="42.93427" lon="0.7523">
        <ele>1768.48</ele>
        <time>2022-04-25T11:01:02Z</time>
      </trkpt>
      <trkpt lat="42.93428" lon="0.7523">
        <ele>1767.52</ele>
        <time>2022-04-25T11:01:13Z</time>
      </trkpt>
      <trkpt lat="42.9343" lon="0.75228">
        <ele>1766.08</ele>
        <time>2022-04-25T11:01:26Z</time>
      </trkpt>
      <trkpt lat="42.93431" lon="0.75228">
        <ele>1765.12</ele>
        <time>2022-04-25T11:01:36Z</time>
      </trkpt>
      <trkpt lat="42.93432" lon="0.75229">
        <ele>1763.68</ele>
        <time>2022-04-25T11:01:48Z</time>
      </trkpt>
      <trkpt lat="42.93435" lon="0.75229">
        <ele>1763.2</ele>
        <time>2022-04-25T11:02:02Z</time>
      </trkpt>
      <trkpt lat="42.93438" lon="0.75231">
        <ele>1762.71</ele>
        <time>2022-04-25T11:02:15Z</time>
      </trkpt>
      <trkpt lat="42.9344" lon="0.75232">
        <ele>1762.71</ele>
        <time>2022-04-25T11:02:28Z</time>
      </trkpt>
      <trkpt lat="42.93443" lon="0.75231">
        <ele>1762.71</ele>
        <time>2022-04-25T11:02:42Z</time>
      </trkpt>
      <trkpt lat="42.93447" lon="0.75231">
        <ele>1762.71</ele>
        <time>2022-04-25T11:02:54Z</time>
      </trkpt>
      <trkpt lat="42.9345" lon="0.75232">
        <ele>1762.23</ele>
        <time>2022-04-25T11:03:05Z</time>
      </trkpt>
      <trkpt lat="42.93452" lon="0.75233">
        <ele>1761.27</ele>
        <time>2022-04-25T11:03:16Z</time>
      </trkpt>
      <trkpt lat="42.93453" lon="0.75234">
        <ele>1760.79</ele>
        <time>2022-04-25T11:03:27Z</time>
      </trkpt>
      <trkpt lat="42.93456" lon="0.75234">
        <ele>1760.31</ele>
        <time>2022-04-25T11:03:38Z</time>
      </trkpt>
      <trkpt lat="42.93457" lon="0.75237">
        <ele>1759.83</ele>
        <time>2022-04-25T11:03:49Z</time>
      </trkpt>
      <trkpt lat="42.93459" lon="0.75242">
        <ele>1759.83</ele>
        <time>2022-04-25T11:04:03Z</time>
      </trkpt>
      <trkpt lat="42.93464" lon="0.75244">
        <ele>1759.83</ele>
        <time>2022-04-25T11:04:15Z</time>
      </trkpt>
      <trkpt lat="42.93466" lon="0.75245">
        <ele>1759.83</ele>
        <time>2022-04-25T11:04:29Z</time>
      </trkpt>
      <trkpt lat="42.93468" lon="0.75242">
        <ele>1757.43</ele>
        <time>2022-04-25T11:04:41Z</time>
      </trkpt>
      <trkpt lat="42.93469" lon="0.75245">
        <ele>1757.43</ele>
        <time>2022-04-25T11:04:52Z</time>
      </trkpt>
      <trkpt lat="42.93472" lon="0.75247">
        <ele>1757.43</ele>
        <time>2022-04-25T11:05:04Z</time>
      </trkpt>
      <trkpt lat="42.93476" lon="0.75247">
        <ele>1756.95</ele>
        <time>2022-04-25T11:05:18Z</time>
      </trkpt>
      <trkpt lat="42.93478" lon="0.7525">
        <ele>1755.99</ele>
        <time>2022-04-25T11:05:30Z</time>
      </trkpt>
      <trkpt lat="42.93483" lon="0.75252">
        <ele>1754.54</ele>
        <time>2022-04-25T11:05:44Z</time>
      </trkpt>
      <trkpt lat="42.93485" lon="0.75255">
        <ele>1754.06</ele>
        <time>2022-04-25T11:05:56Z</time>
      </trkpt>
      <trkpt lat="42.93487" lon="0.75257">
        <ele>1754.06</ele>
        <time>2022-04-25T11:06:10Z</time>
      </trkpt>
      <trkpt lat="42.93489" lon="0.75259">
        <ele>1753.58</ele>
        <time>2022-04-25T11:06:25Z</time>
      </trkpt>
      <trkpt lat="42.93491" lon="0.75263">
        <ele>1753.58</ele>
        <time>2022-04-25T11:06:40Z</time>
      </trkpt>
      <trkpt lat="42.93493" lon="0.75268">
        <ele>1753.58</ele>
        <time>2022-04-25T11:06:56Z</time>
      </trkpt>
      <trkpt lat="42.93495" lon="0.75271">
        <ele>1754.54</ele>
        <time>2022-04-25T11:07:07Z</time>
      </trkpt>
      <trkpt lat="42.93496" lon="0.75277">
        <ele>1755.99</ele>
        <time>2022-04-25T11:07:20Z</time>
      </trkpt>
      <trkpt lat="42.93502" lon="0.75284">
        <ele>1756.95</ele>
        <time>2022-04-25T11:07:33Z</time>
      </trkpt>
      <trkpt lat="42.93503" lon="0.75289">
        <ele>1758.87</ele>
        <time>2022-04-25T11:07:45Z</time>
      </trkpt>
      <trkpt lat="42.93504" lon="0.75292">
        <ele>1760.31</ele>
        <time>2022-04-25T11:07:58Z</time>
      </trkpt>
      <trkpt lat="42.93506" lon="0.75296">
        <ele>1761.75</ele>
        <time>2022-04-25T11:08:07Z</time>
      </trkpt>
      <trkpt lat="42.93508" lon="0.75298">
        <ele>1763.2</ele>
        <time>2022-04-25T11:08:17Z</time>
      </trkpt>
      <trkpt lat="42.93509" lon="0.75301">
        <ele>1765.6</ele>
        <time>2022-04-25T11:08:29Z</time>
      </trkpt>
      <trkpt lat="42.93513" lon="0.75302">
        <ele>1766.56</ele>
        <time>2022-04-25T11:08:40Z</time>
      </trkpt>
      <trkpt lat="42.93515" lon="0.75303">
        <ele>1766.56</ele>
        <time>2022-04-25T11:08:50Z</time>
      </trkpt>
      <trkpt lat="42.93517" lon="0.75303">
        <ele>1765.6</ele>
        <time>2022-04-25T11:09:00Z</time>
      </trkpt>
      <trkpt lat="42.9352" lon="0.75307">
        <ele>1765.6</ele>
        <time>2022-04-25T11:09:11Z</time>
      </trkpt>
      <trkpt lat="42.93521" lon="0.75309">
        <ele>1766.56</ele>
        <time>2022-04-25T11:09:17Z</time>
      </trkpt>
      <trkpt lat="42.93524" lon="0.75309">
        <ele>1767.04</ele>
        <time>2022-04-25T11:09:27Z</time>
      </trkpt>
      <trkpt lat="42.93529" lon="0.7531">
        <ele>1766.08</ele>
        <time>2022-04-25T11:09:35Z</time>
      </trkpt>
      <trkpt lat="42.93535" lon="0.75313">
        <ele>1765.12</ele>
        <time>2022-04-25T11:09:49Z</time>
      </trkpt>
      <trkpt lat="42.93538" lon="0.75316">
        <ele>1764.16</ele>
        <time>2022-04-25T11:09:58Z</time>
      </trkpt>
      <trkpt lat="42.93543" lon="0.75317">
        <ele>1763.2</ele>
        <time>2022-04-25T11:10:12Z</time>
      </trkpt>
      <trkpt lat="42.93545" lon="0.7532">
        <ele>1762.71</ele>
        <time>2022-04-25T11:10:24Z</time>
      </trkpt>
      <trkpt lat="42.93546" lon="0.75325">
        <ele>1762.71</ele>
        <time>2022-04-25T11:10:37Z</time>
      </trkpt>
      <trkpt lat="42.93548" lon="0.75327">
        <ele>1761.75</ele>
        <time>2022-04-25T11:10:47Z</time>
      </trkpt>
      <trkpt lat="42.93549" lon="0.75331">
        <ele>1760.31</ele>
        <time>2022-04-25T11:11:01Z</time>
      </trkpt>
      <trkpt lat="42.93554" lon="0.75337">
        <ele>1759.35</ele>
        <time>2022-04-25T11:11:13Z</time>
      </trkpt>
      <trkpt lat="42.93558" lon="0.75342">
        <ele>1757.91</ele>
        <time>2022-04-25T11:11:27Z</time>
      </trkpt>
      <trkpt lat="42.93556" lon="0.75342">
        <ele>1757.91</ele>
        <time>2022-04-25T11:11:42Z</time>
      </trkpt>
      <trkpt lat="42.93558" lon="0.75345">
        <ele>1757.91</ele>
        <time>2022-04-25T11:11:56Z</time>
      </trkpt>
      <trkpt lat="42.9356" lon="0.75347">
        <ele>1757.43</ele>
        <time>2022-04-25T11:12:13Z</time>
      </trkpt>
      <trkpt lat="42.93563" lon="0.75348">
        <ele>1756.47</ele>
        <time>2022-04-25T11:12:23Z</time>
      </trkpt>
      <trkpt lat="42.93565" lon="0.75348">
        <ele>1758.39</ele>
        <time>2022-04-25T11:12:35Z</time>
      </trkpt>
      <trkpt lat="42.93566" lon="0.75348">
        <ele>1754.06</ele>
        <time>2022-04-25T11:12:42Z</time>
      </trkpt>
      <trkpt lat="42.93566" lon="0.75348">
        <ele>1757.91</ele>
        <time>2022-04-25T11:12:43Z</time>
      </trkpt>
      <trkpt lat="42.9357" lon="0.7535">
        <ele>1755.02</ele>
        <time>2022-04-25T11:12:53Z</time>
      </trkpt>
      <trkpt lat="42.93577" lon="0.75355">
        <ele>1755.5</ele>
        <time>2022-04-25T11:13:06Z</time>
      </trkpt>
      <trkpt lat="42.93575" lon="0.75355">
        <ele>1755.5</ele>
        <time>2022-04-25T11:13:20Z</time>
      </trkpt>
      <trkpt lat="42.93576" lon="0.75358">
        <ele>1755.5</ele>
        <time>2022-04-25T11:13:42Z</time>
      </trkpt>
      <trkpt lat="42.93578" lon="0.75359">
        <ele>1755.5</ele>
        <time>2022-04-25T11:13:56Z</time>
      </trkpt>
      <trkpt lat="42.93581" lon="0.75361">
        <ele>1755.5</ele>
        <time>2022-04-25T11:14:09Z</time>
      </trkpt>
      <trkpt lat="42.93583" lon="0.75361">
        <ele>1754.54</ele>
        <time>2022-04-25T11:14:23Z</time>
      </trkpt>
      <trkpt lat="42.93583" lon="0.75361">
        <ele>1754.54</ele>
        <time>2022-04-25T11:14:33Z</time>
      </trkpt>
      <trkpt lat="42.93585" lon="0.75359">
        <ele>1753.1</ele>
        <time>2022-04-25T11:14:47Z</time>
      </trkpt>
      <trkpt lat="42.93589" lon="0.75359">
        <ele>1752.62</ele>
        <time>2022-04-25T11:15:01Z</time>
      </trkpt>
      <trkpt lat="42.93593" lon="0.7536">
        <ele>1753.1</ele>
        <time>2022-04-25T11:15:13Z</time>
      </trkpt>
      <trkpt lat="42.93595" lon="0.75363">
        <ele>1755.02</ele>
        <time>2022-04-25T11:15:25Z</time>
      </trkpt>
      <trkpt lat="42.93596" lon="0.75367">
        <ele>1755.99</ele>
        <time>2022-04-25T11:15:38Z</time>
      </trkpt>
      <trkpt lat="42.93597" lon="0.7537">
        <ele>1755.99</ele>
        <time>2022-04-25T11:15:49Z</time>
      </trkpt>
      <trkpt lat="42.93598" lon="0.75373">
        <ele>1754.54</ele>
        <time>2022-04-25T11:16:03Z</time>
      </trkpt>
      <trkpt lat="42.93599" lon="0.75374">
        <ele>1754.06</ele>
        <time>2022-04-25T11:16:18Z</time>
      </trkpt>
      <trkpt lat="42.936" lon="0.75376">
        <ele>1753.1</ele>
        <time>2022-04-25T11:16:33Z</time>
      </trkpt>
      <trkpt lat="42.93601" lon="0.7538">
        <ele>1752.14</ele>
        <time>2022-04-25T11:16:46Z</time>
      </trkpt>
      <trkpt lat="42.93602" lon="0.75382">
        <ele>1751.66</ele>
        <time>2022-04-25T11:16:58Z</time>
      </trkpt>
      <trkpt lat="42.93606" lon="0.75384">
        <ele>1750.7</ele>
        <time>2022-04-25T11:17:09Z</time>
      </trkpt>
      <trkpt lat="42.9361" lon="0.75387">
        <ele>1749.74</ele>
        <time>2022-04-25T11:17:22Z</time>
      </trkpt>
      <trkpt lat="42.93613" lon="0.75387">
        <ele>1749.26</ele>
        <time>2022-04-25T11:17:34Z</time>
      </trkpt>
      <trkpt lat="42.93615" lon="0.75387">
        <ele>1748.29</ele>
        <time>2022-04-25T11:17:48Z</time>
      </trkpt>
      <trkpt lat="42.93616" lon="0.75387">
        <ele>1748.29</ele>
        <time>2022-04-25T11:17:59Z</time>
      </trkpt>
      <trkpt lat="42.93614" lon="0.75385">
        <ele>1748.29</ele>
        <time>2022-04-25T11:18:09Z</time>
      </trkpt>
      <trkpt lat="42.93615" lon="0.75386">
        <ele>1747.81</ele>
        <time>2022-04-25T11:18:18Z</time>
      </trkpt>
      <trkpt lat="42.93615" lon="0.75387">
        <ele>1745.41</ele>
        <time>2022-04-25T11:18:33Z</time>
      </trkpt>
      <trkpt lat="42.93616" lon="0.75388">
        <ele>1750.22</ele>
        <time>2022-04-25T11:18:34Z</time>
      </trkpt>
      <trkpt lat="42.93614" lon="0.75388">
        <ele>1748.29</ele>
        <time>2022-04-25T11:18:37Z</time>
      </trkpt>
      <trkpt lat="42.93612" lon="0.7539">
        <ele>1748.29</ele>
        <time>2022-04-25T11:18:47Z</time>
      </trkpt>
      <trkpt lat="42.93612" lon="0.75391">
        <ele>1748.29</ele>
        <time>2022-04-25T11:19:04Z</time>
      </trkpt>
      <trkpt lat="42.93611" lon="0.75389">
        <ele>1749.26</ele>
        <time>2022-04-25T11:19:23Z</time>
      </trkpt>
      <trkpt lat="42.93612" lon="0.75388">
        <ele>1748.29</ele>
        <time>2022-04-25T11:19:42Z</time>
      </trkpt>
      <trkpt lat="42.9361" lon="0.7539">
        <ele>1748.29</ele>
        <time>2022-04-25T11:20:01Z</time>
      </trkpt>
      <trkpt lat="42.93611" lon="0.75392">
        <ele>1748.29</ele>
        <time>2022-04-25T11:20:18Z</time>
      </trkpt>
      <trkpt lat="42.93611" lon="0.75391">
        <ele>1748.29</ele>
        <time>2022-04-25T11:20:42Z</time>
      </trkpt>
      <trkpt lat="42.93613" lon="0.75389">
        <ele>1748.29</ele>
        <time>2022-04-25T11:21:01Z</time>
      </trkpt>
      <trkpt lat="42.93619" lon="0.75391">
        <ele>1747.81</ele>
        <time>2022-04-25T11:21:17Z</time>
      </trkpt>
      <trkpt lat="42.93624" lon="0.75393">
        <ele>1746.85</ele>
        <time>2022-04-25T11:21:27Z</time>
      </trkpt>
      <trkpt lat="42.93629" lon="0.75391">
        <ele>1746.37</ele>
        <time>2022-04-25T11:21:38Z</time>
      </trkpt>
      <trkpt lat="42.93631" lon="0.75391">
        <ele>1745.89</ele>
        <time>2022-04-25T11:21:49Z</time>
      </trkpt>
      <trkpt lat="42.93633" lon="0.7539">
        <ele>1745.41</ele>
        <time>2022-04-25T11:22:04Z</time>
      </trkpt>
      <trkpt lat="42.93633" lon="0.7539">
        <ele>1744.93</ele>
        <time>2022-04-25T11:22:16Z</time>
      </trkpt>
      <trkpt lat="42.93635" lon="0.75388">
        <ele>1744.45</ele>
        <time>2022-04-25T11:22:28Z</time>
      </trkpt>
      <trkpt lat="42.93635" lon="0.75389">
        <ele>1744.45</ele>
        <time>2022-04-25T11:22:54Z</time>
      </trkpt>
      <trkpt lat="42.93635" lon="0.75388">
        <ele>1743.97</ele>
        <time>2022-04-25T11:23:13Z</time>
      </trkpt>
      <trkpt lat="42.93637" lon="0.75388">
        <ele>1743.49</ele>
        <time>2022-04-25T11:23:24Z</time>
      </trkpt>
      <trkpt lat="42.9364" lon="0.75387">
        <ele>1742.53</ele>
        <time>2022-04-25T11:23:34Z</time>
      </trkpt>
      <trkpt lat="42.93642" lon="0.75393">
        <ele>1742.05</ele>
        <time>2022-04-25T11:23:44Z</time>
      </trkpt>
      <trkpt lat="42.93644" lon="0.75397">
        <ele>1741.57</ele>
        <time>2022-04-25T11:23:54Z</time>
      </trkpt>
      <trkpt lat="42.93648" lon="0.754">
        <ele>1741.08</ele>
        <time>2022-04-25T11:24:05Z</time>
      </trkpt>
      <trkpt lat="42.9365" lon="0.75401">
        <ele>1740.12</ele>
        <time>2022-04-25T11:24:18Z</time>
      </trkpt>
      <trkpt lat="42.93653" lon="0.754">
        <ele>1739.16</ele>
        <time>2022-04-25T11:24:30Z</time>
      </trkpt>
      <trkpt lat="42.93654" lon="0.75405">
        <ele>1738.2</ele>
        <time>2022-04-25T11:24:40Z</time>
      </trkpt>
      <trkpt lat="42.93655" lon="0.75409">
        <ele>1736.28</ele>
        <time>2022-04-25T11:24:53Z</time>
      </trkpt>
      <trkpt lat="42.93655" lon="0.7541">
        <ele>1736.28</ele>
        <time>2022-04-25T11:25:08Z</time>
      </trkpt>
      <trkpt lat="42.93655" lon="0.75413">
        <ele>1736.28</ele>
        <time>2022-04-25T11:25:26Z</time>
      </trkpt>
      <trkpt lat="42.93659" lon="0.75414">
        <ele>1734.84</ele>
        <time>2022-04-25T11:25:38Z</time>
      </trkpt>
      <trkpt lat="42.93664" lon="0.75417">
        <ele>1734.36</ele>
        <time>2022-04-25T11:25:52Z</time>
      </trkpt>
      <trkpt lat="42.93666" lon="0.7542">
        <ele>1733.88</ele>
        <time>2022-04-25T11:26:04Z</time>
      </trkpt>
      <trkpt lat="42.93662" lon="0.75417">
        <ele>1733.88</ele>
        <time>2022-04-25T11:26:29Z</time>
      </trkpt>
      <trkpt lat="42.93661" lon="0.75418">
        <ele>1732.91</ele>
        <time>2022-04-25T11:26:41Z</time>
      </trkpt>
      <trkpt lat="42.93663" lon="0.75417">
        <ele>1734.36</ele>
        <time>2022-04-25T11:26:48Z</time>
      </trkpt>
      <trkpt lat="42.93665" lon="0.75418">
        <ele>1733.39</ele>
        <time>2022-04-25T11:27:10Z</time>
      </trkpt>
      <trkpt lat="42.93664" lon="0.75419">
        <ele>1733.88</ele>
        <time>2022-04-25T11:27:16Z</time>
      </trkpt>
      <trkpt lat="42.93666" lon="0.75422">
        <ele>1734.36</ele>
        <time>2022-04-25T11:27:31Z</time>
      </trkpt>
      <trkpt lat="42.93671" lon="0.75427">
        <ele>1734.36</ele>
        <time>2022-04-25T11:27:42Z</time>
      </trkpt>
      <trkpt lat="42.93675" lon="0.75432">
        <ele>1734.36</ele>
        <time>2022-04-25T11:27:56Z</time>
      </trkpt>
      <trkpt lat="42.93677" lon="0.75431">
        <ele>1731.95</ele>
        <time>2022-04-25T11:28:06Z</time>
      </trkpt>
      <trkpt lat="42.93679" lon="0.7543">
        <ele>1730.99</ele>
        <time>2022-04-25T11:28:18Z</time>
      </trkpt>
      <trkpt lat="42.93681" lon="0.75432">
        <ele>1730.51</ele>
        <time>2022-04-25T11:28:28Z</time>
      </trkpt>
      <trkpt lat="42.93687" lon="0.75436">
        <ele>1728.59</ele>
        <time>2022-04-25T11:28:42Z</time>
      </trkpt>
      <trkpt lat="42.93692" lon="0.75439">
        <ele>1727.15</ele>
        <time>2022-04-25T11:28:53Z</time>
      </trkpt>
      <trkpt lat="42.93697" lon="0.75441">
        <ele>1725.7</ele>
        <time>2022-04-25T11:29:05Z</time>
      </trkpt>
      <trkpt lat="42.937" lon="0.75442">
        <ele>1725.22</ele>
        <time>2022-04-25T11:29:15Z</time>
      </trkpt>
      <trkpt lat="42.93705" lon="0.75444">
        <ele>1722.34</ele>
        <time>2022-04-25T11:29:27Z</time>
      </trkpt>
      <trkpt lat="42.93707" lon="0.75445">
        <ele>1721.86</ele>
        <time>2022-04-25T11:29:38Z</time>
      </trkpt>
      <trkpt lat="42.93711" lon="0.7545">
        <ele>1721.38</ele>
        <time>2022-04-25T11:29:50Z</time>
      </trkpt>
      <trkpt lat="42.93716" lon="0.75454">
        <ele>1720.9</ele>
        <time>2022-04-25T11:30:01Z</time>
      </trkpt>
      <trkpt lat="42.93718" lon="0.75457">
        <ele>1720.9</ele>
        <time>2022-04-25T11:30:04Z</time>
      </trkpt>
      <trkpt lat="42.93724" lon="0.75463">
        <ele>1719.94</ele>
        <time>2022-04-25T11:30:15Z</time>
      </trkpt>
      <trkpt lat="42.9373" lon="0.75466">
        <ele>1718.01</ele>
        <time>2022-04-25T11:30:26Z</time>
      </trkpt>
      <trkpt lat="42.93734" lon="0.75465">
        <ele>1716.57</ele>
        <time>2022-04-25T11:30:39Z</time>
      </trkpt>
      <trkpt lat="42.93739" lon="0.75465">
        <ele>1716.09</ele>
        <time>2022-04-25T11:30:53Z</time>
      </trkpt>
      <trkpt lat="42.93741" lon="0.75465">
        <ele>1715.13</ele>
        <time>2022-04-25T11:31:06Z</time>
      </trkpt>
      <trkpt lat="42.93748" lon="0.75466">
        <ele>1713.21</ele>
        <time>2022-04-25T11:31:19Z</time>
      </trkpt>
      <trkpt lat="42.93753" lon="0.75464">
        <ele>1711.76</ele>
        <time>2022-04-25T11:31:31Z</time>
      </trkpt>
      <trkpt lat="42.93757" lon="0.75467">
        <ele>1710.8</ele>
        <time>2022-04-25T11:31:41Z</time>
      </trkpt>
      <trkpt lat="42.93759" lon="0.75466">
        <ele>1709.84</ele>
        <time>2022-04-25T11:31:52Z</time>
      </trkpt>
      <trkpt lat="42.93762" lon="0.75465">
        <ele>1708.4</ele>
        <time>2022-04-25T11:32:03Z</time>
      </trkpt>
      <trkpt lat="42.93766" lon="0.75465">
        <ele>1706.96</ele>
        <time>2022-04-25T11:32:15Z</time>
      </trkpt>
      <trkpt lat="42.93772" lon="0.75465">
        <ele>1706.48</ele>
        <time>2022-04-25T11:32:26Z</time>
      </trkpt>
      <trkpt lat="42.9378" lon="0.75468">
        <ele>1706</ele>
        <time>2022-04-25T11:32:37Z</time>
      </trkpt>
      <trkpt lat="42.93781" lon="0.75468">
        <ele>1705.52</ele>
        <time>2022-04-25T11:32:46Z</time>
      </trkpt>
      <trkpt lat="42.93781" lon="0.75468">
        <ele>1705.52</ele>
        <time>2022-04-25T11:33:03Z</time>
      </trkpt>
      <trkpt lat="42.93784" lon="0.7547">
        <ele>1705.52</ele>
        <time>2022-04-25T11:33:15Z</time>
      </trkpt>
      <trkpt lat="42.93781" lon="0.7547">
        <ele>1705.04</ele>
        <time>2022-04-25T11:33:30Z</time>
      </trkpt>
      <trkpt lat="42.93778" lon="0.75476">
        <ele>1705.04</ele>
        <time>2022-04-25T11:33:41Z</time>
      </trkpt>
      <trkpt lat="42.93776" lon="0.75479">
        <ele>1704.07</ele>
        <time>2022-04-25T11:33:54Z</time>
      </trkpt>
      <trkpt lat="42.93775" lon="0.75484">
        <ele>1702.63</ele>
        <time>2022-04-25T11:34:09Z</time>
      </trkpt>
      <trkpt lat="42.93776" lon="0.75486">
        <ele>1701.67</ele>
        <time>2022-04-25T11:34:17Z</time>
      </trkpt>
      <trkpt lat="42.93774" lon="0.75489">
        <ele>1700.71</ele>
        <time>2022-04-25T11:34:28Z</time>
      </trkpt>
      <trkpt lat="42.93775" lon="0.75492">
        <ele>1699.75</ele>
        <time>2022-04-25T11:34:35Z</time>
      </trkpt>
      <trkpt lat="42.93776" lon="0.75493">
        <ele>1698.79</ele>
        <time>2022-04-25T11:34:46Z</time>
      </trkpt>
      <trkpt lat="42.93777" lon="0.75501">
        <ele>1697.34</ele>
        <time>2022-04-25T11:34:59Z</time>
      </trkpt>
      <trkpt lat="42.9378" lon="0.755">
        <ele>1696.38</ele>
        <time>2022-04-25T11:35:11Z</time>
      </trkpt>
      <trkpt lat="42.93774" lon="0.75503">
        <ele>1694.46</ele>
        <time>2022-04-25T11:35:23Z</time>
      </trkpt>
      <trkpt lat="42.93773" lon="0.75508">
        <ele>1692.54</ele>
        <time>2022-04-25T11:35:34Z</time>
      </trkpt>
      <trkpt lat="42.93782" lon="0.75513">
        <ele>1690.14</ele>
        <time>2022-04-25T11:35:49Z</time>
      </trkpt>
      <trkpt lat="42.93782" lon="0.75515">
        <ele>1689.17</ele>
        <time>2022-04-25T11:35:59Z</time>
      </trkpt>
      <trkpt lat="42.93778" lon="0.75517">
        <ele>1687.25</ele>
        <time>2022-04-25T11:36:09Z</time>
      </trkpt>
      <trkpt lat="42.93773" lon="0.75517">
        <ele>1685.81</ele>
        <time>2022-04-25T11:36:21Z</time>
      </trkpt>
      <trkpt lat="42.93771" lon="0.75525">
        <ele>1683.89</ele>
        <time>2022-04-25T11:36:33Z</time>
      </trkpt>
      <trkpt lat="42.93773" lon="0.75527">
        <ele>1682.44</ele>
        <time>2022-04-25T11:36:43Z</time>
      </trkpt>
      <trkpt lat="42.93772" lon="0.7553">
        <ele>1681.96</ele>
        <time>2022-04-25T11:36:55Z</time>
      </trkpt>
      <trkpt lat="42.93774" lon="0.75529">
        <ele>1680.52</ele>
        <time>2022-04-25T11:37:12Z</time>
      </trkpt>
      <trkpt lat="42.93773" lon="0.75527">
        <ele>1680.04</ele>
        <time>2022-04-25T11:37:34Z</time>
      </trkpt>
      <trkpt lat="42.93773" lon="0.75526">
        <ele>1680.04</ele>
        <time>2022-04-25T11:37:56Z</time>
      </trkpt>
      <trkpt lat="42.93775" lon="0.75527">
        <ele>1680.04</ele>
        <time>2022-04-25T11:38:19Z</time>
      </trkpt>
      <trkpt lat="42.93776" lon="0.75527">
        <ele>1680.04</ele>
        <time>2022-04-25T11:38:37Z</time>
      </trkpt>
      <trkpt lat="42.93777" lon="0.75524">
        <ele>1679.56</ele>
        <time>2022-04-25T11:39:05Z</time>
      </trkpt>
      <trkpt lat="42.93775" lon="0.75523">
        <ele>1679.56</ele>
        <time>2022-04-25T11:39:32Z</time>
      </trkpt>
      <trkpt lat="42.93774" lon="0.75527">
        <ele>1679.08</ele>
        <time>2022-04-25T11:39:47Z</time>
      </trkpt>
      <trkpt lat="42.93775" lon="0.75526">
        <ele>1679.08</ele>
        <time>2022-04-25T11:40:11Z</time>
      </trkpt>
      <trkpt lat="42.93775" lon="0.75524">
        <ele>1678.6</ele>
        <time>2022-04-25T11:40:44Z</time>
      </trkpt>
      <trkpt lat="42.93771" lon="0.75528">
        <ele>1678.6</ele>
        <time>2022-04-25T11:41:15Z</time>
      </trkpt>
      <trkpt lat="42.9377" lon="0.75526">
        <ele>1678.6</ele>
        <time>2022-04-25T11:41:41Z</time>
      </trkpt>
      <trkpt lat="42.93775" lon="0.75531">
        <ele>1678.6</ele>
        <time>2022-04-25T11:42:04Z</time>
      </trkpt>
      <trkpt lat="42.93777" lon="0.75527">
        <ele>1678.6</ele>
        <time>2022-04-25T11:42:30Z</time>
      </trkpt>
      <trkpt lat="42.93776" lon="0.75529">
        <ele>1678.12</ele>
        <time>2022-04-25T11:42:59Z</time>
      </trkpt>
      <trkpt lat="42.93775" lon="0.7553">
        <ele>1678.12</ele>
        <time>2022-04-25T11:43:27Z</time>
      </trkpt>
      <trkpt lat="42.93779" lon="0.75531">
        <ele>1678.12</ele>
        <time>2022-04-25T11:43:59Z</time>
      </trkpt>
      <trkpt lat="42.93776" lon="0.75531">
        <ele>1677.64</ele>
        <time>2022-04-25T11:44:34Z</time>
      </trkpt>
      <trkpt lat="42.93777" lon="0.75528">
        <ele>1677.16</ele>
        <time>2022-04-25T11:45:03Z</time>
      </trkpt>
      <trkpt lat="42.93779" lon="0.75524">
        <ele>1677.16</ele>
        <time>2022-04-25T11:45:29Z</time>
      </trkpt>
      <trkpt lat="42.93781" lon="0.75525">
        <ele>1676.68</ele>
        <time>2022-04-25T11:45:57Z</time>
      </trkpt>
      <trkpt lat="42.93784" lon="0.75527">
        <ele>1677.64</ele>
        <time>2022-04-25T11:46:24Z</time>
      </trkpt>
      <trkpt lat="42.93776" lon="0.75528">
        <ele>1677.64</ele>
        <time>2022-04-25T11:46:50Z</time>
      </trkpt>
      <trkpt lat="42.93773" lon="0.7553">
        <ele>1677.64</ele>
        <time>2022-04-25T11:47:17Z</time>
      </trkpt>
      <trkpt lat="42.93774" lon="0.75531">
        <ele>1677.64</ele>
        <time>2022-04-25T11:47:49Z</time>
      </trkpt>
      <trkpt lat="42.93778" lon="0.75529">
        <ele>1677.16</ele>
        <time>2022-04-25T11:48:19Z</time>
      </trkpt>
      <trkpt lat="42.93778" lon="0.75531">
        <ele>1677.16</ele>
        <time>2022-04-25T11:48:51Z</time>
      </trkpt>
      <trkpt lat="42.9378" lon="0.7553">
        <ele>1677.16</ele>
        <time>2022-04-25T11:49:24Z</time>
      </trkpt>
      <trkpt lat="42.93781" lon="0.7553">
        <ele>1677.16</ele>
        <time>2022-04-25T11:49:55Z</time>
      </trkpt>
      <trkpt lat="42.93782" lon="0.75533">
        <ele>1677.16</ele>
        <time>2022-04-25T11:50:28Z</time>
      </trkpt>
      <trkpt lat="42.93782" lon="0.75531">
        <ele>1677.16</ele>
        <time>2022-04-25T11:51:01Z</time>
      </trkpt>
      <trkpt lat="42.93778" lon="0.75531">
        <ele>1677.64</ele>
        <time>2022-04-25T11:51:31Z</time>
      </trkpt>
      <trkpt lat="42.93776" lon="0.75531">
        <ele>1678.12</ele>
        <time>2022-04-25T11:52:05Z</time>
      </trkpt>
      <trkpt lat="42.93777" lon="0.75532">
        <ele>1678.12</ele>
        <time>2022-04-25T11:52:33Z</time>
      </trkpt>
      <trkpt lat="42.93779" lon="0.75534">
        <ele>1678.12</ele>
        <time>2022-04-25T11:53:02Z</time>
      </trkpt>
      <trkpt lat="42.93777" lon="0.7553">
        <ele>1678.12</ele>
        <time>2022-04-25T11:53:33Z</time>
      </trkpt>
      <trkpt lat="42.93776" lon="0.7553">
        <ele>1678.12</ele>
        <time>2022-04-25T11:54:02Z</time>
      </trkpt>
      <trkpt lat="42.93776" lon="0.75532">
        <ele>1678.12</ele>
        <time>2022-04-25T11:54:37Z</time>
      </trkpt>
      <trkpt lat="42.93781" lon="0.75529">
        <ele>1678.12</ele>
        <time>2022-04-25T11:55:11Z</time>
      </trkpt>
      <trkpt lat="42.9378" lon="0.75527">
        <ele>1678.12</ele>
        <time>2022-04-25T11:55:49Z</time>
      </trkpt>
      <trkpt lat="42.9378" lon="0.75528">
        <ele>1678.12</ele>
        <time>2022-04-25T11:56:24Z</time>
      </trkpt>
      <trkpt lat="42.93775" lon="0.75529">
        <ele>1678.12</ele>
        <time>2022-04-25T11:56:53Z</time>
      </trkpt>
      <trkpt lat="42.93773" lon="0.75532">
        <ele>1678.12</ele>
        <time>2022-04-25T11:57:16Z</time>
      </trkpt>
      <trkpt lat="42.93771" lon="0.7553">
        <ele>1678.12</ele>
        <time>2022-04-25T11:57:47Z</time>
      </trkpt>
      <trkpt lat="42.93771" lon="0.75526">
        <ele>1677.64</ele>
        <time>2022-04-25T11:58:18Z</time>
      </trkpt>
      <trkpt lat="42.9377" lon="0.75529">
        <ele>1677.64</ele>
        <time>2022-04-25T11:58:50Z</time>
      </trkpt>
      <trkpt lat="42.93771" lon="0.75527">
        <ele>1677.64</ele>
        <time>2022-04-25T11:59:15Z</time>
      </trkpt>
      <trkpt lat="42.93772" lon="0.75521">
        <ele>1677.64</ele>
        <time>2022-04-25T11:59:46Z</time>
      </trkpt>
      <trkpt lat="42.93773" lon="0.75515">
        <ele>1677.64</ele>
        <time>2022-04-25T12:00:12Z</time>
      </trkpt>
      <trkpt lat="42.93772" lon="0.75526">
        <ele>1677.16</ele>
        <time>2022-04-25T12:00:39Z</time>
      </trkpt>
      <trkpt lat="42.93771" lon="0.75527">
        <ele>1677.16</ele>
        <time>2022-04-25T12:01:08Z</time>
      </trkpt>
      <trkpt lat="42.93772" lon="0.7553">
        <ele>1677.16</ele>
        <time>2022-04-25T12:01:39Z</time>
      </trkpt>
      <trkpt lat="42.93773" lon="0.7553">
        <ele>1677.16</ele>
        <time>2022-04-25T12:01:59Z</time>
      </trkpt>
      <trkpt lat="42.93773" lon="0.75531">
        <ele>1677.16</ele>
        <time>2022-04-25T12:02:23Z</time>
      </trkpt>
      <trkpt lat="42.93775" lon="0.75533">
        <ele>1677.16</ele>
        <time>2022-04-25T12:02:50Z</time>
      </trkpt>
      <trkpt lat="42.93776" lon="0.7553">
        <ele>1677.16</ele>
        <time>2022-04-25T12:03:15Z</time>
      </trkpt>
      <trkpt lat="42.93777" lon="0.7553">
        <ele>1677.16</ele>
        <time>2022-04-25T12:03:48Z</time>
      </trkpt>
      <trkpt lat="42.93778" lon="0.75529">
        <ele>1677.16</ele>
        <time>2022-04-25T12:04:25Z</time>
      </trkpt>
      <trkpt lat="42.93776" lon="0.75529">
        <ele>1677.16</ele>
        <time>2022-04-25T12:04:58Z</time>
      </trkpt>
      <trkpt lat="42.93775" lon="0.75528">
        <ele>1677.16</ele>
        <time>2022-04-25T12:05:26Z</time>
      </trkpt>
      <trkpt lat="42.93771" lon="0.75531">
        <ele>1677.16</ele>
        <time>2022-04-25T12:05:50Z</time>
      </trkpt>
      <trkpt lat="42.93772" lon="0.7553">
        <ele>1677.16</ele>
        <time>2022-04-25T12:06:16Z</time>
      </trkpt>
      <trkpt lat="42.93772" lon="0.75527">
        <ele>1677.16</ele>
        <time>2022-04-25T12:06:42Z</time>
      </trkpt>
      <trkpt lat="42.93771" lon="0.75529">
        <ele>1677.16</ele>
        <time>2022-04-25T12:07:10Z</time>
      </trkpt>
      <trkpt lat="42.93773" lon="0.75527">
        <ele>1677.16</ele>
        <time>2022-04-25T12:07:36Z</time>
      </trkpt>
      <trkpt lat="42.93772" lon="0.75529">
        <ele>1677.16</ele>
        <time>2022-04-25T12:08:00Z</time>
      </trkpt>
      <trkpt lat="42.93771" lon="0.75529">
        <ele>1677.16</ele>
        <time>2022-04-25T12:08:25Z</time>
      </trkpt>
      <trkpt lat="42.93772" lon="0.75527">
        <ele>1677.16</ele>
        <time>2022-04-25T12:08:48Z</time>
      </trkpt>
      <trkpt lat="42.93772" lon="0.75528">
        <ele>1677.64</ele>
        <time>2022-04-25T12:08:58Z</time>
      </trkpt>
      <trkpt lat="42.93772" lon="0.75528">
        <ele>1677.64</ele>
        <time>2022-04-25T12:09:12Z</time>
      </trkpt>
      <trkpt lat="42.93771" lon="0.75529">
        <ele>1677.64</ele>
        <time>2022-04-25T12:09:31Z</time>
      </trkpt>
      <trkpt lat="42.93771" lon="0.7553">
        <ele>1677.64</ele>
        <time>2022-04-25T12:09:55Z</time>
      </trkpt>
      <trkpt lat="42.93774" lon="0.75533">
        <ele>1676.2</ele>
        <time>2022-04-25T12:10:04Z</time>
      </trkpt>
      <trkpt lat="42.93779" lon="0.75535">
        <ele>1675.23</ele>
        <time>2022-04-25T12:10:14Z</time>
      </trkpt>
      <trkpt lat="42.93781" lon="0.75537">
        <ele>1675.23</ele>
        <time>2022-04-25T12:10:22Z</time>
      </trkpt>
      <trkpt lat="42.93781" lon="0.75546">
        <ele>1674.27</ele>
        <time>2022-04-25T12:10:33Z</time>
      </trkpt>
      <trkpt lat="42.93781" lon="0.75557">
        <ele>1670.91</ele>
        <time>2022-04-25T12:10:43Z</time>
      </trkpt>
      <trkpt lat="42.93781" lon="0.75564">
        <ele>1668.02</ele>
        <time>2022-04-25T12:10:54Z</time>
      </trkpt>
      <trkpt lat="42.9378" lon="0.75573">
        <ele>1664.66</ele>
        <time>2022-04-25T12:11:08Z</time>
      </trkpt>
      <trkpt lat="42.9378" lon="0.75581">
        <ele>1662.74</ele>
        <time>2022-04-25T12:11:20Z</time>
      </trkpt>
      <trkpt lat="42.93779" lon="0.75592">
        <ele>1659.37</ele>
        <time>2022-04-25T12:11:32Z</time>
      </trkpt>
      <trkpt lat="42.93779" lon="0.75602">
        <ele>1656.49</ele>
        <time>2022-04-25T12:11:44Z</time>
      </trkpt>
      <trkpt lat="42.9378" lon="0.75606">
        <ele>1655.53</ele>
        <time>2022-04-25T12:11:47Z</time>
      </trkpt>
      <trkpt lat="42.93781" lon="0.75615">
        <ele>1654.57</ele>
        <time>2022-04-25T12:11:58Z</time>
      </trkpt>
      <trkpt lat="42.93779" lon="0.75621">
        <ele>1652.64</ele>
        <time>2022-04-25T12:12:10Z</time>
      </trkpt>
      <trkpt lat="42.93779" lon="0.75628">
        <ele>1651.68</ele>
        <time>2022-04-25T12:12:20Z</time>
      </trkpt>
      <trkpt lat="42.93778" lon="0.75639">
        <ele>1650.72</ele>
        <time>2022-04-25T12:12:32Z</time>
      </trkpt>
      <trkpt lat="42.93776" lon="0.75642">
        <ele>1650.72</ele>
        <time>2022-04-25T12:12:42Z</time>
      </trkpt>
      <trkpt lat="42.93775" lon="0.7565">
        <ele>1649.28</ele>
        <time>2022-04-25T12:12:54Z</time>
      </trkpt>
      <trkpt lat="42.93775" lon="0.75653">
        <ele>1648.32</ele>
        <time>2022-04-25T12:13:04Z</time>
      </trkpt>
      <trkpt lat="42.93773" lon="0.75661">
        <ele>1648.32</ele>
        <time>2022-04-25T12:13:15Z</time>
      </trkpt>
      <trkpt lat="42.93771" lon="0.75668">
        <ele>1647.36</ele>
        <time>2022-04-25T12:13:24Z</time>
      </trkpt>
      <trkpt lat="42.93771" lon="0.75675">
        <ele>1646.4</ele>
        <time>2022-04-25T12:13:34Z</time>
      </trkpt>
      <trkpt lat="42.93772" lon="0.75676">
        <ele>1646.4</ele>
        <time>2022-04-25T12:13:46Z</time>
      </trkpt>
      <trkpt lat="42.93776" lon="0.75681">
        <ele>1646.4</ele>
        <time>2022-04-25T12:13:58Z</time>
      </trkpt>
      <trkpt lat="42.93781" lon="0.75688">
        <ele>1645.91</ele>
        <time>2022-04-25T12:14:10Z</time>
      </trkpt>
      <trkpt lat="42.93784" lon="0.75688">
        <ele>1645.91</ele>
        <time>2022-04-25T12:14:19Z</time>
      </trkpt>
      <trkpt lat="42.93786" lon="0.7569">
        <ele>1645.91</ele>
        <time>2022-04-25T12:14:31Z</time>
      </trkpt>
      <trkpt lat="42.93788" lon="0.75694">
        <ele>1644.47</ele>
        <time>2022-04-25T12:14:41Z</time>
      </trkpt>
      <trkpt lat="42.93788" lon="0.75691">
        <ele>1643.99</ele>
        <time>2022-04-25T12:14:57Z</time>
      </trkpt>
      <trkpt lat="42.93791" lon="0.75695">
        <ele>1643.03</ele>
        <time>2022-04-25T12:15:06Z</time>
      </trkpt>
      <trkpt lat="42.93792" lon="0.75698">
        <ele>1641.59</ele>
        <time>2022-04-25T12:15:17Z</time>
      </trkpt>
      <trkpt lat="42.93791" lon="0.75705">
        <ele>1640.63</ele>
        <time>2022-04-25T12:15:29Z</time>
      </trkpt>
      <trkpt lat="42.93791" lon="0.75707">
        <ele>1640.15</ele>
        <time>2022-04-25T12:15:37Z</time>
      </trkpt>
      <trkpt lat="42.93791" lon="0.7571">
        <ele>1639.19</ele>
        <time>2022-04-25T12:15:46Z</time>
      </trkpt>
      <trkpt lat="42.93791" lon="0.75711">
        <ele>1638.22</ele>
        <time>2022-04-25T12:15:55Z</time>
      </trkpt>
      <trkpt lat="42.93791" lon="0.75711">
        <ele>1637.74</ele>
        <time>2022-04-25T12:16:08Z</time>
      </trkpt>
      <trkpt lat="42.9379" lon="0.75708">
        <ele>1637.26</ele>
        <time>2022-04-25T12:16:27Z</time>
      </trkpt>
      <trkpt lat="42.9379" lon="0.75708">
        <ele>1637.26</ele>
        <time>2022-04-25T12:16:28Z</time>
      </trkpt>
      <trkpt lat="42.93788" lon="0.75709">
        <ele>1638.7</ele>
        <time>2022-04-25T12:16:30Z</time>
      </trkpt>
      <trkpt lat="42.93788" lon="0.75709">
        <ele>1636.78</ele>
        <time>2022-04-25T12:16:42Z</time>
      </trkpt>
      <trkpt lat="42.9379" lon="0.75711">
        <ele>1636.78</ele>
        <time>2022-04-25T12:16:49Z</time>
      </trkpt>
      <trkpt lat="42.93793" lon="0.75715">
        <ele>1639.19</ele>
        <time>2022-04-25T12:16:55Z</time>
      </trkpt>
      <trkpt lat="42.93794" lon="0.75715">
        <ele>1639.19</ele>
        <time>2022-04-25T12:17:06Z</time>
      </trkpt>
      <trkpt lat="42.93793" lon="0.75712">
        <ele>1639.19</ele>
        <time>2022-04-25T12:17:15Z</time>
      </trkpt>
      <trkpt lat="42.93793" lon="0.7571">
        <ele>1639.19</ele>
        <time>2022-04-25T12:17:18Z</time>
      </trkpt>
      <trkpt lat="42.93789" lon="0.757">
        <ele>1639.67</ele>
        <time>2022-04-25T12:17:28Z</time>
      </trkpt>
      <trkpt lat="42.93781" lon="0.75695">
        <ele>1640.63</ele>
        <time>2022-04-25T12:17:40Z</time>
      </trkpt>
      <trkpt lat="42.93776" lon="0.75691">
        <ele>1640.63</ele>
        <time>2022-04-25T12:17:50Z</time>
      </trkpt>
      <trkpt lat="42.9377" lon="0.75692">
        <ele>1639.19</ele>
        <time>2022-04-25T12:18:02Z</time>
      </trkpt>
      <trkpt lat="42.9377" lon="0.75692">
        <ele>1639.19</ele>
        <time>2022-04-25T12:18:03Z</time>
      </trkpt>
      <trkpt lat="42.93761" lon="0.75686">
        <ele>1638.7</ele>
        <time>2022-04-25T12:18:15Z</time>
      </trkpt>
      <trkpt lat="42.93755" lon="0.75678">
        <ele>1638.22</ele>
        <time>2022-04-25T12:18:27Z</time>
      </trkpt>
      <trkpt lat="42.93752" lon="0.75674">
        <ele>1636.78</ele>
        <time>2022-04-25T12:18:37Z</time>
      </trkpt>
      <trkpt lat="42.93753" lon="0.75667">
        <ele>1635.82</ele>
        <time>2022-04-25T12:18:47Z</time>
      </trkpt>
      <trkpt lat="42.93751" lon="0.75665">
        <ele>1635.34</ele>
        <time>2022-04-25T12:18:59Z</time>
      </trkpt>
      <trkpt lat="42.93747" lon="0.75666">
        <ele>1632.46</ele>
        <time>2022-04-25T12:19:13Z</time>
      </trkpt>
      <trkpt lat="42.93747" lon="0.75662">
        <ele>1631.49</ele>
        <time>2022-04-25T12:19:18Z</time>
      </trkpt>
      <trkpt lat="42.93748" lon="0.7566">
        <ele>1631.49</ele>
        <time>2022-04-25T12:19:26Z</time>
      </trkpt>
      <trkpt lat="42.93747" lon="0.75654">
        <ele>1629.57</ele>
        <time>2022-04-25T12:19:36Z</time>
      </trkpt>
      <trkpt lat="42.93745" lon="0.75652">
        <ele>1629.57</ele>
        <time>2022-04-25T12:19:49Z</time>
      </trkpt>
      <trkpt lat="42.93743" lon="0.75651">
        <ele>1628.61</ele>
        <time>2022-04-25T12:19:58Z</time>
      </trkpt>
      <trkpt lat="42.93742" lon="0.75652">
        <ele>1628.61</ele>
        <time>2022-04-25T12:20:10Z</time>
      </trkpt>
      <trkpt lat="42.9374" lon="0.7565">
        <ele>1628.61</ele>
        <time>2022-04-25T12:20:31Z</time>
      </trkpt>
      <trkpt lat="42.93737" lon="0.75641">
        <ele>1628.13</ele>
        <time>2022-04-25T12:20:59Z</time>
      </trkpt>
      <trkpt lat="42.9374" lon="0.75643">
        <ele>1628.13</ele>
        <time>2022-04-25T12:21:24Z</time>
      </trkpt>
      <trkpt lat="42.93741" lon="0.75646">
        <ele>1628.13</ele>
        <time>2022-04-25T12:21:47Z</time>
      </trkpt>
      <trkpt lat="42.93736" lon="0.75648">
        <ele>1627.17</ele>
        <time>2022-04-25T12:22:00Z</time>
      </trkpt>
      <trkpt lat="42.93731" lon="0.75662">
        <ele>1624.28</ele>
        <time>2022-04-25T12:22:15Z</time>
      </trkpt>
      <trkpt lat="42.93726" lon="0.75667">
        <ele>1622.36</ele>
        <time>2022-04-25T12:22:26Z</time>
      </trkpt>
      <trkpt lat="42.93724" lon="0.75672">
        <ele>1620.44</ele>
        <time>2022-04-25T12:22:33Z</time>
      </trkpt>
      <trkpt lat="42.93718" lon="0.7568">
        <ele>1618.52</ele>
        <time>2022-04-25T12:22:44Z</time>
      </trkpt>
      <trkpt lat="42.93716" lon="0.75683">
        <ele>1617.56</ele>
        <time>2022-04-25T12:22:47Z</time>
      </trkpt>
      <trkpt lat="42.93711" lon="0.75696">
        <ele>1615.15</ele>
        <time>2022-04-25T12:23:01Z</time>
      </trkpt>
      <trkpt lat="42.9371" lon="0.75701">
        <ele>1613.71</ele>
        <time>2022-04-25T12:23:09Z</time>
      </trkpt>
      <trkpt lat="42.93705" lon="0.75706">
        <ele>1611.31</ele>
        <time>2022-04-25T12:23:20Z</time>
      </trkpt>
      <trkpt lat="42.93708" lon="0.75716">
        <ele>1608.42</ele>
        <time>2022-04-25T12:23:33Z</time>
      </trkpt>
      <trkpt lat="42.93706" lon="0.75722">
        <ele>1606.98</ele>
        <time>2022-04-25T12:23:45Z</time>
      </trkpt>
      <trkpt lat="42.93709" lon="0.75729">
        <ele>1604.1</ele>
        <time>2022-04-25T12:23:56Z</time>
      </trkpt>
      <trkpt lat="42.93708" lon="0.75734">
        <ele>1602.17</ele>
        <time>2022-04-25T12:24:07Z</time>
      </trkpt>
      <trkpt lat="42.93709" lon="0.75741">
        <ele>1600.25</ele>
        <time>2022-04-25T12:24:17Z</time>
      </trkpt>
      <trkpt lat="42.93706" lon="0.75742">
        <ele>1598.81</ele>
        <time>2022-04-25T12:24:29Z</time>
      </trkpt>
      <trkpt lat="42.93704" lon="0.75747">
        <ele>1597.85</ele>
        <time>2022-04-25T12:24:39Z</time>
      </trkpt>
      <trkpt lat="42.93702" lon="0.75751">
        <ele>1596.41</ele>
        <time>2022-04-25T12:24:50Z</time>
      </trkpt>
      <trkpt lat="42.93702" lon="0.75757">
        <ele>1594.96</ele>
        <time>2022-04-25T12:25:01Z</time>
      </trkpt>
      <trkpt lat="42.93703" lon="0.75763">
        <ele>1594</ele>
        <time>2022-04-25T12:25:12Z</time>
      </trkpt>
      <trkpt lat="42.93697" lon="0.75767">
        <ele>1593.04</ele>
        <time>2022-04-25T12:25:23Z</time>
      </trkpt>
      <trkpt lat="42.93689" lon="0.75769">
        <ele>1591.6</ele>
        <time>2022-04-25T12:25:35Z</time>
      </trkpt>
      <trkpt lat="42.93684" lon="0.75773">
        <ele>1589.2</ele>
        <time>2022-04-25T12:25:46Z</time>
      </trkpt>
      <trkpt lat="42.93682" lon="0.7578">
        <ele>1587.27</ele>
        <time>2022-04-25T12:25:57Z</time>
      </trkpt>
      <trkpt lat="42.93682" lon="0.75784">
        <ele>1586.79</ele>
        <time>2022-04-25T12:26:13Z</time>
      </trkpt>
      <trkpt lat="42.93683" lon="0.75789">
        <ele>1585.35</ele>
        <time>2022-04-25T12:26:27Z</time>
      </trkpt>
      <trkpt lat="42.93681" lon="0.75795">
        <ele>1582.95</ele>
        <time>2022-04-25T12:26:37Z</time>
      </trkpt>
      <trkpt lat="42.9368" lon="0.75802">
        <ele>1581.51</ele>
        <time>2022-04-25T12:26:48Z</time>
      </trkpt>
      <trkpt lat="42.9368" lon="0.75813">
        <ele>1579.58</ele>
        <time>2022-04-25T12:26:59Z</time>
      </trkpt>
      <trkpt lat="42.93679" lon="0.75821">
        <ele>1577.18</ele>
        <time>2022-04-25T12:27:10Z</time>
      </trkpt>
      <trkpt lat="42.93678" lon="0.75824">
        <ele>1575.74</ele>
        <time>2022-04-25T12:27:21Z</time>
      </trkpt>
      <trkpt lat="42.93683" lon="0.75831">
        <ele>1573.82</ele>
        <time>2022-04-25T12:27:32Z</time>
      </trkpt>
      <trkpt lat="42.93688" lon="0.75838">
        <ele>1572.37</ele>
        <time>2022-04-25T12:27:45Z</time>
      </trkpt>
      <trkpt lat="42.93686" lon="0.75836">
        <ele>1570.93</ele>
        <time>2022-04-25T12:27:58Z</time>
      </trkpt>
      <trkpt lat="42.93688" lon="0.75841">
        <ele>1569.49</ele>
        <time>2022-04-25T12:28:09Z</time>
      </trkpt>
      <trkpt lat="42.93687" lon="0.75841">
        <ele>1569.01</ele>
        <time>2022-04-25T12:28:13Z</time>
      </trkpt>
      <trkpt lat="42.93683" lon="0.75845">
        <ele>1567.09</ele>
        <time>2022-04-25T12:28:23Z</time>
      </trkpt>
      <trkpt lat="42.93689" lon="0.7585">
        <ele>1565.16</ele>
        <time>2022-04-25T12:28:38Z</time>
      </trkpt>
      <trkpt lat="42.93692" lon="0.75852">
        <ele>1564.2</ele>
        <time>2022-04-25T12:28:49Z</time>
      </trkpt>
      <trkpt lat="42.93693" lon="0.75854">
        <ele>1562.76</ele>
        <time>2022-04-25T12:29:02Z</time>
      </trkpt>
      <trkpt lat="42.93695" lon="0.75859">
        <ele>1560.84</ele>
        <time>2022-04-25T12:29:11Z</time>
      </trkpt>
      <trkpt lat="42.93697" lon="0.75862">
        <ele>1559.4</ele>
        <time>2022-04-25T12:29:19Z</time>
      </trkpt>
      <trkpt lat="42.93699" lon="0.75864">
        <ele>1557.47</ele>
        <time>2022-04-25T12:29:29Z</time>
      </trkpt>
      <trkpt lat="42.93701" lon="0.75871">
        <ele>1554.59</ele>
        <time>2022-04-25T12:29:38Z</time>
      </trkpt>
      <trkpt lat="42.93702" lon="0.7588">
        <ele>1551.22</ele>
        <time>2022-04-25T12:29:49Z</time>
      </trkpt>
      <trkpt lat="42.93699" lon="0.75892">
        <ele>1547.86</ele>
        <time>2022-04-25T12:30:01Z</time>
      </trkpt>
      <trkpt lat="42.93696" lon="0.75904">
        <ele>1544.5</ele>
        <time>2022-04-25T12:30:12Z</time>
      </trkpt>
      <trkpt lat="42.93691" lon="0.75903">
        <ele>1541.13</ele>
        <time>2022-04-25T12:30:23Z</time>
      </trkpt>
      <trkpt lat="42.93684" lon="0.75904">
        <ele>1538.25</ele>
        <time>2022-04-25T12:30:36Z</time>
      </trkpt>
      <trkpt lat="42.9368" lon="0.75912">
        <ele>1535.36</ele>
        <time>2022-04-25T12:30:48Z</time>
      </trkpt>
      <trkpt lat="42.93678" lon="0.75919">
        <ele>1532.96</ele>
        <time>2022-04-25T12:30:58Z</time>
      </trkpt>
      <trkpt lat="42.93677" lon="0.75927">
        <ele>1531.04</ele>
        <time>2022-04-25T12:31:08Z</time>
      </trkpt>
      <trkpt lat="42.93674" lon="0.75935">
        <ele>1528.15</ele>
        <time>2022-04-25T12:31:18Z</time>
      </trkpt>
      <trkpt lat="42.9367" lon="0.75937">
        <ele>1525.75</ele>
        <time>2022-04-25T12:31:29Z</time>
      </trkpt>
      <trkpt lat="42.93669" lon="0.75936">
        <ele>1524.79</ele>
        <time>2022-04-25T12:31:42Z</time>
      </trkpt>
      <trkpt lat="42.93668" lon="0.75934">
        <ele>1524.79</ele>
        <time>2022-04-25T12:32:04Z</time>
      </trkpt>
      <trkpt lat="42.93667" lon="0.75938">
        <ele>1524.79</ele>
        <time>2022-04-25T12:32:21Z</time>
      </trkpt>
      <trkpt lat="42.93667" lon="0.7594">
        <ele>1524.79</ele>
        <time>2022-04-25T12:32:38Z</time>
      </trkpt>
      <trkpt lat="42.93668" lon="0.7594">
        <ele>1523.83</ele>
        <time>2022-04-25T12:32:47Z</time>
      </trkpt>
      <trkpt lat="42.93669" lon="0.75939">
        <ele>1523.83</ele>
        <time>2022-04-25T12:33:05Z</time>
      </trkpt>
      <trkpt lat="42.93665" lon="0.75939">
        <ele>1523.83</ele>
        <time>2022-04-25T12:33:25Z</time>
      </trkpt>
      <trkpt lat="42.93666" lon="0.7594">
        <ele>1523.83</ele>
        <time>2022-04-25T12:33:38Z</time>
      </trkpt>
      <trkpt lat="42.93667" lon="0.75937">
        <ele>1523.83</ele>
        <time>2022-04-25T12:33:51Z</time>
      </trkpt>
      <trkpt lat="42.93667" lon="0.75933">
        <ele>1523.83</ele>
        <time>2022-04-25T12:34:09Z</time>
      </trkpt>
      <trkpt lat="42.93668" lon="0.75932">
        <ele>1523.83</ele>
        <time>2022-04-25T12:34:29Z</time>
      </trkpt>
      <trkpt lat="42.93668" lon="0.75932">
        <ele>1523.83</ele>
        <time>2022-04-25T12:34:32Z</time>
      </trkpt>
      <trkpt lat="42.93667" lon="0.75934">
        <ele>1525.75</ele>
        <time>2022-04-25T12:34:37Z</time>
      </trkpt>
      <trkpt lat="42.9367" lon="0.75941">
        <ele>1525.75</ele>
        <time>2022-04-25T12:34:47Z</time>
      </trkpt>
      <trkpt lat="42.9367" lon="0.75944">
        <ele>1524.31</ele>
        <time>2022-04-25T12:34:51Z</time>
      </trkpt>
      <trkpt lat="42.93662" lon="0.75953">
        <ele>1520.94</ele>
        <time>2022-04-25T12:35:06Z</time>
      </trkpt>
      <trkpt lat="42.93661" lon="0.75961">
        <ele>1518.06</ele>
        <time>2022-04-25T12:35:18Z</time>
      </trkpt>
      <trkpt lat="42.93659" lon="0.75975">
        <ele>1515.18</ele>
        <time>2022-04-25T12:35:32Z</time>
      </trkpt>
      <trkpt lat="42.93658" lon="0.75986">
        <ele>1512.77</ele>
        <time>2022-04-25T12:35:45Z</time>
      </trkpt>
      <trkpt lat="42.93653" lon="0.7599">
        <ele>1509.89</ele>
        <time>2022-04-25T12:35:57Z</time>
      </trkpt>
      <trkpt lat="42.93652" lon="0.76004">
        <ele>1507</ele>
        <time>2022-04-25T12:36:13Z</time>
      </trkpt>
      <trkpt lat="42.9365" lon="0.76011">
        <ele>1504.12</ele>
        <time>2022-04-25T12:36:24Z</time>
      </trkpt>
      <trkpt lat="42.93646" lon="0.76008">
        <ele>1502.2</ele>
        <time>2022-04-25T12:36:32Z</time>
      </trkpt>
      <trkpt lat="42.93637" lon="0.76004">
        <ele>1501.24</ele>
        <time>2022-04-25T12:36:42Z</time>
      </trkpt>
      <trkpt lat="42.9363" lon="0.76005">
        <ele>1499.79</ele>
        <time>2022-04-25T12:36:50Z</time>
      </trkpt>
      <trkpt lat="42.93618" lon="0.7601">
        <ele>1497.87</ele>
        <time>2022-04-25T12:37:04Z</time>
      </trkpt>
      <trkpt lat="42.93613" lon="0.76006">
        <ele>1496.43</ele>
        <time>2022-04-25T12:37:15Z</time>
      </trkpt>
      <trkpt lat="42.93609" lon="0.76006">
        <ele>1494.99</ele>
        <time>2022-04-25T12:37:26Z</time>
      </trkpt>
      <trkpt lat="42.93605" lon="0.76014">
        <ele>1493.06</ele>
        <time>2022-04-25T12:37:37Z</time>
      </trkpt>
      <trkpt lat="42.93599" lon="0.76022">
        <ele>1491.14</ele>
        <time>2022-04-25T12:37:48Z</time>
      </trkpt>
      <trkpt lat="42.93595" lon="0.76029">
        <ele>1488.74</ele>
        <time>2022-04-25T12:38:00Z</time>
      </trkpt>
      <trkpt lat="42.9359" lon="0.76034">
        <ele>1486.34</ele>
        <time>2022-04-25T12:38:10Z</time>
      </trkpt>
      <trkpt lat="42.93587" lon="0.76041">
        <ele>1484.41</ele>
        <time>2022-04-25T12:38:22Z</time>
      </trkpt>
      <trkpt lat="42.93583" lon="0.76046">
        <ele>1482.97</ele>
        <time>2022-04-25T12:38:32Z</time>
      </trkpt>
      <trkpt lat="42.9358" lon="0.76053">
        <ele>1481.53</ele>
        <time>2022-04-25T12:38:44Z</time>
      </trkpt>
      <trkpt lat="42.93577" lon="0.76059">
        <ele>1479.13</ele>
        <time>2022-04-25T12:38:56Z</time>
      </trkpt>
      <trkpt lat="42.9357" lon="0.76066">
        <ele>1477.2</ele>
        <time>2022-04-25T12:39:08Z</time>
      </trkpt>
      <trkpt lat="42.93564" lon="0.7607">
        <ele>1475.76</ele>
        <time>2022-04-25T12:39:20Z</time>
      </trkpt>
      <trkpt lat="42.93559" lon="0.76074">
        <ele>1473.84</ele>
        <time>2022-04-25T12:39:31Z</time>
      </trkpt>
      <trkpt lat="42.9355" lon="0.76081">
        <ele>1472.4</ele>
        <time>2022-04-25T12:39:45Z</time>
      </trkpt>
      <trkpt lat="42.93545" lon="0.76087">
        <ele>1470.95</ele>
        <time>2022-04-25T12:39:55Z</time>
      </trkpt>
      <trkpt lat="42.93538" lon="0.76098">
        <ele>1468.55</ele>
        <time>2022-04-25T12:40:07Z</time>
      </trkpt>
      <trkpt lat="42.93532" lon="0.76108">
        <ele>1467.59</ele>
        <time>2022-04-25T12:40:18Z</time>
      </trkpt>
      <trkpt lat="42.93524" lon="0.76117">
        <ele>1466.15</ele>
        <time>2022-04-25T12:40:30Z</time>
      </trkpt>
      <trkpt lat="42.93519" lon="0.76122">
        <ele>1466.15</ele>
        <time>2022-04-25T12:40:41Z</time>
      </trkpt>
      <trkpt lat="42.93512" lon="0.76128">
        <ele>1464.71</ele>
        <time>2022-04-25T12:40:51Z</time>
      </trkpt>
      <trkpt lat="42.93505" lon="0.76128">
        <ele>1463.74</ele>
        <time>2022-04-25T12:41:02Z</time>
      </trkpt>
      <trkpt lat="42.935" lon="0.76123">
        <ele>1462.78</ele>
        <time>2022-04-25T12:41:12Z</time>
      </trkpt>
      <trkpt lat="42.93493" lon="0.76122">
        <ele>1461.34</ele>
        <time>2022-04-25T12:41:22Z</time>
      </trkpt>
      <trkpt lat="42.93485" lon="0.7612">
        <ele>1458.46</ele>
        <time>2022-04-25T12:41:35Z</time>
      </trkpt>
      <trkpt lat="42.93481" lon="0.76113">
        <ele>1457.5</ele>
        <time>2022-04-25T12:41:46Z</time>
      </trkpt>
      <trkpt lat="42.93474" lon="0.76107">
        <ele>1456.53</ele>
        <time>2022-04-25T12:41:58Z</time>
      </trkpt>
      <trkpt lat="42.93468" lon="0.76102">
        <ele>1456.05</ele>
        <time>2022-04-25T12:42:09Z</time>
      </trkpt>
      <trkpt lat="42.93461" lon="0.76102">
        <ele>1456.05</ele>
        <time>2022-04-25T12:42:18Z</time>
      </trkpt>
      <trkpt lat="42.93457" lon="0.76106">
        <ele>1456.05</ele>
        <time>2022-04-25T12:42:29Z</time>
      </trkpt>
      <trkpt lat="42.93455" lon="0.76104">
        <ele>1455.57</ele>
        <time>2022-04-25T12:42:42Z</time>
      </trkpt>
      <trkpt lat="42.93454" lon="0.76105">
        <ele>1455.57</ele>
        <time>2022-04-25T12:42:57Z</time>
      </trkpt>
      <trkpt lat="42.93453" lon="0.76104">
        <ele>1455.57</ele>
        <time>2022-04-25T12:43:14Z</time>
      </trkpt>
      <trkpt lat="42.93452" lon="0.76107">
        <ele>1455.57</ele>
        <time>2022-04-25T12:43:29Z</time>
      </trkpt>
      <trkpt lat="42.93453" lon="0.76112">
        <ele>1455.57</ele>
        <time>2022-04-25T12:43:38Z</time>
      </trkpt>
      <trkpt lat="42.93455" lon="0.76112">
        <ele>1455.57</ele>
        <time>2022-04-25T12:43:58Z</time>
      </trkpt>
      <trkpt lat="42.93457" lon="0.76113">
        <ele>1455.09</ele>
        <time>2022-04-25T12:44:17Z</time>
      </trkpt>
      <trkpt lat="42.93453" lon="0.7611">
        <ele>1455.09</ele>
        <time>2022-04-25T12:44:41Z</time>
      </trkpt>
      <trkpt lat="42.93444" lon="0.76114">
        <ele>1456.53</ele>
        <time>2022-04-25T12:44:52Z</time>
      </trkpt>
      <trkpt lat="42.93443" lon="0.76125">
        <ele>1456.53</ele>
        <time>2022-04-25T12:45:04Z</time>
      </trkpt>
      <trkpt lat="42.93446" lon="0.76125">
        <ele>1456.53</ele>
        <time>2022-04-25T12:45:18Z</time>
      </trkpt>
      <trkpt lat="42.93448" lon="0.76129">
        <ele>1456.05</ele>
        <time>2022-04-25T12:45:40Z</time>
      </trkpt>
      <trkpt lat="42.93448" lon="0.76123">
        <ele>1455.57</ele>
        <time>2022-04-25T12:45:59Z</time>
      </trkpt>
      <trkpt lat="42.93446" lon="0.76117">
        <ele>1455.57</ele>
        <time>2022-04-25T12:46:14Z</time>
      </trkpt>
      <trkpt lat="42.93442" lon="0.76109">
        <ele>1455.09</ele>
        <time>2022-04-25T12:46:38Z</time>
      </trkpt>
      <trkpt lat="42.93437" lon="0.76115">
        <ele>1455.09</ele>
        <time>2022-04-25T12:46:54Z</time>
      </trkpt>
      <trkpt lat="42.93441" lon="0.76112">
        <ele>1455.09</ele>
        <time>2022-04-25T12:47:14Z</time>
      </trkpt>
      <trkpt lat="42.93443" lon="0.76112">
        <ele>1454.61</ele>
        <time>2022-04-25T12:47:39Z</time>
      </trkpt>
      <trkpt lat="42.93438" lon="0.76123">
        <ele>1454.13</ele>
        <time>2022-04-25T12:47:55Z</time>
      </trkpt>
      <trkpt lat="42.93443" lon="0.76128">
        <ele>1454.13</ele>
        <time>2022-04-25T12:48:05Z</time>
      </trkpt>
      <trkpt lat="42.93439" lon="0.7612">
        <ele>1454.13</ele>
        <time>2022-04-25T12:48:15Z</time>
      </trkpt>
      <trkpt lat="42.93437" lon="0.76119">
        <ele>1454.13</ele>
        <time>2022-04-25T12:48:30Z</time>
      </trkpt>
      <trkpt lat="42.93432" lon="0.76114">
        <ele>1454.13</ele>
        <time>2022-04-25T12:48:40Z</time>
      </trkpt>
      <trkpt lat="42.93427" lon="0.76108">
        <ele>1453.65</ele>
        <time>2022-04-25T12:48:50Z</time>
      </trkpt>
      <trkpt lat="42.9342" lon="0.76097">
        <ele>1453.17</ele>
        <time>2022-04-25T12:49:00Z</time>
      </trkpt>
      <trkpt lat="42.93413" lon="0.76085">
        <ele>1453.17</ele>
        <time>2022-04-25T12:49:12Z</time>
      </trkpt>
      <trkpt lat="42.93407" lon="0.7608">
        <ele>1454.61</ele>
        <time>2022-04-25T12:49:24Z</time>
      </trkpt>
      <trkpt lat="42.93404" lon="0.76085">
        <ele>1454.61</ele>
        <time>2022-04-25T12:49:32Z</time>
      </trkpt>
      <trkpt lat="42.93391" lon="0.76095">
        <ele>1455.09</ele>
        <time>2022-04-25T12:49:49Z</time>
      </trkpt>
      <trkpt lat="42.9339" lon="0.76093">
        <ele>1455.09</ele>
        <time>2022-04-25T12:49:51Z</time>
      </trkpt>
      <trkpt lat="42.93387" lon="0.76091">
        <ele>1453.65</ele>
        <time>2022-04-25T12:49:53Z</time>
      </trkpt>
      <trkpt lat="42.9337" lon="0.76082">
        <ele>1453.17</ele>
        <time>2022-04-25T12:50:08Z</time>
      </trkpt>
      <trkpt lat="42.93358" lon="0.76077">
        <ele>1452.21</ele>
        <time>2022-04-25T12:50:21Z</time>
      </trkpt>
      <trkpt lat="42.93348" lon="0.76077">
        <ele>1450.29</ele>
        <time>2022-04-25T12:50:34Z</time>
      </trkpt>
      <trkpt lat="42.93349" lon="0.76093">
        <ele>1448.36</ele>
        <time>2022-04-25T12:50:47Z</time>
      </trkpt>
      <trkpt lat="42.93356" lon="0.76105">
        <ele>1446.44</ele>
        <time>2022-04-25T12:51:00Z</time>
      </trkpt>
      <trkpt lat="42.93362" lon="0.76114">
        <ele>1444.52</ele>
        <time>2022-04-25T12:51:14Z</time>
      </trkpt>
      <trkpt lat="42.93359" lon="0.76119">
        <ele>1443.56</ele>
        <time>2022-04-25T12:51:26Z</time>
      </trkpt>
      <trkpt lat="42.93359" lon="0.76119">
        <ele>1443.56</ele>
        <time>2022-04-25T12:51:49Z</time>
      </trkpt>
      <trkpt lat="42.93357" lon="0.76119">
        <ele>1443.56</ele>
        <time>2022-04-25T12:52:07Z</time>
      </trkpt>
      <trkpt lat="42.93359" lon="0.7612">
        <ele>1443.56</ele>
        <time>2022-04-25T12:52:22Z</time>
      </trkpt>
      <trkpt lat="42.93359" lon="0.76122">
        <ele>1443.08</ele>
        <time>2022-04-25T12:52:24Z</time>
      </trkpt>
      <trkpt lat="42.93364" lon="0.76129">
        <ele>1441.63</ele>
        <time>2022-04-25T12:52:34Z</time>
      </trkpt>
      <trkpt lat="42.93365" lon="0.7613">
        <ele>1441.63</ele>
        <time>2022-04-25T12:52:35Z</time>
      </trkpt>
      <trkpt lat="42.93372" lon="0.7614">
        <ele>1438.75</ele>
        <time>2022-04-25T12:52:47Z</time>
      </trkpt>
      <trkpt lat="42.93368" lon="0.76152">
        <ele>1436.83</ele>
        <time>2022-04-25T12:52:57Z</time>
      </trkpt>
      <trkpt lat="42.93366" lon="0.76156">
        <ele>1435.39</ele>
        <time>2022-04-25T12:53:00Z</time>
      </trkpt>
      <trkpt lat="42.93361" lon="0.76163">
        <ele>1433.94</ele>
        <time>2022-04-25T12:53:09Z</time>
      </trkpt>
      <trkpt lat="42.93348" lon="0.76174">
        <ele>1432.5</ele>
        <time>2022-04-25T12:53:24Z</time>
      </trkpt>
      <trkpt lat="42.9334" lon="0.76181">
        <ele>1431.54</ele>
        <time>2022-04-25T12:53:33Z</time>
      </trkpt>
      <trkpt lat="42.93327" lon="0.76191">
        <ele>1431.06</ele>
        <time>2022-04-25T12:53:47Z</time>
      </trkpt>
      <trkpt lat="42.93316" lon="0.76192">
        <ele>1430.58</ele>
        <time>2022-04-25T12:53:58Z</time>
      </trkpt>
      <trkpt lat="42.93306" lon="0.76181">
        <ele>1429.62</ele>
        <time>2022-04-25T12:54:12Z</time>
      </trkpt>
      <trkpt lat="42.93294" lon="0.76178">
        <ele>1429.14</ele>
        <time>2022-04-25T12:54:23Z</time>
      </trkpt>
      <trkpt lat="42.93279" lon="0.76187">
        <ele>1428.18</ele>
        <time>2022-04-25T12:54:36Z</time>
      </trkpt>
      <trkpt lat="42.93268" lon="0.76192">
        <ele>1426.25</ele>
        <time>2022-04-25T12:54:47Z</time>
      </trkpt>
      <trkpt lat="42.93258" lon="0.76189">
        <ele>1425.29</ele>
        <time>2022-04-25T12:54:59Z</time>
      </trkpt>
      <trkpt lat="42.93247" lon="0.76186">
        <ele>1423.37</ele>
        <time>2022-04-25T12:55:11Z</time>
      </trkpt>
      <trkpt lat="42.93238" lon="0.76193">
        <ele>1422.41</ele>
        <time>2022-04-25T12:55:20Z</time>
      </trkpt>
      <trkpt lat="42.93234" lon="0.762">
        <ele>1421.45</ele>
        <time>2022-04-25T12:55:26Z</time>
      </trkpt>
      <trkpt lat="42.93224" lon="0.76213">
        <ele>1419.52</ele>
        <time>2022-04-25T12:55:38Z</time>
      </trkpt>
      <trkpt lat="42.93219" lon="0.76219">
        <ele>1418.56</ele>
        <time>2022-04-25T12:55:45Z</time>
      </trkpt>
      <trkpt lat="42.93214" lon="0.76232">
        <ele>1416.16</ele>
        <time>2022-04-25T12:55:58Z</time>
      </trkpt>
      <trkpt lat="42.93214" lon="0.76253">
        <ele>1414.24</ele>
        <time>2022-04-25T12:56:12Z</time>
      </trkpt>
      <trkpt lat="42.93219" lon="0.76267">
        <ele>1412.31</ele>
        <time>2022-04-25T12:56:26Z</time>
      </trkpt>
      <trkpt lat="42.93219" lon="0.76273">
        <ele>1411.83</ele>
        <time>2022-04-25T12:56:30Z</time>
      </trkpt>
      <trkpt lat="42.93218" lon="0.76289">
        <ele>1409.91</ele>
        <time>2022-04-25T12:56:42Z</time>
      </trkpt>
      <trkpt lat="42.93211" lon="0.76304">
        <ele>1408.47</ele>
        <time>2022-04-25T12:56:55Z</time>
      </trkpt>
      <trkpt lat="42.93207" lon="0.76322">
        <ele>1406.55</ele>
        <time>2022-04-25T12:57:08Z</time>
      </trkpt>
      <trkpt lat="42.93203" lon="0.76344">
        <ele>1404.14</ele>
        <time>2022-04-25T12:57:23Z</time>
      </trkpt>
      <trkpt lat="42.93193" lon="0.76352">
        <ele>1402.22</ele>
        <time>2022-04-25T12:57:36Z</time>
      </trkpt>
      <trkpt lat="42.93183" lon="0.76353">
        <ele>1400.78</ele>
        <time>2022-04-25T12:57:50Z</time>
      </trkpt>
      <trkpt lat="42.93175" lon="0.76348">
        <ele>1399.34</ele>
        <time>2022-04-25T12:58:00Z</time>
      </trkpt>
      <trkpt lat="42.93163" lon="0.76345">
        <ele>1397.89</ele>
        <time>2022-04-25T12:58:11Z</time>
      </trkpt>
      <trkpt lat="42.93158" lon="0.76348">
        <ele>1397.41</ele>
        <time>2022-04-25T12:58:17Z</time>
      </trkpt>
      <trkpt lat="42.93149" lon="0.76362">
        <ele>1395.97</ele>
        <time>2022-04-25T12:58:28Z</time>
      </trkpt>
      <trkpt lat="42.93145" lon="0.76376">
        <ele>1394.05</ele>
        <time>2022-04-25T12:58:39Z</time>
      </trkpt>
      <trkpt lat="42.9314" lon="0.76392">
        <ele>1392.61</ele>
        <time>2022-04-25T12:58:53Z</time>
      </trkpt>
      <trkpt lat="42.93133" lon="0.76406">
        <ele>1390.68</ele>
        <time>2022-04-25T12:59:05Z</time>
      </trkpt>
      <trkpt lat="42.93127" lon="0.76419">
        <ele>1388.76</ele>
        <time>2022-04-25T12:59:17Z</time>
      </trkpt>
      <trkpt lat="42.93122" lon="0.76434">
        <ele>1386.84</ele>
        <time>2022-04-25T12:59:30Z</time>
      </trkpt>
      <trkpt lat="42.93121" lon="0.76448">
        <ele>1385.88</ele>
        <time>2022-04-25T12:59:41Z</time>
      </trkpt>
      <trkpt lat="42.9312" lon="0.76464">
        <ele>1383.96</ele>
        <time>2022-04-25T12:59:53Z</time>
      </trkpt>
      <trkpt lat="42.93122" lon="0.76476">
        <ele>1382.51</ele>
        <time>2022-04-25T13:00:02Z</time>
      </trkpt>
      <trkpt lat="42.93123" lon="0.76492">
        <ele>1381.07</ele>
        <time>2022-04-25T13:00:14Z</time>
      </trkpt>
      <trkpt lat="42.93123" lon="0.76512">
        <ele>1379.15</ele>
        <time>2022-04-25T13:00:28Z</time>
      </trkpt>
      <trkpt lat="42.93121" lon="0.76532">
        <ele>1377.71</ele>
        <time>2022-04-25T13:00:43Z</time>
      </trkpt>
      <trkpt lat="42.93112" lon="0.76545">
        <ele>1375.78</ele>
        <time>2022-04-25T13:00:56Z</time>
      </trkpt>
      <trkpt lat="42.93101" lon="0.76549">
        <ele>1374.34</ele>
        <time>2022-04-25T13:01:09Z</time>
      </trkpt>
      <trkpt lat="42.93095" lon="0.76554">
        <ele>1372.9</ele>
        <time>2022-04-25T13:01:16Z</time>
      </trkpt>
      <trkpt lat="42.93088" lon="0.76569">
        <ele>1371.46</ele>
        <time>2022-04-25T13:01:29Z</time>
      </trkpt>
      <trkpt lat="42.93085" lon="0.76584">
        <ele>1370.5</ele>
        <time>2022-04-25T13:01:40Z</time>
      </trkpt>
      <trkpt lat="42.93081" lon="0.76597">
        <ele>1369.05</ele>
        <time>2022-04-25T13:01:51Z</time>
      </trkpt>
      <trkpt lat="42.93073" lon="0.76611">
        <ele>1367.13</ele>
        <time>2022-04-25T13:02:05Z</time>
      </trkpt>
      <trkpt lat="42.9307" lon="0.7662">
        <ele>1366.17</ele>
        <time>2022-04-25T13:02:16Z</time>
      </trkpt>
      <trkpt lat="42.93071" lon="0.76633">
        <ele>1364.25</ele>
        <time>2022-04-25T13:02:26Z</time>
      </trkpt>
      <trkpt lat="42.93077" lon="0.76654">
        <ele>1363.29</ele>
        <time>2022-04-25T13:02:41Z</time>
      </trkpt>
      <trkpt lat="42.93079" lon="0.76663">
        <ele>1362.81</ele>
        <time>2022-04-25T13:02:48Z</time>
      </trkpt>
      <trkpt lat="42.93084" lon="0.76676">
        <ele>1360.88</ele>
        <time>2022-04-25T13:03:00Z</time>
      </trkpt>
      <trkpt lat="42.93087" lon="0.76691">
        <ele>1358.48</ele>
        <time>2022-04-25T13:03:13Z</time>
      </trkpt>
      <trkpt lat="42.93085" lon="0.76704">
        <ele>1356.56</ele>
        <time>2022-04-25T13:03:24Z</time>
      </trkpt>
      <trkpt lat="42.93081" lon="0.7672">
        <ele>1354.63</ele>
        <time>2022-04-25T13:03:38Z</time>
      </trkpt>
      <trkpt lat="42.9308" lon="0.76722">
        <ele>1354.63</ele>
        <time>2022-04-25T13:03:40Z</time>
      </trkpt>
      <trkpt lat="42.93069" lon="0.7674">
        <ele>1352.23</ele>
        <time>2022-04-25T13:03:57Z</time>
      </trkpt>
      <trkpt lat="42.9306" lon="0.76753">
        <ele>1350.31</ele>
        <time>2022-04-25T13:04:09Z</time>
      </trkpt>
      <trkpt lat="42.93048" lon="0.76762">
        <ele>1348.87</ele>
        <time>2022-04-25T13:04:22Z</time>
      </trkpt>
      <trkpt lat="42.93043" lon="0.76782">
        <ele>1346.94</ele>
        <time>2022-04-25T13:04:36Z</time>
      </trkpt>
      <trkpt lat="42.93042" lon="0.76801">
        <ele>1345.5</ele>
        <time>2022-04-25T13:04:49Z</time>
      </trkpt>
      <trkpt lat="42.93038" lon="0.76814">
        <ele>1343.1</ele>
        <time>2022-04-25T13:04:59Z</time>
      </trkpt>
      <trkpt lat="42.93027" lon="0.76824">
        <ele>1341.66</ele>
        <time>2022-04-25T13:05:12Z</time>
      </trkpt>
      <trkpt lat="42.93013" lon="0.76836">
        <ele>1339.73</ele>
        <time>2022-04-25T13:05:26Z</time>
      </trkpt>
      <trkpt lat="42.9301" lon="0.76841">
        <ele>1339.25</ele>
        <time>2022-04-25T13:05:31Z</time>
      </trkpt>
      <trkpt lat="42.93004" lon="0.76852">
        <ele>1337.33</ele>
        <time>2022-04-25T13:05:42Z</time>
      </trkpt>
      <trkpt lat="42.92994" lon="0.76869">
        <ele>1335.41</ele>
        <time>2022-04-25T13:05:57Z</time>
      </trkpt>
      <trkpt lat="42.92988" lon="0.76884">
        <ele>1333.97</ele>
        <time>2022-04-25T13:06:09Z</time>
      </trkpt>
      <trkpt lat="42.9298" lon="0.76894">
        <ele>1332.52</ele>
        <time>2022-04-25T13:06:20Z</time>
      </trkpt>
      <trkpt lat="42.92971" lon="0.76906">
        <ele>1330.6</ele>
        <time>2022-04-25T13:06:31Z</time>
      </trkpt>
      <trkpt lat="42.92966" lon="0.76921">
        <ele>1329.16</ele>
        <time>2022-04-25T13:06:42Z</time>
      </trkpt>
      <trkpt lat="42.92965" lon="0.76933">
        <ele>1328.68</ele>
        <time>2022-04-25T13:06:49Z</time>
      </trkpt>
      <trkpt lat="42.92966" lon="0.76946">
        <ele>1327.72</ele>
        <time>2022-04-25T13:06:57Z</time>
      </trkpt>
      <trkpt lat="42.92969" lon="0.76968">
        <ele>1325.31</ele>
        <time>2022-04-25T13:07:13Z</time>
      </trkpt>
      <trkpt lat="42.92966" lon="0.7698">
        <ele>1323.87</ele>
        <time>2022-04-25T13:07:24Z</time>
      </trkpt>
      <trkpt lat="42.92963" lon="0.76985">
        <ele>1322.91</ele>
        <time>2022-04-25T13:07:35Z</time>
      </trkpt>
      <trkpt lat="42.92958" lon="0.76999">
        <ele>1321.47</ele>
        <time>2022-04-25T13:07:47Z</time>
      </trkpt>
      <trkpt lat="42.92957" lon="0.77005">
        <ele>1320.99</ele>
        <time>2022-04-25T13:07:51Z</time>
      </trkpt>
      <trkpt lat="42.92952" lon="0.77021">
        <ele>1318.59</ele>
        <time>2022-04-25T13:08:05Z</time>
      </trkpt>
      <trkpt lat="42.92951" lon="0.7704">
        <ele>1317.62</ele>
        <time>2022-04-25T13:08:16Z</time>
      </trkpt>
      <trkpt lat="42.92948" lon="0.77057">
        <ele>1315.7</ele>
        <time>2022-04-25T13:08:28Z</time>
      </trkpt>
      <trkpt lat="42.92943" lon="0.77073">
        <ele>1313.3</ele>
        <time>2022-04-25T13:08:42Z</time>
      </trkpt>
      <trkpt lat="42.9294" lon="0.77088">
        <ele>1312.34</ele>
        <time>2022-04-25T13:08:53Z</time>
      </trkpt>
      <trkpt lat="42.92939" lon="0.771">
        <ele>1310.41</ele>
        <time>2022-04-25T13:09:01Z</time>
      </trkpt>
      <trkpt lat="42.92937" lon="0.77121">
        <ele>1309.45</ele>
        <time>2022-04-25T13:09:15Z</time>
      </trkpt>
      <trkpt lat="42.92935" lon="0.77132">
        <ele>1308.01</ele>
        <time>2022-04-25T13:09:23Z</time>
      </trkpt>
      <trkpt lat="42.92934" lon="0.7715">
        <ele>1306.57</ele>
        <time>2022-04-25T13:09:35Z</time>
      </trkpt>
      <trkpt lat="42.92933" lon="0.77154">
        <ele>1306.09</ele>
        <time>2022-04-25T13:09:39Z</time>
      </trkpt>
      <trkpt lat="42.92931" lon="0.77163">
        <ele>1304.65</ele>
        <time>2022-04-25T13:09:46Z</time>
      </trkpt>
      <trkpt lat="42.92931" lon="0.77183">
        <ele>1302.24</ele>
        <time>2022-04-25T13:10:00Z</time>
      </trkpt>
      <trkpt lat="42.92931" lon="0.77199">
        <ele>1301.28</ele>
        <time>2022-04-25T13:10:12Z</time>
      </trkpt>
      <trkpt lat="42.92933" lon="0.77212">
        <ele>1299.84</ele>
        <time>2022-04-25T13:10:23Z</time>
      </trkpt>
      <trkpt lat="42.92937" lon="0.7723">
        <ele>1297.92</ele>
        <time>2022-04-25T13:10:37Z</time>
      </trkpt>
      <trkpt lat="42.92943" lon="0.77246">
        <ele>1295.51</ele>
        <time>2022-04-25T13:10:51Z</time>
      </trkpt>
      <trkpt lat="42.92947" lon="0.77264">
        <ele>1293.59</ele>
        <time>2022-04-25T13:11:03Z</time>
      </trkpt>
      <trkpt lat="42.92951" lon="0.77284">
        <ele>1291.19</ele>
        <time>2022-04-25T13:11:17Z</time>
      </trkpt>
      <trkpt lat="42.92957" lon="0.77306">
        <ele>1289.27</ele>
        <time>2022-04-25T13:11:33Z</time>
      </trkpt>
      <trkpt lat="42.92964" lon="0.77322">
        <ele>1288.3</ele>
        <time>2022-04-25T13:11:47Z</time>
      </trkpt>
      <trkpt lat="42.92959" lon="0.7734">
        <ele>1286.86</ele>
        <time>2022-04-25T13:12:00Z</time>
      </trkpt>
      <trkpt lat="42.92954" lon="0.77344">
        <ele>1282.54</ele>
        <time>2022-04-25T13:12:08Z</time>
      </trkpt>
      <trkpt lat="42.92953" lon="0.77344">
        <ele>1286.86</ele>
        <time>2022-04-25T13:12:09Z</time>
      </trkpt>
      <trkpt lat="42.92949" lon="0.77344">
        <ele>1283.5</ele>
        <time>2022-04-25T13:12:13Z</time>
      </trkpt>
      <trkpt lat="42.92948" lon="0.77341">
        <ele>1283.98</ele>
        <time>2022-04-25T13:12:21Z</time>
      </trkpt>
      <trkpt lat="42.92939" lon="0.77345">
        <ele>1283.5</ele>
        <time>2022-04-25T13:12:35Z</time>
      </trkpt>
      <trkpt lat="42.92936" lon="0.7736">
        <ele>1281.57</ele>
        <time>2022-04-25T13:12:48Z</time>
      </trkpt>
      <trkpt lat="42.92936" lon="0.77374">
        <ele>1280.13</ele>
        <time>2022-04-25T13:13:00Z</time>
      </trkpt>
      <trkpt lat="42.92931" lon="0.77376">
        <ele>1279.65</ele>
        <time>2022-04-25T13:13:10Z</time>
      </trkpt>
      <trkpt lat="42.9293" lon="0.77374">
        <ele>1281.09</ele>
        <time>2022-04-25T13:13:14Z</time>
      </trkpt>
      <trkpt lat="42.92924" lon="0.77374">
        <ele>1282.54</ele>
        <time>2022-04-25T13:13:25Z</time>
      </trkpt>
      <trkpt lat="42.92919" lon="0.77372">
        <ele>1283.98</ele>
        <time>2022-04-25T13:13:35Z</time>
      </trkpt>
      <trkpt lat="42.92912" lon="0.77373">
        <ele>1286.38</ele>
        <time>2022-04-25T13:13:45Z</time>
      </trkpt>
      <trkpt lat="42.92908" lon="0.77371">
        <ele>1286.38</ele>
        <time>2022-04-25T13:13:58Z</time>
      </trkpt>
      <trkpt lat="42.92905" lon="0.77378">
        <ele>1286.38</ele>
        <time>2022-04-25T13:14:14Z</time>
      </trkpt>
      <trkpt lat="42.92903" lon="0.77386">
        <ele>1287.82</ele>
        <time>2022-04-25T13:14:26Z</time>
      </trkpt>
      <trkpt lat="42.92896" lon="0.77392">
        <ele>1290.71</ele>
        <time>2022-04-25T13:14:40Z</time>
      </trkpt>
      <trkpt lat="42.92892" lon="0.77395">
        <ele>1291.67</ele>
        <time>2022-04-25T13:14:53Z</time>
      </trkpt>
      <trkpt lat="42.92889" lon="0.77394">
        <ele>1291.67</ele>
        <time>2022-04-25T13:15:01Z</time>
      </trkpt>
      <trkpt lat="42.9288" lon="0.774">
        <ele>1288.3</ele>
        <time>2022-04-25T13:15:16Z</time>
      </trkpt>
      <trkpt lat="42.92874" lon="0.77403">
        <ele>1286.38</ele>
        <time>2022-04-25T13:15:31Z</time>
      </trkpt>
      <trkpt lat="42.92861" lon="0.77408">
        <ele>1283.98</ele>
        <time>2022-04-25T13:15:46Z</time>
      </trkpt>
      <trkpt lat="42.92855" lon="0.77403">
        <ele>1282.54</ele>
        <time>2022-04-25T13:15:59Z</time>
      </trkpt>
      <trkpt lat="42.9285" lon="0.77402">
        <ele>1280.61</ele>
        <time>2022-04-25T13:16:13Z</time>
      </trkpt>
      <trkpt lat="42.92842" lon="0.77403">
        <ele>1278.69</ele>
        <time>2022-04-25T13:16:26Z</time>
      </trkpt>
      <trkpt lat="42.92834" lon="0.77408">
        <ele>1276.77</ele>
        <time>2022-04-25T13:16:38Z</time>
      </trkpt>
      <trkpt lat="42.92833" lon="0.77408">
        <ele>1275.81</ele>
        <time>2022-04-25T13:16:47Z</time>
      </trkpt>
      <trkpt lat="42.92832" lon="0.77406">
        <ele>1274.36</ele>
        <time>2022-04-25T13:16:59Z</time>
      </trkpt>
      <trkpt lat="42.92826" lon="0.77406">
        <ele>1272.92</ele>
        <time>2022-04-25T13:17:08Z</time>
      </trkpt>
      <trkpt lat="42.92816" lon="0.774">
        <ele>1272.92</ele>
        <time>2022-04-25T13:17:20Z</time>
      </trkpt>
      <trkpt lat="42.9281" lon="0.77393">
        <ele>1274.36</ele>
        <time>2022-04-25T13:17:28Z</time>
      </trkpt>
      <trkpt lat="42.928" lon="0.77382">
        <ele>1274.85</ele>
        <time>2022-04-25T13:17:43Z</time>
      </trkpt>
      <trkpt lat="42.92791" lon="0.77368">
        <ele>1275.81</ele>
        <time>2022-04-25T13:17:56Z</time>
      </trkpt>
      <trkpt lat="42.92782" lon="0.77363">
        <ele>1276.29</ele>
        <time>2022-04-25T13:18:06Z</time>
      </trkpt>
      <trkpt lat="42.92773" lon="0.77358">
        <ele>1277.25</ele>
        <time>2022-04-25T13:18:17Z</time>
      </trkpt>
      <trkpt lat="42.9276" lon="0.7735">
        <ele>1278.21</ele>
        <time>2022-04-25T13:18:30Z</time>
      </trkpt>
      <trkpt lat="42.9275" lon="0.77343">
        <ele>1278.69</ele>
        <time>2022-04-25T13:18:42Z</time>
      </trkpt>
      <trkpt lat="42.92741" lon="0.77334">
        <ele>1279.17</ele>
        <time>2022-04-25T13:18:54Z</time>
      </trkpt>
      <trkpt lat="42.92727" lon="0.77327">
        <ele>1280.61</ele>
        <time>2022-04-25T13:19:09Z</time>
      </trkpt>
      <trkpt lat="42.92718" lon="0.77324">
        <ele>1281.09</ele>
        <time>2022-04-25T13:19:19Z</time>
      </trkpt>
      <trkpt lat="42.92706" lon="0.77319">
        <ele>1281.57</ele>
        <time>2022-04-25T13:19:31Z</time>
      </trkpt>
      <trkpt lat="42.92694" lon="0.77311">
        <ele>1282.06</ele>
        <time>2022-04-25T13:19:44Z</time>
      </trkpt>
      <trkpt lat="42.92688" lon="0.77304">
        <ele>1282.06</ele>
        <time>2022-04-25T13:19:51Z</time>
      </trkpt>
      <trkpt lat="42.92673" lon="0.77294">
        <ele>1282.54</ele>
        <time>2022-04-25T13:20:04Z</time>
      </trkpt>
      <trkpt lat="42.92657" lon="0.77283">
        <ele>1283.02</ele>
        <time>2022-04-25T13:20:19Z</time>
      </trkpt>
      <trkpt lat="42.92645" lon="0.77274">
        <ele>1284.46</ele>
        <time>2022-04-25T13:20:35Z</time>
      </trkpt>
      <trkpt lat="42.92635" lon="0.77268">
        <ele>1285.42</ele>
        <time>2022-04-25T13:20:48Z</time>
      </trkpt>
      <trkpt lat="42.92632" lon="0.77266">
        <ele>1285.42</ele>
        <time>2022-04-25T13:20:51Z</time>
      </trkpt>
      <trkpt lat="42.92622" lon="0.77256">
        <ele>1286.38</ele>
        <time>2022-04-25T13:21:03Z</time>
      </trkpt>
      <trkpt lat="42.9262" lon="0.77255">
        <ele>1286.86</ele>
        <time>2022-04-25T13:21:15Z</time>
      </trkpt>
      <trkpt lat="42.92621" lon="0.77253">
        <ele>1286.86</ele>
        <time>2022-04-25T13:21:33Z</time>
      </trkpt>
      <trkpt lat="42.92619" lon="0.77251">
        <ele>1286.86</ele>
        <time>2022-04-25T13:21:51Z</time>
      </trkpt>
      <trkpt lat="42.92615" lon="0.77246">
        <ele>1287.34</ele>
        <time>2022-04-25T13:22:02Z</time>
      </trkpt>
      <trkpt lat="42.92609" lon="0.77238">
        <ele>1287.82</ele>
        <time>2022-04-25T13:22:12Z</time>
      </trkpt>
      <trkpt lat="42.92603" lon="0.77228">
        <ele>1288.3</ele>
        <time>2022-04-25T13:22:23Z</time>
      </trkpt>
      <trkpt lat="42.92594" lon="0.77217">
        <ele>1289.27</ele>
        <time>2022-04-25T13:22:36Z</time>
      </trkpt>
      <trkpt lat="42.92584" lon="0.77207">
        <ele>1290.23</ele>
        <time>2022-04-25T13:22:49Z</time>
      </trkpt>
      <trkpt lat="42.92575" lon="0.77197">
        <ele>1290.71</ele>
        <time>2022-04-25T13:23:01Z</time>
      </trkpt>
      <trkpt lat="42.92567" lon="0.77186">
        <ele>1291.67</ele>
        <time>2022-04-25T13:23:12Z</time>
      </trkpt>
      <trkpt lat="42.92561" lon="0.77175">
        <ele>1292.15</ele>
        <time>2022-04-25T13:23:24Z</time>
      </trkpt>
      <trkpt lat="42.92557" lon="0.77176">
        <ele>1292.63</ele>
        <time>2022-04-25T13:23:35Z</time>
      </trkpt>
      <trkpt lat="42.92554" lon="0.7717">
        <ele>1292.63</ele>
        <time>2022-04-25T13:23:45Z</time>
      </trkpt>
      <trkpt lat="42.92551" lon="0.77162">
        <ele>1293.11</ele>
        <time>2022-04-25T13:23:59Z</time>
      </trkpt>
      <trkpt lat="42.92548" lon="0.77149">
        <ele>1294.07</ele>
        <time>2022-04-25T13:24:11Z</time>
      </trkpt>
      <trkpt lat="42.92543" lon="0.77139">
        <ele>1294.55</ele>
        <time>2022-04-25T13:24:22Z</time>
      </trkpt>
      <trkpt lat="42.92536" lon="0.77129">
        <ele>1295.03</ele>
        <time>2022-04-25T13:24:34Z</time>
      </trkpt>
      <trkpt lat="42.92528" lon="0.77118">
        <ele>1295.51</ele>
        <time>2022-04-25T13:24:46Z</time>
      </trkpt>
      <trkpt lat="42.92516" lon="0.77109">
        <ele>1296.96</ele>
        <time>2022-04-25T13:24:58Z</time>
      </trkpt>
      <trkpt lat="42.92507" lon="0.77105">
        <ele>1297.44</ele>
        <time>2022-04-25T13:25:09Z</time>
      </trkpt>
      <trkpt lat="42.92497" lon="0.771">
        <ele>1297.92</ele>
        <time>2022-04-25T13:25:19Z</time>
      </trkpt>
      <trkpt lat="42.92484" lon="0.77091">
        <ele>1298.4</ele>
        <time>2022-04-25T13:25:32Z</time>
      </trkpt>
      <trkpt lat="42.92474" lon="0.77084">
        <ele>1299.36</ele>
        <time>2022-04-25T13:25:43Z</time>
      </trkpt>
      <trkpt lat="42.92459" lon="0.77073">
        <ele>1300.32</ele>
        <time>2022-04-25T13:25:57Z</time>
      </trkpt>
      <trkpt lat="42.92446" lon="0.77062">
        <ele>1301.28</ele>
        <time>2022-04-25T13:26:11Z</time>
      </trkpt>
      <trkpt lat="42.92435" lon="0.77054">
        <ele>1302.24</ele>
        <time>2022-04-25T13:26:23Z</time>
      </trkpt>
      <trkpt lat="42.92427" lon="0.77048">
        <ele>1302.72</ele>
        <time>2022-04-25T13:26:35Z</time>
      </trkpt>
      <trkpt lat="42.92416" lon="0.77045">
        <ele>1304.17</ele>
        <time>2022-04-25T13:26:47Z</time>
      </trkpt>
      <trkpt lat="42.92402" lon="0.77041">
        <ele>1305.13</ele>
        <time>2022-04-25T13:27:00Z</time>
      </trkpt>
      <trkpt lat="42.92387" lon="0.77036">
        <ele>1306.09</ele>
        <time>2022-04-25T13:27:11Z</time>
      </trkpt>
      <trkpt lat="42.92374" lon="0.77037">
        <ele>1306.57</ele>
        <time>2022-04-25T13:27:23Z</time>
      </trkpt>
      <trkpt lat="42.92364" lon="0.77037">
        <ele>1307.53</ele>
        <time>2022-04-25T13:27:33Z</time>
      </trkpt>
      <trkpt lat="42.92362" lon="0.77036">
        <ele>1307.53</ele>
        <time>2022-04-25T13:27:34Z</time>
      </trkpt>
      <trkpt lat="42.92348" lon="0.7704">
        <ele>1308.49</ele>
        <time>2022-04-25T13:27:46Z</time>
      </trkpt>
      <trkpt lat="42.92332" lon="0.77041">
        <ele>1308.49</ele>
        <time>2022-04-25T13:27:59Z</time>
      </trkpt>
      <trkpt lat="42.92322" lon="0.7704">
        <ele>1309.45</ele>
        <time>2022-04-25T13:28:11Z</time>
      </trkpt>
      <trkpt lat="42.9232" lon="0.77039">
        <ele>1309.45</ele>
        <time>2022-04-25T13:28:14Z</time>
      </trkpt>
      <trkpt lat="42.9231" lon="0.77031">
        <ele>1309.93</ele>
        <time>2022-04-25T13:28:26Z</time>
      </trkpt>
      <trkpt lat="42.92301" lon="0.77022">
        <ele>1310.41</ele>
        <time>2022-04-25T13:28:38Z</time>
      </trkpt>
      <trkpt lat="42.92291" lon="0.77011">
        <ele>1310.41</ele>
        <time>2022-04-25T13:28:50Z</time>
      </trkpt>
      <trkpt lat="42.92281" lon="0.76997">
        <ele>1311.38</ele>
        <time>2022-04-25T13:29:02Z</time>
      </trkpt>
      <trkpt lat="42.92276" lon="0.76988">
        <ele>1311.86</ele>
        <time>2022-04-25T13:29:10Z</time>
      </trkpt>
      <trkpt lat="42.92271" lon="0.76975">
        <ele>1312.34</ele>
        <time>2022-04-25T13:29:20Z</time>
      </trkpt>
      <trkpt lat="42.92266" lon="0.76961">
        <ele>1313.3</ele>
        <time>2022-04-25T13:29:32Z</time>
      </trkpt>
      <trkpt lat="42.92258" lon="0.76945">
        <ele>1313.78</ele>
        <time>2022-04-25T13:29:46Z</time>
      </trkpt>
      <trkpt lat="42.92258" lon="0.76943">
        <ele>1313.78</ele>
        <time>2022-04-25T13:29:47Z</time>
      </trkpt>
      <trkpt lat="42.92253" lon="0.76921">
        <ele>1315.22</ele>
        <time>2022-04-25T13:30:02Z</time>
      </trkpt>
      <trkpt lat="42.92247" lon="0.76906">
        <ele>1315.7</ele>
        <time>2022-04-25T13:30:13Z</time>
      </trkpt>
      <trkpt lat="42.92244" lon="0.76891">
        <ele>1316.18</ele>
        <time>2022-04-25T13:30:23Z</time>
      </trkpt>
      <trkpt lat="42.92241" lon="0.76881">
        <ele>1316.66</ele>
        <time>2022-04-25T13:30:31Z</time>
      </trkpt>
      <trkpt lat="42.92237" lon="0.76865">
        <ele>1317.14</ele>
        <time>2022-04-25T13:30:42Z</time>
      </trkpt>
      <trkpt lat="42.92232" lon="0.76847">
        <ele>1318.1</ele>
        <time>2022-04-25T13:30:55Z</time>
      </trkpt>
      <trkpt lat="42.92228" lon="0.76827">
        <ele>1318.59</ele>
        <time>2022-04-25T13:31:09Z</time>
      </trkpt>
      <trkpt lat="42.92224" lon="0.76813">
        <ele>1319.07</ele>
        <time>2022-04-25T13:31:21Z</time>
      </trkpt>
      <trkpt lat="42.92223" lon="0.7681">
        <ele>1319.55</ele>
        <time>2022-04-25T13:31:24Z</time>
      </trkpt>
      <trkpt lat="42.92219" lon="0.7679">
        <ele>1320.03</ele>
        <time>2022-04-25T13:31:38Z</time>
      </trkpt>
      <trkpt lat="42.92216" lon="0.76771">
        <ele>1320.51</ele>
        <time>2022-04-25T13:31:51Z</time>
      </trkpt>
      <trkpt lat="42.92213" lon="0.76759">
        <ele>1321.47</ele>
        <time>2022-04-25T13:32:00Z</time>
      </trkpt>
      <trkpt lat="42.92212" lon="0.76753">
        <ele>1321.95</ele>
        <time>2022-04-25T13:32:04Z</time>
      </trkpt>
      <trkpt lat="42.92211" lon="0.76735">
        <ele>1322.43</ele>
        <time>2022-04-25T13:32:17Z</time>
      </trkpt>
      <trkpt lat="42.9221" lon="0.7672">
        <ele>1323.39</ele>
        <time>2022-04-25T13:32:28Z</time>
      </trkpt>
      <trkpt lat="42.92209" lon="0.76704">
        <ele>1323.87</ele>
        <time>2022-04-25T13:32:39Z</time>
      </trkpt>
      <trkpt lat="42.92208" lon="0.76692">
        <ele>1324.35</ele>
        <time>2022-04-25T13:32:47Z</time>
      </trkpt>
      <trkpt lat="42.92206" lon="0.76675">
        <ele>1324.83</ele>
        <time>2022-04-25T13:33:00Z</time>
      </trkpt>
      <trkpt lat="42.92204" lon="0.76656">
        <ele>1325.31</ele>
        <time>2022-04-25T13:33:14Z</time>
      </trkpt>
      <trkpt lat="42.92205" lon="0.76637">
        <ele>1325.8</ele>
        <time>2022-04-25T13:33:26Z</time>
      </trkpt>
      <trkpt lat="42.92204" lon="0.76612">
        <ele>1327.72</ele>
        <time>2022-04-25T13:33:41Z</time>
      </trkpt>
      <trkpt lat="42.92202" lon="0.76589">
        <ele>1328.68</ele>
        <time>2022-04-25T13:33:56Z</time>
      </trkpt>
      <trkpt lat="42.92199" lon="0.76567">
        <ele>1329.16</ele>
        <time>2022-04-25T13:34:10Z</time>
      </trkpt>
      <trkpt lat="42.92193" lon="0.76547">
        <ele>1329.64</ele>
        <time>2022-04-25T13:34:25Z</time>
      </trkpt>
      <trkpt lat="42.9219" lon="0.76533">
        <ele>1330.12</ele>
        <time>2022-04-25T13:34:35Z</time>
      </trkpt>
      <trkpt lat="42.92186" lon="0.7652">
        <ele>1330.6</ele>
        <time>2022-04-25T13:34:46Z</time>
      </trkpt>
      <trkpt lat="42.92179" lon="0.76504">
        <ele>1331.08</ele>
        <time>2022-04-25T13:34:58Z</time>
      </trkpt>
      <trkpt lat="42.9217" lon="0.76492">
        <ele>1331.56</ele>
        <time>2022-04-25T13:35:10Z</time>
      </trkpt>
      <trkpt lat="42.92161" lon="0.7648">
        <ele>1331.56</ele>
        <time>2022-04-25T13:35:22Z</time>
      </trkpt>
      <trkpt lat="42.9216" lon="0.76475">
        <ele>1331.56</ele>
        <time>2022-04-25T13:35:26Z</time>
      </trkpt>
      <trkpt lat="42.92153" lon="0.76458">
        <ele>1332.04</ele>
        <time>2022-04-25T13:35:38Z</time>
      </trkpt>
      <trkpt lat="42.92146" lon="0.76438">
        <ele>1333.01</ele>
        <time>2022-04-25T13:35:52Z</time>
      </trkpt>
      <trkpt lat="42.92139" lon="0.7642">
        <ele>1333.49</ele>
        <time>2022-04-25T13:36:06Z</time>
      </trkpt>
      <trkpt lat="42.92133" lon="0.76404">
        <ele>1333.97</ele>
        <time>2022-04-25T13:36:17Z</time>
      </trkpt>
      <trkpt lat="42.92127" lon="0.76386">
        <ele>1334.45</ele>
        <time>2022-04-25T13:36:30Z</time>
      </trkpt>
      <trkpt lat="42.92118" lon="0.76366">
        <ele>1334.93</ele>
        <time>2022-04-25T13:36:44Z</time>
      </trkpt>
      <trkpt lat="42.92107" lon="0.76346">
        <ele>1335.89</ele>
        <time>2022-04-25T13:36:57Z</time>
      </trkpt>
      <trkpt lat="42.921" lon="0.76324">
        <ele>1336.37</ele>
        <time>2022-04-25T13:37:14Z</time>
      </trkpt>
      <trkpt lat="42.92096" lon="0.76306">
        <ele>1337.33</ele>
        <time>2022-04-25T13:37:27Z</time>
      </trkpt>
      <trkpt lat="42.92093" lon="0.76293">
        <ele>1337.81</ele>
        <time>2022-04-25T13:37:34Z</time>
      </trkpt>
      <trkpt lat="42.92084" lon="0.76277">
        <ele>1338.29</ele>
        <time>2022-04-25T13:37:47Z</time>
      </trkpt>
      <trkpt lat="42.92082" lon="0.76272">
        <ele>1339.73</ele>
        <time>2022-04-25T13:37:59Z</time>
      </trkpt>
      <trkpt lat="42.92075" lon="0.76263">
        <ele>1339.73</ele>
        <time>2022-04-25T13:38:10Z</time>
      </trkpt>
      <trkpt lat="42.92064" lon="0.76256">
        <ele>1339.73</ele>
        <time>2022-04-25T13:38:22Z</time>
      </trkpt>
      <trkpt lat="42.92055" lon="0.76251">
        <ele>1340.22</ele>
        <time>2022-04-25T13:38:30Z</time>
      </trkpt>
      <trkpt lat="42.92044" lon="0.76244">
        <ele>1341.18</ele>
        <time>2022-04-25T13:38:41Z</time>
      </trkpt>
      <trkpt lat="42.92037" lon="0.76237">
        <ele>1341.18</ele>
        <time>2022-04-25T13:38:49Z</time>
      </trkpt>
      <trkpt lat="42.92025" lon="0.76228">
        <ele>1341.18</ele>
        <time>2022-04-25T13:39:01Z</time>
      </trkpt>
      <trkpt lat="42.92016" lon="0.76219">
        <ele>1341.18</ele>
        <time>2022-04-25T13:39:13Z</time>
      </trkpt>
      <trkpt lat="42.92009" lon="0.76208">
        <ele>1341.66</ele>
        <time>2022-04-25T13:39:24Z</time>
      </trkpt>
      <trkpt lat="42.91998" lon="0.76193">
        <ele>1342.62</ele>
        <time>2022-04-25T13:39:39Z</time>
      </trkpt>
      <trkpt lat="42.91989" lon="0.76184">
        <ele>1343.1</ele>
        <time>2022-04-25T13:39:49Z</time>
      </trkpt>
      <trkpt lat="42.91977" lon="0.76171">
        <ele>1344.54</ele>
        <time>2022-04-25T13:40:03Z</time>
      </trkpt>
      <trkpt lat="42.91971" lon="0.76169">
        <ele>1345.02</ele>
        <time>2022-04-25T13:40:08Z</time>
      </trkpt>
      <trkpt lat="42.91956" lon="0.76166">
        <ele>1346.46</ele>
        <time>2022-04-25T13:40:22Z</time>
      </trkpt>
      <trkpt lat="42.91942" lon="0.76172">
        <ele>1346.94</ele>
        <time>2022-04-25T13:40:37Z</time>
      </trkpt>
      <trkpt lat="42.91938" lon="0.76173">
        <ele>1345.5</ele>
        <time>2022-04-25T13:40:46Z</time>
      </trkpt>
      <trkpt lat="42.91925" lon="0.76174">
        <ele>1346.46</ele>
        <time>2022-04-25T13:40:58Z</time>
      </trkpt>
      <trkpt lat="42.91915" lon="0.7618">
        <ele>1346.46</ele>
        <time>2022-04-25T13:41:11Z</time>
      </trkpt>
      <trkpt lat="42.91917" lon="0.76182">
        <ele>1346.46</ele>
        <time>2022-04-25T13:41:26Z</time>
      </trkpt>
      <trkpt lat="42.91916" lon="0.76181">
        <ele>1345.02</ele>
        <time>2022-04-25T13:41:44Z</time>
      </trkpt>
      <trkpt lat="42.91917" lon="0.76184">
        <ele>1345.02</ele>
        <time>2022-04-25T13:42:04Z</time>
      </trkpt>
      <trkpt lat="42.91918" lon="0.76185">
        <ele>1345.02</ele>
        <time>2022-04-25T13:42:06Z</time>
      </trkpt>
      <trkpt lat="42.91918" lon="0.7619">
        <ele>1345.02</ele>
        <time>2022-04-25T13:42:17Z</time>
      </trkpt>
      <trkpt lat="42.91919" lon="0.76182">
        <ele>1345.02</ele>
        <time>2022-04-25T13:42:26Z</time>
      </trkpt>
      <trkpt lat="42.91919" lon="0.76182">
        <ele>1341.66</ele>
        <time>2022-04-25T13:42:32Z</time>
      </trkpt>
      <trkpt lat="42.91919" lon="0.76182">
        <ele>1349.35</ele>
        <time>2022-04-25T13:42:33Z</time>
      </trkpt>
      <trkpt lat="42.91919" lon="0.76182">
        <ele>1345.98</ele>
        <time>2022-04-25T13:42:34Z</time>
      </trkpt>
      <trkpt lat="42.91916" lon="0.76178">
        <ele>1346.46</ele>
        <time>2022-04-25T13:42:52Z</time>
      </trkpt>
    </trkseg>
  </trk>
</gpx>